<?xml version="1.0" encoding="UTF-8" standalone="no" ?>
<gpx xmlns="http://www.topografix.com/GPX/1/1" xmlns:xsi="http://www.w3.org/2001/XMLSchema-instance" xsi:schemaLocation="http://www.topografix.com/GPX/1/1 http://www.topografix.com/GPX/1/1/gpx.xsd" version="1.1" creator="VisuGPX - https://www.visugpx.com">
  <metadata>
    <name>Sommet des Anges</name>
    <desc><![CDATA[Monginevro - Sommet des Anges]]></desc>
  </metadata>
  <trk>
    <name><![CDATA[Sommet_Anges_2022-11-30]]></name>
    <trkseg>
      <trkpt lat="44.92901" lon="6.71674">
        <ele>1869.4</ele>
        <time>2022-11-30T08:40:20Z</time>
      </trkpt>
      <trkpt lat="44.92899" lon="6.71676">
        <ele>1871.42</ele>
        <time>2022-11-30T08:40:30Z</time>
      </trkpt>
      <trkpt lat="44.92898" lon="6.71675">
        <ele>1872.36</ele>
        <time>2022-11-30T08:40:40Z</time>
      </trkpt>
      <trkpt lat="44.929" lon="6.71674">
        <ele>1872.36</ele>
        <time>2022-11-30T08:40:50Z</time>
      </trkpt>
      <trkpt lat="44.92898" lon="6.71676">
        <ele>1872.97</ele>
        <time>2022-11-30T08:41:00Z</time>
      </trkpt>
      <trkpt lat="44.92897" lon="6.71677">
        <ele>1873.61</ele>
        <time>2022-11-30T08:41:10Z</time>
      </trkpt>
      <trkpt lat="44.92897" lon="6.71682">
        <ele>1874.19</ele>
        <time>2022-11-30T08:41:20Z</time>
      </trkpt>
      <trkpt lat="44.92895" lon="6.71682">
        <ele>1891.92</ele>
        <time>2022-11-30T08:41:30Z</time>
      </trkpt>
      <trkpt lat="44.92895" lon="6.71681">
        <ele>1889.95</ele>
        <time>2022-11-30T08:41:40Z</time>
      </trkpt>
      <trkpt lat="44.92896" lon="6.7168">
        <ele>1873.03</ele>
        <time>2022-11-30T08:41:55Z</time>
      </trkpt>
      <trkpt lat="44.92897" lon="6.71677">
        <ele>1873.99</ele>
        <time>2022-11-30T08:42:05Z</time>
      </trkpt>
      <trkpt lat="44.92897" lon="6.71676">
        <ele>1872.86</ele>
        <time>2022-11-30T08:43:38Z</time>
      </trkpt>
      <trkpt lat="44.92898" lon="6.71675">
        <ele>1872.3</ele>
        <time>2022-11-30T08:44:00Z</time>
      </trkpt>
      <trkpt lat="44.92898" lon="6.71674">
        <ele>1873.43</ele>
        <time>2022-11-30T08:44:56Z</time>
      </trkpt>
      <trkpt lat="44.92898" lon="6.71675">
        <ele>1874.36</ele>
        <time>2022-11-30T08:45:22Z</time>
      </trkpt>
      <trkpt lat="44.92898" lon="6.71677">
        <ele>1876.83</ele>
        <time>2022-11-30T08:45:32Z</time>
      </trkpt>
      <trkpt lat="44.92897" lon="6.71676">
        <ele>1875.6</ele>
        <time>2022-11-30T08:46:16Z</time>
      </trkpt>
      <trkpt lat="44.92896" lon="6.71676">
        <ele>1873.07</ele>
        <time>2022-11-30T08:48:12Z</time>
      </trkpt>
      <trkpt lat="44.92896" lon="6.71673">
        <ele>1874.67</ele>
        <time>2022-11-30T08:48:22Z</time>
      </trkpt>
      <trkpt lat="44.92896" lon="6.71674">
        <ele>1876.08</ele>
        <time>2022-11-30T08:48:40Z</time>
      </trkpt>
      <trkpt lat="44.92897" lon="6.71675">
        <ele>1876.43</ele>
        <time>2022-11-30T08:51:12Z</time>
      </trkpt>
      <trkpt lat="44.92897" lon="6.71674">
        <ele>1876.32</ele>
        <time>2022-11-30T08:51:26Z</time>
      </trkpt>
      <trkpt lat="44.92896" lon="6.71674">
        <ele>1873.8</ele>
        <time>2022-11-30T08:52:13Z</time>
      </trkpt>
      <trkpt lat="44.92897" lon="6.71675">
        <ele>1873.8</ele>
        <time>2022-11-30T08:52:31Z</time>
      </trkpt>
      <trkpt lat="44.92899" lon="6.71674">
        <ele>1873.99</ele>
        <time>2022-11-30T08:52:41Z</time>
      </trkpt>
      <trkpt lat="44.92893" lon="6.71677">
        <ele>1874.7</ele>
        <time>2022-11-30T08:52:51Z</time>
      </trkpt>
      <trkpt lat="44.92894" lon="6.71675">
        <ele>1875.09</ele>
        <time>2022-11-30T08:53:01Z</time>
      </trkpt>
      <trkpt lat="44.92895" lon="6.71675">
        <ele>1875.5</ele>
        <time>2022-11-30T08:53:20Z</time>
      </trkpt>
      <trkpt lat="44.92894" lon="6.71676">
        <ele>1876.46</ele>
        <time>2022-11-30T08:53:31Z</time>
      </trkpt>
      <trkpt lat="44.92893" lon="6.71684">
        <ele>1876.28</ele>
        <time>2022-11-30T08:53:41Z</time>
      </trkpt>
      <trkpt lat="44.9289" lon="6.71691">
        <ele>1876.76</ele>
        <time>2022-11-30T08:53:51Z</time>
      </trkpt>
      <trkpt lat="44.9289" lon="6.7169">
        <ele>1877.85</ele>
        <time>2022-11-30T08:54:01Z</time>
      </trkpt>
      <trkpt lat="44.92886" lon="6.71691">
        <ele>1878.23</ele>
        <time>2022-11-30T08:54:11Z</time>
      </trkpt>
      <trkpt lat="44.92886" lon="6.71692">
        <ele>1877.96</ele>
        <time>2022-11-30T08:54:21Z</time>
      </trkpt>
      <trkpt lat="44.92886" lon="6.71691">
        <ele>1877.03</ele>
        <time>2022-11-30T08:54:51Z</time>
      </trkpt>
      <trkpt lat="44.92887" lon="6.7169">
        <ele>1877.33</ele>
        <time>2022-11-30T08:55:04Z</time>
      </trkpt>
      <trkpt lat="44.92887" lon="6.71693">
        <ele>1876.92</ele>
        <time>2022-11-30T08:55:14Z</time>
      </trkpt>
      <trkpt lat="44.92888" lon="6.71696">
        <ele>1877</ele>
        <time>2022-11-30T08:55:24Z</time>
      </trkpt>
      <trkpt lat="44.92887" lon="6.71695">
        <ele>1877.64</ele>
        <time>2022-11-30T08:56:40Z</time>
      </trkpt>
      <trkpt lat="44.92886" lon="6.71694">
        <ele>1877.01</ele>
        <time>2022-11-30T08:56:55Z</time>
      </trkpt>
      <trkpt lat="44.92884" lon="6.71694">
        <ele>1879.52</ele>
        <time>2022-11-30T08:57:05Z</time>
      </trkpt>
      <trkpt lat="44.92884" lon="6.71696">
        <ele>1876.94</ele>
        <time>2022-11-30T08:57:21Z</time>
      </trkpt>
      <trkpt lat="44.92885" lon="6.71704">
        <ele>1876.7</ele>
        <time>2022-11-30T08:57:32Z</time>
      </trkpt>
      <trkpt lat="44.92884" lon="6.7171">
        <ele>1877.32</ele>
        <time>2022-11-30T08:57:41Z</time>
      </trkpt>
      <trkpt lat="44.92888" lon="6.71708">
        <ele>1877.42</ele>
        <time>2022-11-30T08:57:51Z</time>
      </trkpt>
      <trkpt lat="44.9289" lon="6.71708">
        <ele>1877.07</ele>
        <time>2022-11-30T08:58:02Z</time>
      </trkpt>
      <trkpt lat="44.9289" lon="6.71708">
        <ele>1876.07</ele>
        <time>2022-11-30T08:58:30Z</time>
      </trkpt>
      <trkpt lat="44.92889" lon="6.71707">
        <ele>1876.04</ele>
        <time>2022-11-30T08:59:08Z</time>
      </trkpt>
      <trkpt lat="44.92891" lon="6.71713">
        <ele>1876.89</ele>
        <time>2022-11-30T08:59:18Z</time>
      </trkpt>
      <trkpt lat="44.92883" lon="6.71714">
        <ele>1877</ele>
        <time>2022-11-30T08:59:28Z</time>
      </trkpt>
      <trkpt lat="44.92878" lon="6.71713">
        <ele>1877.46</ele>
        <time>2022-11-30T08:59:38Z</time>
      </trkpt>
      <trkpt lat="44.92871" lon="6.71712">
        <ele>1889.12</ele>
        <time>2022-11-30T08:59:47Z</time>
      </trkpt>
      <trkpt lat="44.92865" lon="6.71711">
        <ele>1879.03</ele>
        <time>2022-11-30T08:59:56Z</time>
      </trkpt>
      <trkpt lat="44.92859" lon="6.71713">
        <ele>1878.39</ele>
        <time>2022-11-30T09:00:07Z</time>
      </trkpt>
      <trkpt lat="44.92853" lon="6.7172">
        <ele>1879.31</ele>
        <time>2022-11-30T09:00:17Z</time>
      </trkpt>
      <trkpt lat="44.92847" lon="6.71729">
        <ele>1878.45</ele>
        <time>2022-11-30T09:00:27Z</time>
      </trkpt>
      <trkpt lat="44.92846" lon="6.71738">
        <ele>1878.36</ele>
        <time>2022-11-30T09:00:36Z</time>
      </trkpt>
      <trkpt lat="44.92842" lon="6.71739">
        <ele>1881.49</ele>
        <time>2022-11-30T09:00:46Z</time>
      </trkpt>
      <trkpt lat="44.92834" lon="6.7174">
        <ele>1878.41</ele>
        <time>2022-11-30T09:00:55Z</time>
      </trkpt>
      <trkpt lat="44.9283" lon="6.71742">
        <ele>1881.91</ele>
        <time>2022-11-30T09:01:04Z</time>
      </trkpt>
      <trkpt lat="44.92824" lon="6.71746">
        <ele>1881.29</ele>
        <time>2022-11-30T09:01:13Z</time>
      </trkpt>
      <trkpt lat="44.92821" lon="6.71753">
        <ele>1881.58</ele>
        <time>2022-11-30T09:01:23Z</time>
      </trkpt>
      <trkpt lat="44.92817" lon="6.71756">
        <ele>1883.05</ele>
        <time>2022-11-30T09:01:34Z</time>
      </trkpt>
      <trkpt lat="44.92813" lon="6.71766">
        <ele>1883.32</ele>
        <time>2022-11-30T09:01:45Z</time>
      </trkpt>
      <trkpt lat="44.92812" lon="6.71767">
        <ele>1884.86</ele>
        <time>2022-11-30T09:01:54Z</time>
      </trkpt>
      <trkpt lat="44.92808" lon="6.71772">
        <ele>1889.04</ele>
        <time>2022-11-30T09:02:04Z</time>
      </trkpt>
      <trkpt lat="44.92802" lon="6.71778">
        <ele>1885.75</ele>
        <time>2022-11-30T09:02:13Z</time>
      </trkpt>
      <trkpt lat="44.92797" lon="6.71781">
        <ele>1886.58</ele>
        <time>2022-11-30T09:02:24Z</time>
      </trkpt>
      <trkpt lat="44.92792" lon="6.71782">
        <ele>1887.28</ele>
        <time>2022-11-30T09:02:33Z</time>
      </trkpt>
      <trkpt lat="44.92787" lon="6.71779">
        <ele>1887.39</ele>
        <time>2022-11-30T09:02:44Z</time>
      </trkpt>
      <trkpt lat="44.92778" lon="6.71778">
        <ele>1884.36</ele>
        <time>2022-11-30T09:02:53Z</time>
      </trkpt>
      <trkpt lat="44.92772" lon="6.71777">
        <ele>1885.53</ele>
        <time>2022-11-30T09:03:04Z</time>
      </trkpt>
      <trkpt lat="44.92697" lon="6.71517">
        <ele>1875.05</ele>
        <time>2022-11-30T09:07:32Z</time>
      </trkpt>
      <trkpt lat="44.92702" lon="6.71514">
        <ele>1879.84</ele>
        <time>2022-11-30T09:07:41Z</time>
      </trkpt>
      <trkpt lat="44.92698" lon="6.71506">
        <ele>1880.79</ele>
        <time>2022-11-30T09:07:50Z</time>
      </trkpt>
      <trkpt lat="44.92691" lon="6.71502">
        <ele>1882.28</ele>
        <time>2022-11-30T09:08:00Z</time>
      </trkpt>
      <trkpt lat="44.92685" lon="6.71499">
        <ele>1858.51</ele>
        <time>2022-11-30T09:08:09Z</time>
      </trkpt>
      <trkpt lat="44.92679" lon="6.71497">
        <ele>1880.8</ele>
        <time>2022-11-30T09:08:19Z</time>
      </trkpt>
      <trkpt lat="44.92674" lon="6.71491">
        <ele>1883.09</ele>
        <time>2022-11-30T09:08:29Z</time>
      </trkpt>
      <trkpt lat="44.92669" lon="6.7148">
        <ele>1881.61</ele>
        <time>2022-11-30T09:08:38Z</time>
      </trkpt>
      <trkpt lat="44.92665" lon="6.71468">
        <ele>1867.36</ele>
        <time>2022-11-30T09:08:47Z</time>
      </trkpt>
      <trkpt lat="44.92663" lon="6.71464">
        <ele>1867.2</ele>
        <time>2022-11-30T09:08:57Z</time>
      </trkpt>
      <trkpt lat="44.92657" lon="6.71453">
        <ele>1867.2</ele>
        <time>2022-11-30T09:09:08Z</time>
      </trkpt>
      <trkpt lat="44.92653" lon="6.71447">
        <ele>1867.2</ele>
        <time>2022-11-30T09:09:18Z</time>
      </trkpt>
      <trkpt lat="44.9265" lon="6.71439">
        <ele>1884.21</ele>
        <time>2022-11-30T09:09:27Z</time>
      </trkpt>
      <trkpt lat="44.92648" lon="6.71433">
        <ele>1886.15</ele>
        <time>2022-11-30T09:09:37Z</time>
      </trkpt>
      <trkpt lat="44.92646" lon="6.71424">
        <ele>1886.28</ele>
        <time>2022-11-30T09:09:47Z</time>
      </trkpt>
      <trkpt lat="44.92642" lon="6.71419">
        <ele>1885.48</ele>
        <time>2022-11-30T09:09:56Z</time>
      </trkpt>
      <trkpt lat="44.92638" lon="6.71414">
        <ele>1887.65</ele>
        <time>2022-11-30T09:10:06Z</time>
      </trkpt>
      <trkpt lat="44.92633" lon="6.71409">
        <ele>1885.94</ele>
        <time>2022-11-30T09:10:16Z</time>
      </trkpt>
      <trkpt lat="44.92629" lon="6.71405">
        <ele>1888.69</ele>
        <time>2022-11-30T09:10:26Z</time>
      </trkpt>
      <trkpt lat="44.92621" lon="6.71396">
        <ele>1888.43</ele>
        <time>2022-11-30T09:10:35Z</time>
      </trkpt>
      <trkpt lat="44.92619" lon="6.71392">
        <ele>1886.93</ele>
        <time>2022-11-30T09:10:45Z</time>
      </trkpt>
      <trkpt lat="44.92615" lon="6.71386">
        <ele>1890.71</ele>
        <time>2022-11-30T09:10:55Z</time>
      </trkpt>
      <trkpt lat="44.92609" lon="6.71378">
        <ele>1888.24</ele>
        <time>2022-11-30T09:11:04Z</time>
      </trkpt>
      <trkpt lat="44.92604" lon="6.71373">
        <ele>1888.16</ele>
        <time>2022-11-30T09:11:14Z</time>
      </trkpt>
      <trkpt lat="44.92599" lon="6.71367">
        <ele>1890.04</ele>
        <time>2022-11-30T09:11:24Z</time>
      </trkpt>
      <trkpt lat="44.92593" lon="6.71361">
        <ele>1893.14</ele>
        <time>2022-11-30T09:11:33Z</time>
      </trkpt>
      <trkpt lat="44.92588" lon="6.71358">
        <ele>1893.24</ele>
        <time>2022-11-30T09:11:43Z</time>
      </trkpt>
      <trkpt lat="44.92583" lon="6.71353">
        <ele>1890.43</ele>
        <time>2022-11-30T09:11:52Z</time>
      </trkpt>
      <trkpt lat="44.92579" lon="6.71351">
        <ele>1891.02</ele>
        <time>2022-11-30T09:12:02Z</time>
      </trkpt>
      <trkpt lat="44.92573" lon="6.71347">
        <ele>1890.6</ele>
        <time>2022-11-30T09:12:12Z</time>
      </trkpt>
      <trkpt lat="44.92565" lon="6.71345">
        <ele>1892.87</ele>
        <time>2022-11-30T09:12:21Z</time>
      </trkpt>
      <trkpt lat="44.92558" lon="6.71341">
        <ele>1890.8</ele>
        <time>2022-11-30T09:12:31Z</time>
      </trkpt>
      <trkpt lat="44.92551" lon="6.71339">
        <ele>1896.13</ele>
        <time>2022-11-30T09:12:40Z</time>
      </trkpt>
      <trkpt lat="44.92544" lon="6.71336">
        <ele>1896.29</ele>
        <time>2022-11-30T09:12:52Z</time>
      </trkpt>
      <trkpt lat="44.92535" lon="6.71336">
        <ele>1893.33</ele>
        <time>2022-11-30T09:13:02Z</time>
      </trkpt>
      <trkpt lat="44.92527" lon="6.71336">
        <ele>1894.42</ele>
        <time>2022-11-30T09:13:12Z</time>
      </trkpt>
      <trkpt lat="44.92519" lon="6.71338">
        <ele>1899.53</ele>
        <time>2022-11-30T09:13:21Z</time>
      </trkpt>
      <trkpt lat="44.92513" lon="6.71343">
        <ele>1902.05</ele>
        <time>2022-11-30T09:13:32Z</time>
      </trkpt>
      <trkpt lat="44.92507" lon="6.7135">
        <ele>1902.15</ele>
        <time>2022-11-30T09:13:42Z</time>
      </trkpt>
      <trkpt lat="44.92501" lon="6.71358">
        <ele>1904.9</ele>
        <time>2022-11-30T09:13:52Z</time>
      </trkpt>
      <trkpt lat="44.92494" lon="6.71366">
        <ele>1905.8</ele>
        <time>2022-11-30T09:14:01Z</time>
      </trkpt>
      <trkpt lat="44.92489" lon="6.71373">
        <ele>1906.06</ele>
        <time>2022-11-30T09:14:12Z</time>
      </trkpt>
      <trkpt lat="44.92482" lon="6.71381">
        <ele>1906.35</ele>
        <time>2022-11-30T09:14:21Z</time>
      </trkpt>
      <trkpt lat="44.92477" lon="6.71387">
        <ele>1908.12</ele>
        <time>2022-11-30T09:14:30Z</time>
      </trkpt>
      <trkpt lat="44.92471" lon="6.71394">
        <ele>1908.93</ele>
        <time>2022-11-30T09:14:40Z</time>
      </trkpt>
      <trkpt lat="44.92465" lon="6.714">
        <ele>1902.54</ele>
        <time>2022-11-30T09:14:51Z</time>
      </trkpt>
      <trkpt lat="44.92458" lon="6.71407">
        <ele>1904.35</ele>
        <time>2022-11-30T09:15:01Z</time>
      </trkpt>
      <trkpt lat="44.92453" lon="6.71413">
        <ele>1910.96</ele>
        <time>2022-11-30T09:15:11Z</time>
      </trkpt>
      <trkpt lat="44.92448" lon="6.71419">
        <ele>1919.07</ele>
        <time>2022-11-30T09:15:21Z</time>
      </trkpt>
      <trkpt lat="44.92443" lon="6.71428">
        <ele>1918.5</ele>
        <time>2022-11-30T09:15:30Z</time>
      </trkpt>
      <trkpt lat="44.92439" lon="6.71435">
        <ele>1920.88</ele>
        <time>2022-11-30T09:15:41Z</time>
      </trkpt>
      <trkpt lat="44.92435" lon="6.71445">
        <ele>1921.23</ele>
        <time>2022-11-30T09:15:52Z</time>
      </trkpt>
      <trkpt lat="44.92431" lon="6.71455">
        <ele>1919.55</ele>
        <time>2022-11-30T09:16:02Z</time>
      </trkpt>
      <trkpt lat="44.92427" lon="6.71467">
        <ele>1921.41</ele>
        <time>2022-11-30T09:16:12Z</time>
      </trkpt>
      <trkpt lat="44.92423" lon="6.71476">
        <ele>1921.73</ele>
        <time>2022-11-30T09:16:22Z</time>
      </trkpt>
      <trkpt lat="44.9242" lon="6.71484">
        <ele>1922.52</ele>
        <time>2022-11-30T09:16:33Z</time>
      </trkpt>
      <trkpt lat="44.92417" lon="6.71493">
        <ele>1923.78</ele>
        <time>2022-11-30T09:16:43Z</time>
      </trkpt>
      <trkpt lat="44.92413" lon="6.71505">
        <ele>1923.18</ele>
        <time>2022-11-30T09:16:53Z</time>
      </trkpt>
      <trkpt lat="44.9241" lon="6.71516">
        <ele>1923.5</ele>
        <time>2022-11-30T09:17:03Z</time>
      </trkpt>
      <trkpt lat="44.92407" lon="6.71527">
        <ele>1923.44</ele>
        <time>2022-11-30T09:17:13Z</time>
      </trkpt>
      <trkpt lat="44.92406" lon="6.71538">
        <ele>1923.11</ele>
        <time>2022-11-30T09:17:22Z</time>
      </trkpt>
      <trkpt lat="44.92403" lon="6.71547">
        <ele>1922.02</ele>
        <time>2022-11-30T09:17:32Z</time>
      </trkpt>
      <trkpt lat="44.92399" lon="6.71558">
        <ele>1921.98</ele>
        <time>2022-11-30T09:17:41Z</time>
      </trkpt>
      <trkpt lat="44.92395" lon="6.71561">
        <ele>1923.1</ele>
        <time>2022-11-30T09:17:51Z</time>
      </trkpt>
      <trkpt lat="44.92391" lon="6.7157">
        <ele>1922.94</ele>
        <time>2022-11-30T09:18:01Z</time>
      </trkpt>
      <trkpt lat="44.92386" lon="6.71578">
        <ele>1924.32</ele>
        <time>2022-11-30T09:18:10Z</time>
      </trkpt>
      <trkpt lat="44.92381" lon="6.71584">
        <ele>1924.38</ele>
        <time>2022-11-30T09:18:20Z</time>
      </trkpt>
      <trkpt lat="44.92376" lon="6.71591">
        <ele>1925.18</ele>
        <time>2022-11-30T09:18:29Z</time>
      </trkpt>
      <trkpt lat="44.92375" lon="6.71597">
        <ele>1924.41</ele>
        <time>2022-11-30T09:18:39Z</time>
      </trkpt>
      <trkpt lat="44.92371" lon="6.71605">
        <ele>1924.26</ele>
        <time>2022-11-30T09:18:49Z</time>
      </trkpt>
      <trkpt lat="44.92367" lon="6.71612">
        <ele>1925.32</ele>
        <time>2022-11-30T09:18:58Z</time>
      </trkpt>
      <trkpt lat="44.92363" lon="6.71618">
        <ele>1928.32</ele>
        <time>2022-11-30T09:19:08Z</time>
      </trkpt>
      <trkpt lat="44.9236" lon="6.71627">
        <ele>1931.18</ele>
        <time>2022-11-30T09:19:17Z</time>
      </trkpt>
      <trkpt lat="44.92357" lon="6.71634">
        <ele>1931.42</ele>
        <time>2022-11-30T09:19:26Z</time>
      </trkpt>
      <trkpt lat="44.92354" lon="6.71642">
        <ele>1921.57</ele>
        <time>2022-11-30T09:19:36Z</time>
      </trkpt>
      <trkpt lat="44.9235" lon="6.71652">
        <ele>1932.52</ele>
        <time>2022-11-30T09:19:46Z</time>
      </trkpt>
      <trkpt lat="44.92346" lon="6.71663">
        <ele>1931.46</ele>
        <time>2022-11-30T09:19:56Z</time>
      </trkpt>
      <trkpt lat="44.92341" lon="6.71677">
        <ele>1929.54</ele>
        <time>2022-11-30T09:20:06Z</time>
      </trkpt>
      <trkpt lat="44.92335" lon="6.71681">
        <ele>1931.7</ele>
        <time>2022-11-30T09:20:15Z</time>
      </trkpt>
      <trkpt lat="44.9233" lon="6.71679">
        <ele>1921.13</ele>
        <time>2022-11-30T09:20:25Z</time>
      </trkpt>
      <trkpt lat="44.92326" lon="6.71672">
        <ele>1925.42</ele>
        <time>2022-11-30T09:20:34Z</time>
      </trkpt>
      <trkpt lat="44.92323" lon="6.71666">
        <ele>1926.84</ele>
        <time>2022-11-30T09:20:44Z</time>
      </trkpt>
      <trkpt lat="44.92319" lon="6.71656">
        <ele>1925.49</ele>
        <time>2022-11-30T09:20:53Z</time>
      </trkpt>
      <trkpt lat="44.92316" lon="6.71648">
        <ele>1921.03</ele>
        <time>2022-11-30T09:21:03Z</time>
      </trkpt>
      <trkpt lat="44.92313" lon="6.7164">
        <ele>1922.65</ele>
        <time>2022-11-30T09:21:12Z</time>
      </trkpt>
      <trkpt lat="44.92308" lon="6.71634">
        <ele>1932.11</ele>
        <time>2022-11-30T09:21:22Z</time>
      </trkpt>
      <trkpt lat="44.92303" lon="6.71626">
        <ele>1932.35</ele>
        <time>2022-11-30T09:21:32Z</time>
      </trkpt>
      <trkpt lat="44.92295" lon="6.71615">
        <ele>1935.99</ele>
        <time>2022-11-30T09:21:42Z</time>
      </trkpt>
      <trkpt lat="44.92292" lon="6.71608">
        <ele>1940.75</ele>
        <time>2022-11-30T09:21:51Z</time>
      </trkpt>
      <trkpt lat="44.9229" lon="6.71602">
        <ele>1942.43</ele>
        <time>2022-11-30T09:22:02Z</time>
      </trkpt>
      <trkpt lat="44.92285" lon="6.71593">
        <ele>1942.92</ele>
        <time>2022-11-30T09:22:12Z</time>
      </trkpt>
      <trkpt lat="44.92282" lon="6.71585">
        <ele>1943.3</ele>
        <time>2022-11-30T09:22:22Z</time>
      </trkpt>
      <trkpt lat="44.92277" lon="6.71578">
        <ele>1943.27</ele>
        <time>2022-11-30T09:22:32Z</time>
      </trkpt>
      <trkpt lat="44.92269" lon="6.71568">
        <ele>1939.14</ele>
        <time>2022-11-30T09:22:41Z</time>
      </trkpt>
      <trkpt lat="44.92261" lon="6.71565">
        <ele>1941.5</ele>
        <time>2022-11-30T09:22:51Z</time>
      </trkpt>
      <trkpt lat="44.92254" lon="6.71574">
        <ele>1939.74</ele>
        <time>2022-11-30T09:23:01Z</time>
      </trkpt>
      <trkpt lat="44.92257" lon="6.71585">
        <ele>1939.01</ele>
        <time>2022-11-30T09:23:10Z</time>
      </trkpt>
      <trkpt lat="44.92263" lon="6.71593">
        <ele>1940.67</ele>
        <time>2022-11-30T09:23:20Z</time>
      </trkpt>
      <trkpt lat="44.9227" lon="6.71601">
        <ele>1942.74</ele>
        <time>2022-11-30T09:23:29Z</time>
      </trkpt>
      <trkpt lat="44.92273" lon="6.71609">
        <ele>1943.65</ele>
        <time>2022-11-30T09:23:39Z</time>
      </trkpt>
      <trkpt lat="44.92275" lon="6.71618">
        <ele>1944.79</ele>
        <time>2022-11-30T09:23:48Z</time>
      </trkpt>
      <trkpt lat="44.92276" lon="6.71627">
        <ele>1945.58</ele>
        <time>2022-11-30T09:23:58Z</time>
      </trkpt>
      <trkpt lat="44.92279" lon="6.71636">
        <ele>1942.39</ele>
        <time>2022-11-30T09:24:08Z</time>
      </trkpt>
      <trkpt lat="44.9228" lon="6.71644">
        <ele>1943.75</ele>
        <time>2022-11-30T09:24:18Z</time>
      </trkpt>
      <trkpt lat="44.9228" lon="6.71654">
        <ele>1949.15</ele>
        <time>2022-11-30T09:24:28Z</time>
      </trkpt>
      <trkpt lat="44.9228" lon="6.71665">
        <ele>1944.17</ele>
        <time>2022-11-30T09:24:38Z</time>
      </trkpt>
      <trkpt lat="44.92278" lon="6.71676">
        <ele>1946.64</ele>
        <time>2022-11-30T09:24:47Z</time>
      </trkpt>
      <trkpt lat="44.92277" lon="6.71689">
        <ele>1943.38</ele>
        <time>2022-11-30T09:24:56Z</time>
      </trkpt>
      <trkpt lat="44.92277" lon="6.71696">
        <ele>1944.44</ele>
        <time>2022-11-30T09:25:08Z</time>
      </trkpt>
      <trkpt lat="44.92278" lon="6.71706">
        <ele>1949.14</ele>
        <time>2022-11-30T09:25:18Z</time>
      </trkpt>
      <trkpt lat="44.92279" lon="6.71717">
        <ele>1946.65</ele>
        <time>2022-11-30T09:25:27Z</time>
      </trkpt>
      <trkpt lat="44.92281" lon="6.71724">
        <ele>1951.38</ele>
        <time>2022-11-30T09:25:37Z</time>
      </trkpt>
      <trkpt lat="44.92281" lon="6.71734">
        <ele>1947.74</ele>
        <time>2022-11-30T09:25:47Z</time>
      </trkpt>
      <trkpt lat="44.92282" lon="6.71744">
        <ele>1953.15</ele>
        <time>2022-11-30T09:25:57Z</time>
      </trkpt>
      <trkpt lat="44.92283" lon="6.71753">
        <ele>1954.09</ele>
        <time>2022-11-30T09:26:06Z</time>
      </trkpt>
      <trkpt lat="44.92283" lon="6.71762">
        <ele>1954.87</ele>
        <time>2022-11-30T09:26:15Z</time>
      </trkpt>
      <trkpt lat="44.92282" lon="6.71772">
        <ele>1950.03</ele>
        <time>2022-11-30T09:26:25Z</time>
      </trkpt>
      <trkpt lat="44.92282" lon="6.71782">
        <ele>1949.05</ele>
        <time>2022-11-30T09:26:35Z</time>
      </trkpt>
      <trkpt lat="44.92281" lon="6.71794">
        <ele>1953.23</ele>
        <time>2022-11-30T09:26:45Z</time>
      </trkpt>
      <trkpt lat="44.9228" lon="6.71805">
        <ele>1954.83</ele>
        <time>2022-11-30T09:26:55Z</time>
      </trkpt>
      <trkpt lat="44.92281" lon="6.71821">
        <ele>1951.49</ele>
        <time>2022-11-30T09:27:04Z</time>
      </trkpt>
      <trkpt lat="44.92284" lon="6.71829">
        <ele>1952.63</ele>
        <time>2022-11-30T09:27:15Z</time>
      </trkpt>
      <trkpt lat="44.92285" lon="6.71838">
        <ele>1953.63</ele>
        <time>2022-11-30T09:27:25Z</time>
      </trkpt>
      <trkpt lat="44.92286" lon="6.71846">
        <ele>1954.52</ele>
        <time>2022-11-30T09:27:35Z</time>
      </trkpt>
      <trkpt lat="44.92287" lon="6.71855">
        <ele>1956.35</ele>
        <time>2022-11-30T09:27:45Z</time>
      </trkpt>
      <trkpt lat="44.92288" lon="6.71864">
        <ele>1957.25</ele>
        <time>2022-11-30T09:27:55Z</time>
      </trkpt>
      <trkpt lat="44.92288" lon="6.71875">
        <ele>1964.05</ele>
        <time>2022-11-30T09:28:05Z</time>
      </trkpt>
      <trkpt lat="44.92287" lon="6.71886">
        <ele>1964.37</ele>
        <time>2022-11-30T09:28:15Z</time>
      </trkpt>
      <trkpt lat="44.92287" lon="6.719">
        <ele>1961.46</ele>
        <time>2022-11-30T09:28:24Z</time>
      </trkpt>
      <trkpt lat="44.92286" lon="6.71907">
        <ele>1963.09</ele>
        <time>2022-11-30T09:28:33Z</time>
      </trkpt>
      <trkpt lat="44.92285" lon="6.71916">
        <ele>1964.29</ele>
        <time>2022-11-30T09:28:44Z</time>
      </trkpt>
      <trkpt lat="44.92282" lon="6.71931">
        <ele>1959.93</ele>
        <time>2022-11-30T09:28:53Z</time>
      </trkpt>
      <trkpt lat="44.92281" lon="6.71938">
        <ele>1961.61</ele>
        <time>2022-11-30T09:29:03Z</time>
      </trkpt>
      <trkpt lat="44.9228" lon="6.71946">
        <ele>1964.51</ele>
        <time>2022-11-30T09:29:12Z</time>
      </trkpt>
      <trkpt lat="44.92277" lon="6.71955">
        <ele>1965.75</ele>
        <time>2022-11-30T09:29:21Z</time>
      </trkpt>
      <trkpt lat="44.92276" lon="6.71965">
        <ele>1964.83</ele>
        <time>2022-11-30T09:29:32Z</time>
      </trkpt>
      <trkpt lat="44.92275" lon="6.71973">
        <ele>1968.05</ele>
        <time>2022-11-30T09:29:41Z</time>
      </trkpt>
      <trkpt lat="44.92274" lon="6.71982">
        <ele>1969.75</ele>
        <time>2022-11-30T09:29:52Z</time>
      </trkpt>
      <trkpt lat="44.92273" lon="6.71993">
        <ele>1964.19</ele>
        <time>2022-11-30T09:30:02Z</time>
      </trkpt>
      <trkpt lat="44.92267" lon="6.72002">
        <ele>1954.55</ele>
        <time>2022-11-30T09:30:11Z</time>
      </trkpt>
      <trkpt lat="44.92258" lon="6.71999">
        <ele>1962.16</ele>
        <time>2022-11-30T09:30:21Z</time>
      </trkpt>
      <trkpt lat="44.92247" lon="6.71985">
        <ele>1958.12</ele>
        <time>2022-11-30T09:30:31Z</time>
      </trkpt>
      <trkpt lat="44.92244" lon="6.71973">
        <ele>1963.53</ele>
        <time>2022-11-30T09:30:41Z</time>
      </trkpt>
      <trkpt lat="44.92245" lon="6.71959">
        <ele>1962.67</ele>
        <time>2022-11-30T09:30:50Z</time>
      </trkpt>
      <trkpt lat="44.92248" lon="6.71952">
        <ele>1966.68</ele>
        <time>2022-11-30T09:30:59Z</time>
      </trkpt>
      <trkpt lat="44.92251" lon="6.71946">
        <ele>1969.41</ele>
        <time>2022-11-30T09:31:09Z</time>
      </trkpt>
      <trkpt lat="44.92255" lon="6.71938">
        <ele>1973.1</ele>
        <time>2022-11-30T09:31:19Z</time>
      </trkpt>
      <trkpt lat="44.92257" lon="6.71929">
        <ele>1975.33</ele>
        <time>2022-11-30T09:31:29Z</time>
      </trkpt>
      <trkpt lat="44.92256" lon="6.71921">
        <ele>1977.68</ele>
        <time>2022-11-30T09:31:38Z</time>
      </trkpt>
      <trkpt lat="44.92255" lon="6.71915">
        <ele>1976.45</ele>
        <time>2022-11-30T09:31:48Z</time>
      </trkpt>
      <trkpt lat="44.92252" lon="6.71907">
        <ele>1978.16</ele>
        <time>2022-11-30T09:31:58Z</time>
      </trkpt>
      <trkpt lat="44.9225" lon="6.71899">
        <ele>1974.77</ele>
        <time>2022-11-30T09:32:09Z</time>
      </trkpt>
      <trkpt lat="44.92246" lon="6.71888">
        <ele>1975.38</ele>
        <time>2022-11-30T09:32:18Z</time>
      </trkpt>
      <trkpt lat="44.92243" lon="6.71881">
        <ele>1966.51</ele>
        <time>2022-11-30T09:32:29Z</time>
      </trkpt>
      <trkpt lat="44.9224" lon="6.71872">
        <ele>1967.22</ele>
        <time>2022-11-30T09:32:38Z</time>
      </trkpt>
      <trkpt lat="44.92238" lon="6.71863">
        <ele>1978.17</ele>
        <time>2022-11-30T09:32:48Z</time>
      </trkpt>
      <trkpt lat="44.92237" lon="6.71854">
        <ele>1979.38</ele>
        <time>2022-11-30T09:32:58Z</time>
      </trkpt>
      <trkpt lat="44.92235" lon="6.71844">
        <ele>1973.2</ele>
        <time>2022-11-30T09:33:07Z</time>
      </trkpt>
      <trkpt lat="44.92234" lon="6.71835">
        <ele>1969.96</ele>
        <time>2022-11-30T09:33:17Z</time>
      </trkpt>
      <trkpt lat="44.92232" lon="6.71825">
        <ele>1979.34</ele>
        <time>2022-11-30T09:33:27Z</time>
      </trkpt>
      <trkpt lat="44.92228" lon="6.71815">
        <ele>1969.85</ele>
        <time>2022-11-30T09:33:37Z</time>
      </trkpt>
      <trkpt lat="44.92223" lon="6.71806">
        <ele>1971.06</ele>
        <time>2022-11-30T09:33:46Z</time>
      </trkpt>
      <trkpt lat="44.92218" lon="6.718">
        <ele>1970.68</ele>
        <time>2022-11-30T09:33:55Z</time>
      </trkpt>
      <trkpt lat="44.92214" lon="6.71795">
        <ele>1970.47</ele>
        <time>2022-11-30T09:34:05Z</time>
      </trkpt>
      <trkpt lat="44.92207" lon="6.71789">
        <ele>1971.03</ele>
        <time>2022-11-30T09:34:14Z</time>
      </trkpt>
      <trkpt lat="44.92202" lon="6.71783">
        <ele>1976.03</ele>
        <time>2022-11-30T09:34:25Z</time>
      </trkpt>
      <trkpt lat="44.92197" lon="6.71777">
        <ele>1983.43</ele>
        <time>2022-11-30T09:34:34Z</time>
      </trkpt>
      <trkpt lat="44.92189" lon="6.71766">
        <ele>1980.42</ele>
        <time>2022-11-30T09:34:44Z</time>
      </trkpt>
      <trkpt lat="44.92185" lon="6.71759">
        <ele>1970.58</ele>
        <time>2022-11-30T09:34:53Z</time>
      </trkpt>
      <trkpt lat="44.92182" lon="6.71752">
        <ele>1970.02</ele>
        <time>2022-11-30T09:35:03Z</time>
      </trkpt>
      <trkpt lat="44.92176" lon="6.7174">
        <ele>1979.71</ele>
        <time>2022-11-30T09:35:12Z</time>
      </trkpt>
      <trkpt lat="44.92174" lon="6.71735">
        <ele>1972.13</ele>
        <time>2022-11-30T09:35:22Z</time>
      </trkpt>
      <trkpt lat="44.92173" lon="6.71727">
        <ele>1973.24</ele>
        <time>2022-11-30T09:35:31Z</time>
      </trkpt>
      <trkpt lat="44.92172" lon="6.71721">
        <ele>1973.94</ele>
        <time>2022-11-30T09:35:41Z</time>
      </trkpt>
      <trkpt lat="44.9217" lon="6.71711">
        <ele>1975.44</ele>
        <time>2022-11-30T09:35:50Z</time>
      </trkpt>
      <trkpt lat="44.92173" lon="6.71703">
        <ele>1977.04</ele>
        <time>2022-11-30T09:36:00Z</time>
      </trkpt>
      <trkpt lat="44.92169" lon="6.71692">
        <ele>1973.82</ele>
        <time>2022-11-30T09:36:11Z</time>
      </trkpt>
      <trkpt lat="44.9217" lon="6.71693">
        <ele>1974.47</ele>
        <time>2022-11-30T09:36:31Z</time>
      </trkpt>
      <trkpt lat="44.9217" lon="6.71695">
        <ele>1974.89</ele>
        <time>2022-11-30T09:36:41Z</time>
      </trkpt>
      <trkpt lat="44.92171" lon="6.71695">
        <ele>1986.37</ele>
        <time>2022-11-30T09:36:51Z</time>
      </trkpt>
      <trkpt lat="44.92171" lon="6.71696">
        <ele>1987.84</ele>
        <time>2022-11-30T09:37:02Z</time>
      </trkpt>
      <trkpt lat="44.92171" lon="6.71697">
        <ele>1987.9</ele>
        <time>2022-11-30T09:37:16Z</time>
      </trkpt>
      <trkpt lat="44.9217" lon="6.71697">
        <ele>1987.7</ele>
        <time>2022-11-30T09:37:46Z</time>
      </trkpt>
      <trkpt lat="44.92162" lon="6.7169">
        <ele>1985.14</ele>
        <time>2022-11-30T09:37:56Z</time>
      </trkpt>
      <trkpt lat="44.92154" lon="6.7169">
        <ele>1985.04</ele>
        <time>2022-11-30T09:38:05Z</time>
      </trkpt>
      <trkpt lat="44.92151" lon="6.71698">
        <ele>1973.7</ele>
        <time>2022-11-30T09:38:14Z</time>
      </trkpt>
      <trkpt lat="44.9215" lon="6.71708">
        <ele>1972.46</ele>
        <time>2022-11-30T09:38:23Z</time>
      </trkpt>
      <trkpt lat="44.92153" lon="6.71719">
        <ele>1984.5</ele>
        <time>2022-11-30T09:38:34Z</time>
      </trkpt>
      <trkpt lat="44.92155" lon="6.71728">
        <ele>1987.17</ele>
        <time>2022-11-30T09:38:43Z</time>
      </trkpt>
      <trkpt lat="44.92157" lon="6.71735">
        <ele>1988.35</ele>
        <time>2022-11-30T09:38:53Z</time>
      </trkpt>
      <trkpt lat="44.9216" lon="6.71744">
        <ele>1990.31</ele>
        <time>2022-11-30T09:39:02Z</time>
      </trkpt>
      <trkpt lat="44.92163" lon="6.71752">
        <ele>1979.79</ele>
        <time>2022-11-30T09:39:12Z</time>
      </trkpt>
      <trkpt lat="44.92167" lon="6.71762">
        <ele>1988.89</ele>
        <time>2022-11-30T09:39:21Z</time>
      </trkpt>
      <trkpt lat="44.92169" lon="6.71769">
        <ele>1992.48</ele>
        <time>2022-11-30T09:39:31Z</time>
      </trkpt>
      <trkpt lat="44.92172" lon="6.71779">
        <ele>1993.22</ele>
        <time>2022-11-30T09:39:41Z</time>
      </trkpt>
      <trkpt lat="44.92174" lon="6.71792">
        <ele>1992.48</ele>
        <time>2022-11-30T09:39:50Z</time>
      </trkpt>
      <trkpt lat="44.92175" lon="6.71798">
        <ele>1980.56</ele>
        <time>2022-11-30T09:40:00Z</time>
      </trkpt>
      <trkpt lat="44.92177" lon="6.71807">
        <ele>1981.22</ele>
        <time>2022-11-30T09:40:10Z</time>
      </trkpt>
      <trkpt lat="44.92179" lon="6.71815">
        <ele>1995.13</ele>
        <time>2022-11-30T09:40:19Z</time>
      </trkpt>
      <trkpt lat="44.92179" lon="6.71823">
        <ele>1996.3</ele>
        <time>2022-11-30T09:40:28Z</time>
      </trkpt>
      <trkpt lat="44.9218" lon="6.71832">
        <ele>1996.11</ele>
        <time>2022-11-30T09:40:39Z</time>
      </trkpt>
      <trkpt lat="44.92182" lon="6.71844">
        <ele>1989.59</ele>
        <time>2022-11-30T09:40:48Z</time>
      </trkpt>
      <trkpt lat="44.92183" lon="6.71855">
        <ele>1991.93</ele>
        <time>2022-11-30T09:40:59Z</time>
      </trkpt>
      <trkpt lat="44.92185" lon="6.71865">
        <ele>1980.02</ele>
        <time>2022-11-30T09:41:08Z</time>
      </trkpt>
      <trkpt lat="44.92186" lon="6.71875">
        <ele>1978.89</ele>
        <time>2022-11-30T09:41:18Z</time>
      </trkpt>
      <trkpt lat="44.92187" lon="6.71881">
        <ele>1993.26</ele>
        <time>2022-11-30T09:41:28Z</time>
      </trkpt>
      <trkpt lat="44.92188" lon="6.71887">
        <ele>1996.14</ele>
        <time>2022-11-30T09:41:38Z</time>
      </trkpt>
      <trkpt lat="44.92189" lon="6.71896">
        <ele>1997.75</ele>
        <time>2022-11-30T09:41:47Z</time>
      </trkpt>
      <trkpt lat="44.92189" lon="6.71903">
        <ele>1999.43</ele>
        <time>2022-11-30T09:41:57Z</time>
      </trkpt>
      <trkpt lat="44.92189" lon="6.71915">
        <ele>1987.06</ele>
        <time>2022-11-30T09:42:08Z</time>
      </trkpt>
      <trkpt lat="44.92187" lon="6.71926">
        <ele>1996.14</ele>
        <time>2022-11-30T09:42:18Z</time>
      </trkpt>
      <trkpt lat="44.92186" lon="6.71934">
        <ele>1999.63</ele>
        <time>2022-11-30T09:42:27Z</time>
      </trkpt>
      <trkpt lat="44.92185" lon="6.71941">
        <ele>1987.35</ele>
        <time>2022-11-30T09:42:36Z</time>
      </trkpt>
      <trkpt lat="44.92182" lon="6.71951">
        <ele>1987.22</ele>
        <time>2022-11-30T09:42:46Z</time>
      </trkpt>
      <trkpt lat="44.92179" lon="6.71961">
        <ele>1987.23</ele>
        <time>2022-11-30T09:42:57Z</time>
      </trkpt>
      <trkpt lat="44.92177" lon="6.71969">
        <ele>2002.44</ele>
        <time>2022-11-30T09:43:06Z</time>
      </trkpt>
      <trkpt lat="44.92174" lon="6.71977">
        <ele>2002.68</ele>
        <time>2022-11-30T09:43:16Z</time>
      </trkpt>
      <trkpt lat="44.92168" lon="6.7199">
        <ele>1983.83</ele>
        <time>2022-11-30T09:43:26Z</time>
      </trkpt>
      <trkpt lat="44.92164" lon="6.71997">
        <ele>1987.93</ele>
        <time>2022-11-30T09:43:35Z</time>
      </trkpt>
      <trkpt lat="44.92163" lon="6.72002">
        <ele>1999.5</ele>
        <time>2022-11-30T09:43:45Z</time>
      </trkpt>
      <trkpt lat="44.9216" lon="6.72008">
        <ele>2002.2</ele>
        <time>2022-11-30T09:43:54Z</time>
      </trkpt>
      <trkpt lat="44.92157" lon="6.72015">
        <ele>1988.85</ele>
        <time>2022-11-30T09:44:03Z</time>
      </trkpt>
      <trkpt lat="44.92153" lon="6.72021">
        <ele>1997.99</ele>
        <time>2022-11-30T09:44:15Z</time>
      </trkpt>
      <trkpt lat="44.92148" lon="6.7203">
        <ele>2004.15</ele>
        <time>2022-11-30T09:44:24Z</time>
      </trkpt>
      <trkpt lat="44.92146" lon="6.72036">
        <ele>2006.62</ele>
        <time>2022-11-30T09:44:33Z</time>
      </trkpt>
      <trkpt lat="44.92143" lon="6.7204">
        <ele>1991.84</ele>
        <time>2022-11-30T09:44:43Z</time>
      </trkpt>
      <trkpt lat="44.92138" lon="6.72047">
        <ele>1992.48</ele>
        <time>2022-11-30T09:44:53Z</time>
      </trkpt>
      <trkpt lat="44.92133" lon="6.72055">
        <ele>2004.1</ele>
        <time>2022-11-30T09:45:02Z</time>
      </trkpt>
      <trkpt lat="44.9213" lon="6.72059">
        <ele>2027.54</ele>
        <time>2022-11-30T09:45:13Z</time>
      </trkpt>
      <trkpt lat="44.92126" lon="6.72065">
        <ele>2028.83</ele>
        <time>2022-11-30T09:45:22Z</time>
      </trkpt>
      <trkpt lat="44.92122" lon="6.7207">
        <ele>2029.89</ele>
        <time>2022-11-30T09:45:32Z</time>
      </trkpt>
      <trkpt lat="44.92117" lon="6.72076">
        <ele>2033.9</ele>
        <time>2022-11-30T09:45:41Z</time>
      </trkpt>
      <trkpt lat="44.92112" lon="6.72082">
        <ele>2034.13</ele>
        <time>2022-11-30T09:45:51Z</time>
      </trkpt>
      <trkpt lat="44.92107" lon="6.72088">
        <ele>2034.5</ele>
        <time>2022-11-30T09:46:00Z</time>
      </trkpt>
      <trkpt lat="44.92102" lon="6.72094">
        <ele>2034.75</ele>
        <time>2022-11-30T09:46:10Z</time>
      </trkpt>
      <trkpt lat="44.92097" lon="6.721">
        <ele>2031</ele>
        <time>2022-11-30T09:46:21Z</time>
      </trkpt>
      <trkpt lat="44.9209" lon="6.72106">
        <ele>2030.14</ele>
        <time>2022-11-30T09:46:31Z</time>
      </trkpt>
      <trkpt lat="44.92083" lon="6.72114">
        <ele>2029.85</ele>
        <time>2022-11-30T09:46:41Z</time>
      </trkpt>
      <trkpt lat="44.9208" lon="6.72119">
        <ele>2034.64</ele>
        <time>2022-11-30T09:46:50Z</time>
      </trkpt>
      <trkpt lat="44.92078" lon="6.72124">
        <ele>2032.4</ele>
        <time>2022-11-30T09:47:00Z</time>
      </trkpt>
      <trkpt lat="44.92073" lon="6.72131">
        <ele>2037.38</ele>
        <time>2022-11-30T09:47:10Z</time>
      </trkpt>
      <trkpt lat="44.92066" lon="6.72139">
        <ele>2035.76</ele>
        <time>2022-11-30T09:47:20Z</time>
      </trkpt>
      <trkpt lat="44.9206" lon="6.72144">
        <ele>2035.05</ele>
        <time>2022-11-30T09:47:30Z</time>
      </trkpt>
      <trkpt lat="44.92055" lon="6.72151">
        <ele>2036</ele>
        <time>2022-11-30T09:47:39Z</time>
      </trkpt>
      <trkpt lat="44.9205" lon="6.72156">
        <ele>2035.47</ele>
        <time>2022-11-30T09:47:49Z</time>
      </trkpt>
      <trkpt lat="44.9204" lon="6.72161">
        <ele>2029.64</ele>
        <time>2022-11-30T09:47:58Z</time>
      </trkpt>
      <trkpt lat="44.92037" lon="6.72165">
        <ele>2029.76</ele>
        <time>2022-11-30T09:48:08Z</time>
      </trkpt>
      <trkpt lat="44.92032" lon="6.72169">
        <ele>2035.86</ele>
        <time>2022-11-30T09:48:17Z</time>
      </trkpt>
      <trkpt lat="44.92027" lon="6.72173">
        <ele>2038.33</ele>
        <time>2022-11-30T09:48:26Z</time>
      </trkpt>
      <trkpt lat="44.92023" lon="6.72177">
        <ele>2036.82</ele>
        <time>2022-11-30T09:48:36Z</time>
      </trkpt>
      <trkpt lat="44.92021" lon="6.72182">
        <ele>2034.73</ele>
        <time>2022-11-30T09:48:46Z</time>
      </trkpt>
      <trkpt lat="44.92022" lon="6.72183">
        <ele>2032.46</ele>
        <time>2022-11-30T09:48:56Z</time>
      </trkpt>
      <trkpt lat="44.92022" lon="6.72181">
        <ele>2037.28</ele>
        <time>2022-11-30T09:51:37Z</time>
      </trkpt>
      <trkpt lat="44.92023" lon="6.72181">
        <ele>2033.43</ele>
        <time>2022-11-30T09:52:00Z</time>
      </trkpt>
      <trkpt lat="44.92023" lon="6.72179">
        <ele>2036.95</ele>
        <time>2022-11-30T09:52:14Z</time>
      </trkpt>
      <trkpt lat="44.92013" lon="6.72187">
        <ele>2032.76</ele>
        <time>2022-11-30T09:52:23Z</time>
      </trkpt>
      <trkpt lat="44.92003" lon="6.7219">
        <ele>2027.38</ele>
        <time>2022-11-30T09:52:33Z</time>
      </trkpt>
      <trkpt lat="44.91995" lon="6.72194">
        <ele>2027.13</ele>
        <time>2022-11-30T09:52:43Z</time>
      </trkpt>
      <trkpt lat="44.91991" lon="6.72194">
        <ele>2026.63</ele>
        <time>2022-11-30T09:52:53Z</time>
      </trkpt>
      <trkpt lat="44.91987" lon="6.72198">
        <ele>2030.13</ele>
        <time>2022-11-30T09:53:03Z</time>
      </trkpt>
      <trkpt lat="44.91984" lon="6.72203">
        <ele>2029.66</ele>
        <time>2022-11-30T09:53:13Z</time>
      </trkpt>
      <trkpt lat="44.91982" lon="6.72208">
        <ele>2036.98</ele>
        <time>2022-11-30T09:53:22Z</time>
      </trkpt>
      <trkpt lat="44.9198" lon="6.72212">
        <ele>2041.83</ele>
        <time>2022-11-30T09:53:31Z</time>
      </trkpt>
      <trkpt lat="44.91976" lon="6.72213">
        <ele>2040.72</ele>
        <time>2022-11-30T09:53:41Z</time>
      </trkpt>
      <trkpt lat="44.91972" lon="6.72218">
        <ele>2039.94</ele>
        <time>2022-11-30T09:53:51Z</time>
      </trkpt>
      <trkpt lat="44.91967" lon="6.72221">
        <ele>2049.17</ele>
        <time>2022-11-30T09:54:01Z</time>
      </trkpt>
      <trkpt lat="44.91959" lon="6.72222">
        <ele>2047.89</ele>
        <time>2022-11-30T09:54:10Z</time>
      </trkpt>
      <trkpt lat="44.91955" lon="6.72224">
        <ele>2050.94</ele>
        <time>2022-11-30T09:54:19Z</time>
      </trkpt>
      <trkpt lat="44.91949" lon="6.72227">
        <ele>2053.13</ele>
        <time>2022-11-30T09:54:29Z</time>
      </trkpt>
      <trkpt lat="44.91945" lon="6.72231">
        <ele>2048.11</ele>
        <time>2022-11-30T09:54:39Z</time>
      </trkpt>
      <trkpt lat="44.91939" lon="6.72234">
        <ele>2051.62</ele>
        <time>2022-11-30T09:54:48Z</time>
      </trkpt>
      <trkpt lat="44.91932" lon="6.72234">
        <ele>2047.21</ele>
        <time>2022-11-30T09:54:58Z</time>
      </trkpt>
      <trkpt lat="44.91921" lon="6.72237">
        <ele>2044.5</ele>
        <time>2022-11-30T09:55:08Z</time>
      </trkpt>
      <trkpt lat="44.91915" lon="6.72239">
        <ele>2046.8</ele>
        <time>2022-11-30T09:55:18Z</time>
      </trkpt>
      <trkpt lat="44.91911" lon="6.72241">
        <ele>2057.65</ele>
        <time>2022-11-30T09:55:28Z</time>
      </trkpt>
      <trkpt lat="44.91904" lon="6.72244">
        <ele>2060.25</ele>
        <time>2022-11-30T09:55:38Z</time>
      </trkpt>
      <trkpt lat="44.91896" lon="6.72248">
        <ele>2051.66</ele>
        <time>2022-11-30T09:55:48Z</time>
      </trkpt>
      <trkpt lat="44.91889" lon="6.72252">
        <ele>2062.24</ele>
        <time>2022-11-30T09:55:57Z</time>
      </trkpt>
      <trkpt lat="44.91884" lon="6.72255">
        <ele>2056.69</ele>
        <time>2022-11-30T09:56:07Z</time>
      </trkpt>
      <trkpt lat="44.91879" lon="6.72259">
        <ele>2062.46</ele>
        <time>2022-11-30T09:56:16Z</time>
      </trkpt>
      <trkpt lat="44.91874" lon="6.72263">
        <ele>2063.52</ele>
        <time>2022-11-30T09:56:26Z</time>
      </trkpt>
      <trkpt lat="44.91867" lon="6.72266">
        <ele>2064.83</ele>
        <time>2022-11-30T09:56:36Z</time>
      </trkpt>
      <trkpt lat="44.91862" lon="6.7227">
        <ele>2064.08</ele>
        <time>2022-11-30T09:56:46Z</time>
      </trkpt>
      <trkpt lat="44.91856" lon="6.72274">
        <ele>2065.89</ele>
        <time>2022-11-30T09:56:55Z</time>
      </trkpt>
      <trkpt lat="44.91849" lon="6.72277">
        <ele>2059.98</ele>
        <time>2022-11-30T09:57:05Z</time>
      </trkpt>
      <trkpt lat="44.91844" lon="6.7228">
        <ele>2066.98</ele>
        <time>2022-11-30T09:57:15Z</time>
      </trkpt>
      <trkpt lat="44.91837" lon="6.72283">
        <ele>2062.01</ele>
        <time>2022-11-30T09:57:25Z</time>
      </trkpt>
      <trkpt lat="44.91828" lon="6.72288">
        <ele>2058.03</ele>
        <time>2022-11-30T09:57:34Z</time>
      </trkpt>
      <trkpt lat="44.91823" lon="6.72292">
        <ele>2061.9</ele>
        <time>2022-11-30T09:57:44Z</time>
      </trkpt>
      <trkpt lat="44.91818" lon="6.72296">
        <ele>2066.71</ele>
        <time>2022-11-30T09:57:53Z</time>
      </trkpt>
      <trkpt lat="44.91813" lon="6.723">
        <ele>2061.06</ele>
        <time>2022-11-30T09:58:03Z</time>
      </trkpt>
      <trkpt lat="44.91806" lon="6.72305">
        <ele>2071.81</ele>
        <time>2022-11-30T09:58:13Z</time>
      </trkpt>
      <trkpt lat="44.91799" lon="6.72309">
        <ele>2067.48</ele>
        <time>2022-11-30T09:58:22Z</time>
      </trkpt>
      <trkpt lat="44.91794" lon="6.72312">
        <ele>2062.58</ele>
        <time>2022-11-30T09:58:32Z</time>
      </trkpt>
      <trkpt lat="44.91786" lon="6.72316">
        <ele>2070.17</ele>
        <time>2022-11-30T09:58:41Z</time>
      </trkpt>
      <trkpt lat="44.9178" lon="6.72318">
        <ele>2071.26</ele>
        <time>2022-11-30T09:58:51Z</time>
      </trkpt>
      <trkpt lat="44.91776" lon="6.72322">
        <ele>2063.94</ele>
        <time>2022-11-30T09:59:01Z</time>
      </trkpt>
      <trkpt lat="44.91769" lon="6.72324">
        <ele>2063.21</ele>
        <time>2022-11-30T09:59:10Z</time>
      </trkpt>
      <trkpt lat="44.91763" lon="6.72328">
        <ele>2063.77</ele>
        <time>2022-11-30T09:59:21Z</time>
      </trkpt>
      <trkpt lat="44.91756" lon="6.72333">
        <ele>2071.33</ele>
        <time>2022-11-30T09:59:31Z</time>
      </trkpt>
      <trkpt lat="44.91749" lon="6.72338">
        <ele>2075.66</ele>
        <time>2022-11-30T09:59:40Z</time>
      </trkpt>
      <trkpt lat="44.91743" lon="6.72342">
        <ele>2074.63</ele>
        <time>2022-11-30T09:59:50Z</time>
      </trkpt>
      <trkpt lat="44.91736" lon="6.72347">
        <ele>2076.27</ele>
        <time>2022-11-30T09:59:59Z</time>
      </trkpt>
      <trkpt lat="44.91729" lon="6.7235">
        <ele>2078.09</ele>
        <time>2022-11-30T10:00:08Z</time>
      </trkpt>
      <trkpt lat="44.91724" lon="6.72353">
        <ele>2079.75</ele>
        <time>2022-11-30T10:00:18Z</time>
      </trkpt>
      <trkpt lat="44.91718" lon="6.72356">
        <ele>2071.89</ele>
        <time>2022-11-30T10:00:27Z</time>
      </trkpt>
      <trkpt lat="44.91711" lon="6.72358">
        <ele>2067.84</ele>
        <time>2022-11-30T10:00:37Z</time>
      </trkpt>
      <trkpt lat="44.91703" lon="6.7236">
        <ele>2079.47</ele>
        <time>2022-11-30T10:00:47Z</time>
      </trkpt>
      <trkpt lat="44.91692" lon="6.72363">
        <ele>2068</ele>
        <time>2022-11-30T10:00:56Z</time>
      </trkpt>
      <trkpt lat="44.91684" lon="6.72366">
        <ele>2078.29</ele>
        <time>2022-11-30T10:01:06Z</time>
      </trkpt>
      <trkpt lat="44.91675" lon="6.72367">
        <ele>2077.91</ele>
        <time>2022-11-30T10:01:15Z</time>
      </trkpt>
      <trkpt lat="44.9167" lon="6.72368">
        <ele>2078.33</ele>
        <time>2022-11-30T10:01:25Z</time>
      </trkpt>
      <trkpt lat="44.91662" lon="6.72369">
        <ele>2078.53</ele>
        <time>2022-11-30T10:01:35Z</time>
      </trkpt>
      <trkpt lat="44.91658" lon="6.72369">
        <ele>2078.89</ele>
        <time>2022-11-30T10:01:45Z</time>
      </trkpt>
      <trkpt lat="44.91652" lon="6.72369">
        <ele>2066.89</ele>
        <time>2022-11-30T10:01:55Z</time>
      </trkpt>
      <trkpt lat="44.91645" lon="6.7237">
        <ele>2080.53</ele>
        <time>2022-11-30T10:02:05Z</time>
      </trkpt>
      <trkpt lat="44.91638" lon="6.7237">
        <ele>2064.57</ele>
        <time>2022-11-30T10:02:15Z</time>
      </trkpt>
      <trkpt lat="44.91631" lon="6.72372">
        <ele>2064.26</ele>
        <time>2022-11-30T10:02:25Z</time>
      </trkpt>
      <trkpt lat="44.91625" lon="6.72374">
        <ele>2054.37</ele>
        <time>2022-11-30T10:02:35Z</time>
      </trkpt>
      <trkpt lat="44.91616" lon="6.72377">
        <ele>2065.33</ele>
        <time>2022-11-30T10:02:44Z</time>
      </trkpt>
      <trkpt lat="44.9161" lon="6.72382">
        <ele>2070.83</ele>
        <time>2022-11-30T10:02:54Z</time>
      </trkpt>
      <trkpt lat="44.91604" lon="6.72385">
        <ele>2078.07</ele>
        <time>2022-11-30T10:03:04Z</time>
      </trkpt>
      <trkpt lat="44.91598" lon="6.72389">
        <ele>2079.15</ele>
        <time>2022-11-30T10:03:14Z</time>
      </trkpt>
      <trkpt lat="44.91591" lon="6.72396">
        <ele>2080.65</ele>
        <time>2022-11-30T10:03:23Z</time>
      </trkpt>
      <trkpt lat="44.91587" lon="6.72402">
        <ele>2081.48</ele>
        <time>2022-11-30T10:03:34Z</time>
      </trkpt>
      <trkpt lat="44.9158" lon="6.72412">
        <ele>2066.67</ele>
        <time>2022-11-30T10:03:43Z</time>
      </trkpt>
      <trkpt lat="44.91574" lon="6.72421">
        <ele>2075.41</ele>
        <time>2022-11-30T10:03:53Z</time>
      </trkpt>
      <trkpt lat="44.91571" lon="6.72429">
        <ele>2075.45</ele>
        <time>2022-11-30T10:04:03Z</time>
      </trkpt>
      <trkpt lat="44.91569" lon="6.72437">
        <ele>2076.29</ele>
        <time>2022-11-30T10:04:12Z</time>
      </trkpt>
      <trkpt lat="44.91566" lon="6.72441">
        <ele>2070</ele>
        <time>2022-11-30T10:04:22Z</time>
      </trkpt>
      <trkpt lat="44.91561" lon="6.72447">
        <ele>2071.42</ele>
        <time>2022-11-30T10:04:32Z</time>
      </trkpt>
      <trkpt lat="44.91555" lon="6.72449">
        <ele>2080.41</ele>
        <time>2022-11-30T10:04:41Z</time>
      </trkpt>
      <trkpt lat="44.91545" lon="6.72452">
        <ele>2078.89</ele>
        <time>2022-11-30T10:04:51Z</time>
      </trkpt>
      <trkpt lat="44.91537" lon="6.72455">
        <ele>2071.54</ele>
        <time>2022-11-30T10:05:01Z</time>
      </trkpt>
      <trkpt lat="44.91531" lon="6.72457">
        <ele>2064.1</ele>
        <time>2022-11-30T10:05:10Z</time>
      </trkpt>
      <trkpt lat="44.91526" lon="6.72459">
        <ele>2070.72</ele>
        <time>2022-11-30T10:05:20Z</time>
      </trkpt>
      <trkpt lat="44.9152" lon="6.7246">
        <ele>2078.96</ele>
        <time>2022-11-30T10:05:30Z</time>
      </trkpt>
      <trkpt lat="44.91513" lon="6.72457">
        <ele>2078.53</ele>
        <time>2022-11-30T10:05:40Z</time>
      </trkpt>
      <trkpt lat="44.91508" lon="6.72451">
        <ele>2080.54</ele>
        <time>2022-11-30T10:05:49Z</time>
      </trkpt>
      <trkpt lat="44.915" lon="6.72442">
        <ele>2066.6</ele>
        <time>2022-11-30T10:06:00Z</time>
      </trkpt>
      <trkpt lat="44.91496" lon="6.72434">
        <ele>2065.51</ele>
        <time>2022-11-30T10:06:11Z</time>
      </trkpt>
      <trkpt lat="44.91487" lon="6.72425">
        <ele>2074.14</ele>
        <time>2022-11-30T10:06:21Z</time>
      </trkpt>
      <trkpt lat="44.91482" lon="6.72422">
        <ele>2063.95</ele>
        <time>2022-11-30T10:06:31Z</time>
      </trkpt>
      <trkpt lat="44.91476" lon="6.72419">
        <ele>2064.63</ele>
        <time>2022-11-30T10:06:41Z</time>
      </trkpt>
      <trkpt lat="44.91472" lon="6.72417">
        <ele>2065.71</ele>
        <time>2022-11-30T10:06:50Z</time>
      </trkpt>
      <trkpt lat="44.91467" lon="6.72414">
        <ele>2079.59</ele>
        <time>2022-11-30T10:06:59Z</time>
      </trkpt>
      <trkpt lat="44.91459" lon="6.7241">
        <ele>2074.16</ele>
        <time>2022-11-30T10:07:09Z</time>
      </trkpt>
      <trkpt lat="44.91454" lon="6.72407">
        <ele>2069.96</ele>
        <time>2022-11-30T10:07:18Z</time>
      </trkpt>
      <trkpt lat="44.91449" lon="6.72405">
        <ele>2072.47</ele>
        <time>2022-11-30T10:07:28Z</time>
      </trkpt>
      <trkpt lat="44.91443" lon="6.72401">
        <ele>2087.69</ele>
        <time>2022-11-30T10:07:38Z</time>
      </trkpt>
      <trkpt lat="44.91437" lon="6.72398">
        <ele>2087.33</ele>
        <time>2022-11-30T10:07:48Z</time>
      </trkpt>
      <trkpt lat="44.91428" lon="6.72395">
        <ele>2088.65</ele>
        <time>2022-11-30T10:07:57Z</time>
      </trkpt>
      <trkpt lat="44.91422" lon="6.72394">
        <ele>2083.94</ele>
        <time>2022-11-30T10:08:08Z</time>
      </trkpt>
      <trkpt lat="44.91417" lon="6.72394">
        <ele>2090.06</ele>
        <time>2022-11-30T10:08:18Z</time>
      </trkpt>
      <trkpt lat="44.9141" lon="6.72395">
        <ele>2082.58</ele>
        <time>2022-11-30T10:08:28Z</time>
      </trkpt>
      <trkpt lat="44.91403" lon="6.72397">
        <ele>2079.25</ele>
        <time>2022-11-30T10:08:38Z</time>
      </trkpt>
      <trkpt lat="44.91399" lon="6.72399">
        <ele>2093.2</ele>
        <time>2022-11-30T10:08:48Z</time>
      </trkpt>
      <trkpt lat="44.91393" lon="6.72399">
        <ele>2096.02</ele>
        <time>2022-11-30T10:08:57Z</time>
      </trkpt>
      <trkpt lat="44.91387" lon="6.72398">
        <ele>2078.68</ele>
        <time>2022-11-30T10:09:07Z</time>
      </trkpt>
      <trkpt lat="44.91378" lon="6.72397">
        <ele>2097.81</ele>
        <time>2022-11-30T10:09:16Z</time>
      </trkpt>
      <trkpt lat="44.91372" lon="6.72395">
        <ele>2081.95</ele>
        <time>2022-11-30T10:09:27Z</time>
      </trkpt>
      <trkpt lat="44.91362" lon="6.72392">
        <ele>2080.32</ele>
        <time>2022-11-30T10:09:37Z</time>
      </trkpt>
      <trkpt lat="44.91353" lon="6.72388">
        <ele>2081.45</ele>
        <time>2022-11-30T10:09:47Z</time>
      </trkpt>
      <trkpt lat="44.91346" lon="6.72384">
        <ele>2080.66</ele>
        <time>2022-11-30T10:09:57Z</time>
      </trkpt>
      <trkpt lat="44.91339" lon="6.7238">
        <ele>2084.52</ele>
        <time>2022-11-30T10:10:06Z</time>
      </trkpt>
      <trkpt lat="44.91333" lon="6.72379">
        <ele>2079.22</ele>
        <time>2022-11-30T10:10:16Z</time>
      </trkpt>
      <trkpt lat="44.91324" lon="6.72375">
        <ele>2083.89</ele>
        <time>2022-11-30T10:10:26Z</time>
      </trkpt>
      <trkpt lat="44.91315" lon="6.72371">
        <ele>2087.74</ele>
        <time>2022-11-30T10:10:35Z</time>
      </trkpt>
      <trkpt lat="44.9131" lon="6.72367">
        <ele>2091.66</ele>
        <time>2022-11-30T10:10:46Z</time>
      </trkpt>
      <trkpt lat="44.91304" lon="6.72362">
        <ele>2087.45</ele>
        <time>2022-11-30T10:10:56Z</time>
      </trkpt>
      <trkpt lat="44.91299" lon="6.72355">
        <ele>2077.19</ele>
        <time>2022-11-30T10:11:06Z</time>
      </trkpt>
      <trkpt lat="44.91294" lon="6.72348">
        <ele>2074.62</ele>
        <time>2022-11-30T10:11:16Z</time>
      </trkpt>
      <trkpt lat="44.91289" lon="6.72339">
        <ele>2093.68</ele>
        <time>2022-11-30T10:11:26Z</time>
      </trkpt>
      <trkpt lat="44.91285" lon="6.72327">
        <ele>2078.17</ele>
        <time>2022-11-30T10:11:35Z</time>
      </trkpt>
      <trkpt lat="44.91281" lon="6.72323">
        <ele>2092.36</ele>
        <time>2022-11-30T10:11:46Z</time>
      </trkpt>
      <trkpt lat="44.91274" lon="6.72315">
        <ele>2094.92</ele>
        <time>2022-11-30T10:11:57Z</time>
      </trkpt>
      <trkpt lat="44.91265" lon="6.72307">
        <ele>2088.75</ele>
        <time>2022-11-30T10:12:07Z</time>
      </trkpt>
      <trkpt lat="44.91255" lon="6.72303">
        <ele>2084.77</ele>
        <time>2022-11-30T10:12:16Z</time>
      </trkpt>
      <trkpt lat="44.9125" lon="6.72303">
        <ele>2075.15</ele>
        <time>2022-11-30T10:12:26Z</time>
      </trkpt>
      <trkpt lat="44.91246" lon="6.72305">
        <ele>2091.97</ele>
        <time>2022-11-30T10:12:35Z</time>
      </trkpt>
      <trkpt lat="44.91243" lon="6.72306">
        <ele>2093.95</ele>
        <time>2022-11-30T10:12:45Z</time>
      </trkpt>
      <trkpt lat="44.91237" lon="6.72308">
        <ele>2080.02</ele>
        <time>2022-11-30T10:12:55Z</time>
      </trkpt>
      <trkpt lat="44.91232" lon="6.7231">
        <ele>2096.05</ele>
        <time>2022-11-30T10:13:04Z</time>
      </trkpt>
      <trkpt lat="44.91223" lon="6.7231">
        <ele>2096.65</ele>
        <time>2022-11-30T10:13:15Z</time>
      </trkpt>
      <trkpt lat="44.91214" lon="6.72311">
        <ele>2095.43</ele>
        <time>2022-11-30T10:13:24Z</time>
      </trkpt>
      <trkpt lat="44.91209" lon="6.72313">
        <ele>2082.02</ele>
        <time>2022-11-30T10:13:34Z</time>
      </trkpt>
      <trkpt lat="44.91205" lon="6.72314">
        <ele>2095.32</ele>
        <time>2022-11-30T10:13:44Z</time>
      </trkpt>
      <trkpt lat="44.91199" lon="6.72317">
        <ele>2097.83</ele>
        <time>2022-11-30T10:13:54Z</time>
      </trkpt>
      <trkpt lat="44.912" lon="6.72322">
        <ele>2081.91</ele>
        <time>2022-11-30T10:14:04Z</time>
      </trkpt>
      <trkpt lat="44.912" lon="6.7232">
        <ele>2077.14</ele>
        <time>2022-11-30T10:14:14Z</time>
      </trkpt>
      <trkpt lat="44.91199" lon="6.7232">
        <ele>2091.75</ele>
        <time>2022-11-30T10:14:25Z</time>
      </trkpt>
      <trkpt lat="44.91197" lon="6.7232">
        <ele>2098.41</ele>
        <time>2022-11-30T10:14:35Z</time>
      </trkpt>
      <trkpt lat="44.91197" lon="6.72318">
        <ele>2093.12</ele>
        <time>2022-11-30T10:14:49Z</time>
      </trkpt>
      <trkpt lat="44.91194" lon="6.72317">
        <ele>2095.98</ele>
        <time>2022-11-30T10:14:59Z</time>
      </trkpt>
      <trkpt lat="44.91188" lon="6.72315">
        <ele>2084.12</ele>
        <time>2022-11-30T10:15:09Z</time>
      </trkpt>
      <trkpt lat="44.91182" lon="6.72314">
        <ele>2085.83</ele>
        <time>2022-11-30T10:15:18Z</time>
      </trkpt>
      <trkpt lat="44.91177" lon="6.72311">
        <ele>2102.78</ele>
        <time>2022-11-30T10:15:28Z</time>
      </trkpt>
      <trkpt lat="44.91171" lon="6.7231">
        <ele>2096.41</ele>
        <time>2022-11-30T10:15:37Z</time>
      </trkpt>
      <trkpt lat="44.91166" lon="6.72308">
        <ele>2090.74</ele>
        <time>2022-11-30T10:15:46Z</time>
      </trkpt>
      <trkpt lat="44.91161" lon="6.72305">
        <ele>2091.71</ele>
        <time>2022-11-30T10:15:57Z</time>
      </trkpt>
      <trkpt lat="44.91153" lon="6.72303">
        <ele>2091.63</ele>
        <time>2022-11-30T10:16:07Z</time>
      </trkpt>
      <trkpt lat="44.91146" lon="6.72301">
        <ele>2098.45</ele>
        <time>2022-11-30T10:16:16Z</time>
      </trkpt>
      <trkpt lat="44.91139" lon="6.723">
        <ele>2109.93</ele>
        <time>2022-11-30T10:16:25Z</time>
      </trkpt>
      <trkpt lat="44.91132" lon="6.72297">
        <ele>2109.68</ele>
        <time>2022-11-30T10:16:35Z</time>
      </trkpt>
      <trkpt lat="44.91127" lon="6.72292">
        <ele>2108.39</ele>
        <time>2022-11-30T10:16:45Z</time>
      </trkpt>
      <trkpt lat="44.91121" lon="6.7229">
        <ele>2108.57</ele>
        <time>2022-11-30T10:16:54Z</time>
      </trkpt>
      <trkpt lat="44.91114" lon="6.72287">
        <ele>2109.35</ele>
        <time>2022-11-30T10:17:04Z</time>
      </trkpt>
      <trkpt lat="44.91106" lon="6.72285">
        <ele>2110.83</ele>
        <time>2022-11-30T10:17:13Z</time>
      </trkpt>
      <trkpt lat="44.911" lon="6.72284">
        <ele>2110.85</ele>
        <time>2022-11-30T10:17:23Z</time>
      </trkpt>
      <trkpt lat="44.91092" lon="6.72284">
        <ele>2110.49</ele>
        <time>2022-11-30T10:17:32Z</time>
      </trkpt>
      <trkpt lat="44.91086" lon="6.72286">
        <ele>2092.92</ele>
        <time>2022-11-30T10:17:42Z</time>
      </trkpt>
      <trkpt lat="44.91079" lon="6.72288">
        <ele>2093.16</ele>
        <time>2022-11-30T10:17:51Z</time>
      </trkpt>
      <trkpt lat="44.91068" lon="6.7229">
        <ele>2101.98</ele>
        <time>2022-11-30T10:18:01Z</time>
      </trkpt>
      <trkpt lat="44.91059" lon="6.72294">
        <ele>2098.18</ele>
        <time>2022-11-30T10:18:11Z</time>
      </trkpt>
      <trkpt lat="44.91055" lon="6.72291">
        <ele>2084.38</ele>
        <time>2022-11-30T10:18:21Z</time>
      </trkpt>
      <trkpt lat="44.91056" lon="6.72292">
        <ele>2097.28</ele>
        <time>2022-11-30T10:18:31Z</time>
      </trkpt>
      <trkpt lat="44.91056" lon="6.72293">
        <ele>2094.04</ele>
        <time>2022-11-30T10:18:41Z</time>
      </trkpt>
      <trkpt lat="44.91056" lon="6.72291">
        <ele>2104.57</ele>
        <time>2022-11-30T10:19:04Z</time>
      </trkpt>
      <trkpt lat="44.91058" lon="6.7229">
        <ele>2088.78</ele>
        <time>2022-11-30T10:19:14Z</time>
      </trkpt>
      <trkpt lat="44.91059" lon="6.72289">
        <ele>2089.01</ele>
        <time>2022-11-30T10:19:24Z</time>
      </trkpt>
      <trkpt lat="44.91061" lon="6.72289">
        <ele>2088.17</ele>
        <time>2022-11-30T10:19:35Z</time>
      </trkpt>
      <trkpt lat="44.91062" lon="6.72289">
        <ele>2108.75</ele>
        <time>2022-11-30T10:21:57Z</time>
      </trkpt>
      <trkpt lat="44.91062" lon="6.72288">
        <ele>2106.85</ele>
        <time>2022-11-30T10:23:29Z</time>
      </trkpt>
      <trkpt lat="44.91063" lon="6.72288">
        <ele>2089.25</ele>
        <time>2022-11-30T10:23:59Z</time>
      </trkpt>
      <trkpt lat="44.91064" lon="6.7229">
        <ele>2107.85</ele>
        <time>2022-11-30T10:25:47Z</time>
      </trkpt>
      <trkpt lat="44.91064" lon="6.7229">
        <ele>2109.34</ele>
        <time>2022-11-30T10:27:09Z</time>
      </trkpt>
      <trkpt lat="44.91063" lon="6.7229">
        <ele>2092.84</ele>
        <time>2022-11-30T10:27:22Z</time>
      </trkpt>
      <trkpt lat="44.91062" lon="6.72291">
        <ele>2109.79</ele>
        <time>2022-11-30T10:27:32Z</time>
      </trkpt>
      <trkpt lat="44.91058" lon="6.7229">
        <ele>2102.38</ele>
        <time>2022-11-30T10:27:42Z</time>
      </trkpt>
      <trkpt lat="44.9105" lon="6.72275">
        <ele>2089.27</ele>
        <time>2022-11-30T10:27:51Z</time>
      </trkpt>
      <trkpt lat="44.91048" lon="6.72276">
        <ele>2092.81</ele>
        <time>2022-11-30T10:28:01Z</time>
      </trkpt>
      <trkpt lat="44.91043" lon="6.72281">
        <ele>2101.81</ele>
        <time>2022-11-30T10:28:10Z</time>
      </trkpt>
      <trkpt lat="44.91037" lon="6.72283">
        <ele>2088.14</ele>
        <time>2022-11-30T10:28:19Z</time>
      </trkpt>
      <trkpt lat="44.91033" lon="6.72284">
        <ele>2088.87</ele>
        <time>2022-11-30T10:28:29Z</time>
      </trkpt>
      <trkpt lat="44.91027" lon="6.72284">
        <ele>2113.49</ele>
        <time>2022-11-30T10:28:38Z</time>
      </trkpt>
      <trkpt lat="44.91023" lon="6.72284">
        <ele>2106.98</ele>
        <time>2022-11-30T10:28:48Z</time>
      </trkpt>
      <trkpt lat="44.91017" lon="6.72283">
        <ele>2100.24</ele>
        <time>2022-11-30T10:28:58Z</time>
      </trkpt>
      <trkpt lat="44.9101" lon="6.72281">
        <ele>2062.17</ele>
        <time>2022-11-30T10:29:08Z</time>
      </trkpt>
      <trkpt lat="44.91005" lon="6.72278">
        <ele>2105.1</ele>
        <time>2022-11-30T10:29:18Z</time>
      </trkpt>
      <trkpt lat="44.91001" lon="6.72273">
        <ele>2079.69</ele>
        <time>2022-11-30T10:29:28Z</time>
      </trkpt>
      <trkpt lat="44.90999" lon="6.72266">
        <ele>2060.93</ele>
        <time>2022-11-30T10:29:38Z</time>
      </trkpt>
      <trkpt lat="44.90996" lon="6.72259">
        <ele>2080.86</ele>
        <time>2022-11-30T10:29:49Z</time>
      </trkpt>
      <trkpt lat="44.90994" lon="6.72248">
        <ele>2101.23</ele>
        <time>2022-11-30T10:30:00Z</time>
      </trkpt>
      <trkpt lat="44.9099" lon="6.72245">
        <ele>2114.52</ele>
        <time>2022-11-30T10:30:10Z</time>
      </trkpt>
      <trkpt lat="44.90986" lon="6.72245">
        <ele>2099.46</ele>
        <time>2022-11-30T10:30:20Z</time>
      </trkpt>
      <trkpt lat="44.90981" lon="6.7225">
        <ele>2123.2</ele>
        <time>2022-11-30T10:30:30Z</time>
      </trkpt>
      <trkpt lat="44.90975" lon="6.72252">
        <ele>2125.07</ele>
        <time>2022-11-30T10:30:40Z</time>
      </trkpt>
      <trkpt lat="44.90971" lon="6.72252">
        <ele>2117.95</ele>
        <time>2022-11-30T10:30:49Z</time>
      </trkpt>
      <trkpt lat="44.90966" lon="6.72249">
        <ele>2104.88</ele>
        <time>2022-11-30T10:30:59Z</time>
      </trkpt>
      <trkpt lat="44.90962" lon="6.72247">
        <ele>2124.29</ele>
        <time>2022-11-30T10:31:09Z</time>
      </trkpt>
      <trkpt lat="44.90957" lon="6.72247">
        <ele>2121.41</ele>
        <time>2022-11-30T10:31:19Z</time>
      </trkpt>
      <trkpt lat="44.90954" lon="6.72244">
        <ele>2114.62</ele>
        <time>2022-11-30T10:31:28Z</time>
      </trkpt>
      <trkpt lat="44.90949" lon="6.7224">
        <ele>2107.16</ele>
        <time>2022-11-30T10:31:38Z</time>
      </trkpt>
      <trkpt lat="44.90946" lon="6.72235">
        <ele>2095.46</ele>
        <time>2022-11-30T10:31:47Z</time>
      </trkpt>
      <trkpt lat="44.90942" lon="6.72231">
        <ele>2110.07</ele>
        <time>2022-11-30T10:31:58Z</time>
      </trkpt>
      <trkpt lat="44.90939" lon="6.72229">
        <ele>2099.03</ele>
        <time>2022-11-30T10:32:08Z</time>
      </trkpt>
      <trkpt lat="44.90938" lon="6.72223">
        <ele>2092.45</ele>
        <time>2022-11-30T10:32:18Z</time>
      </trkpt>
      <trkpt lat="44.90936" lon="6.72219">
        <ele>2109.35</ele>
        <time>2022-11-30T10:32:28Z</time>
      </trkpt>
      <trkpt lat="44.90934" lon="6.72215">
        <ele>2112.27</ele>
        <time>2022-11-30T10:32:38Z</time>
      </trkpt>
      <trkpt lat="44.90928" lon="6.72212">
        <ele>2096.91</ele>
        <time>2022-11-30T10:32:48Z</time>
      </trkpt>
      <trkpt lat="44.90926" lon="6.72209">
        <ele>2097.72</ele>
        <time>2022-11-30T10:32:58Z</time>
      </trkpt>
      <trkpt lat="44.90924" lon="6.72207">
        <ele>2100.16</ele>
        <time>2022-11-30T10:33:08Z</time>
      </trkpt>
      <trkpt lat="44.90922" lon="6.72203">
        <ele>2135.84</ele>
        <time>2022-11-30T10:33:19Z</time>
      </trkpt>
      <trkpt lat="44.90919" lon="6.72201">
        <ele>2137.69</ele>
        <time>2022-11-30T10:33:30Z</time>
      </trkpt>
      <trkpt lat="44.90916" lon="6.72197">
        <ele>2138.58</ele>
        <time>2022-11-30T10:33:41Z</time>
      </trkpt>
      <trkpt lat="44.90914" lon="6.72195">
        <ele>2130.25</ele>
        <time>2022-11-30T10:33:51Z</time>
      </trkpt>
      <trkpt lat="44.90911" lon="6.72193">
        <ele>2109.18</ele>
        <time>2022-11-30T10:34:00Z</time>
      </trkpt>
      <trkpt lat="44.90908" lon="6.72191">
        <ele>2126.32</ele>
        <time>2022-11-30T10:34:10Z</time>
      </trkpt>
      <trkpt lat="44.90905" lon="6.72187">
        <ele>2119.99</ele>
        <time>2022-11-30T10:34:21Z</time>
      </trkpt>
      <trkpt lat="44.90902" lon="6.72182">
        <ele>2119.79</ele>
        <time>2022-11-30T10:34:31Z</time>
      </trkpt>
      <trkpt lat="44.90898" lon="6.72178">
        <ele>2120.85</ele>
        <time>2022-11-30T10:34:42Z</time>
      </trkpt>
      <trkpt lat="44.90895" lon="6.72172">
        <ele>2119.83</ele>
        <time>2022-11-30T10:34:51Z</time>
      </trkpt>
      <trkpt lat="44.90894" lon="6.72165">
        <ele>2120.37</ele>
        <time>2022-11-30T10:35:01Z</time>
      </trkpt>
      <trkpt lat="44.90891" lon="6.72159">
        <ele>2145.02</ele>
        <time>2022-11-30T10:35:10Z</time>
      </trkpt>
      <trkpt lat="44.90886" lon="6.72158">
        <ele>2145.54</ele>
        <time>2022-11-30T10:35:20Z</time>
      </trkpt>
      <trkpt lat="44.90881" lon="6.7216">
        <ele>2098.01</ele>
        <time>2022-11-30T10:35:29Z</time>
      </trkpt>
      <trkpt lat="44.90878" lon="6.72162">
        <ele>2091.37</ele>
        <time>2022-11-30T10:35:39Z</time>
      </trkpt>
      <trkpt lat="44.90876" lon="6.72163">
        <ele>2116.57</ele>
        <time>2022-11-30T10:35:48Z</time>
      </trkpt>
      <trkpt lat="44.90875" lon="6.72159">
        <ele>2113.47</ele>
        <time>2022-11-30T10:35:59Z</time>
      </trkpt>
      <trkpt lat="44.90876" lon="6.72157">
        <ele>2103.76</ele>
        <time>2022-11-30T10:36:09Z</time>
      </trkpt>
      <trkpt lat="44.90875" lon="6.72158">
        <ele>2117.11</ele>
        <time>2022-11-30T10:36:19Z</time>
      </trkpt>
      <trkpt lat="44.90875" lon="6.72152">
        <ele>2132.58</ele>
        <time>2022-11-30T10:36:28Z</time>
      </trkpt>
      <trkpt lat="44.90873" lon="6.72141">
        <ele>2142.78</ele>
        <time>2022-11-30T10:36:37Z</time>
      </trkpt>
      <trkpt lat="44.90872" lon="6.72134">
        <ele>2127.9</ele>
        <time>2022-11-30T10:36:47Z</time>
      </trkpt>
      <trkpt lat="44.90871" lon="6.72128">
        <ele>2138.21</ele>
        <time>2022-11-30T10:36:57Z</time>
      </trkpt>
      <trkpt lat="44.90869" lon="6.72121">
        <ele>2131.07</ele>
        <time>2022-11-30T10:37:07Z</time>
      </trkpt>
      <trkpt lat="44.90868" lon="6.72115">
        <ele>2136.44</ele>
        <time>2022-11-30T10:37:17Z</time>
      </trkpt>
      <trkpt lat="44.90864" lon="6.72113">
        <ele>2095.06</ele>
        <time>2022-11-30T10:37:27Z</time>
      </trkpt>
      <trkpt lat="44.90857" lon="6.72113">
        <ele>2126.48</ele>
        <time>2022-11-30T10:37:37Z</time>
      </trkpt>
      <trkpt lat="44.90851" lon="6.72115">
        <ele>2115.55</ele>
        <time>2022-11-30T10:37:48Z</time>
      </trkpt>
      <trkpt lat="44.90845" lon="6.72117">
        <ele>2119.6</ele>
        <time>2022-11-30T10:37:59Z</time>
      </trkpt>
      <trkpt lat="44.90841" lon="6.72114">
        <ele>2111.94</ele>
        <time>2022-11-30T10:38:10Z</time>
      </trkpt>
      <trkpt lat="44.90837" lon="6.72108">
        <ele>2136</ele>
        <time>2022-11-30T10:38:21Z</time>
      </trkpt>
      <trkpt lat="44.90833" lon="6.72106">
        <ele>2153.26</ele>
        <time>2022-11-30T10:38:30Z</time>
      </trkpt>
      <trkpt lat="44.9083" lon="6.72102">
        <ele>2156.29</ele>
        <time>2022-11-30T10:38:40Z</time>
      </trkpt>
      <trkpt lat="44.90826" lon="6.72099">
        <ele>2156.86</ele>
        <time>2022-11-30T10:38:50Z</time>
      </trkpt>
      <trkpt lat="44.90824" lon="6.72094">
        <ele>2128.51</ele>
        <time>2022-11-30T10:39:00Z</time>
      </trkpt>
      <trkpt lat="44.90823" lon="6.72088">
        <ele>2155.33</ele>
        <time>2022-11-30T10:39:10Z</time>
      </trkpt>
      <trkpt lat="44.90818" lon="6.72085">
        <ele>2137.78</ele>
        <time>2022-11-30T10:39:20Z</time>
      </trkpt>
      <trkpt lat="44.90814" lon="6.72081">
        <ele>2134.82</ele>
        <time>2022-11-30T10:39:29Z</time>
      </trkpt>
      <trkpt lat="44.90812" lon="6.72077">
        <ele>2134.09</ele>
        <time>2022-11-30T10:39:39Z</time>
      </trkpt>
      <trkpt lat="44.90807" lon="6.72074">
        <ele>2163.21</ele>
        <time>2022-11-30T10:39:48Z</time>
      </trkpt>
      <trkpt lat="44.90805" lon="6.72071">
        <ele>2125.07</ele>
        <time>2022-11-30T10:39:58Z</time>
      </trkpt>
      <trkpt lat="44.90804" lon="6.72063">
        <ele>2127.01</ele>
        <time>2022-11-30T10:40:07Z</time>
      </trkpt>
      <trkpt lat="44.90801" lon="6.72062">
        <ele>2149.8</ele>
        <time>2022-11-30T10:40:17Z</time>
      </trkpt>
      <trkpt lat="44.908" lon="6.72056">
        <ele>2149.93</ele>
        <time>2022-11-30T10:40:27Z</time>
      </trkpt>
      <trkpt lat="44.90796" lon="6.72052">
        <ele>2157.67</ele>
        <time>2022-11-30T10:40:37Z</time>
      </trkpt>
      <trkpt lat="44.90794" lon="6.72046">
        <ele>2165.69</ele>
        <time>2022-11-30T10:40:47Z</time>
      </trkpt>
      <trkpt lat="44.90793" lon="6.72039">
        <ele>2143.54</ele>
        <time>2022-11-30T10:40:56Z</time>
      </trkpt>
      <trkpt lat="44.90792" lon="6.72035">
        <ele>2140.69</ele>
        <time>2022-11-30T10:41:06Z</time>
      </trkpt>
      <trkpt lat="44.90789" lon="6.72029">
        <ele>2119.97</ele>
        <time>2022-11-30T10:41:17Z</time>
      </trkpt>
      <trkpt lat="44.90787" lon="6.72023">
        <ele>2138.42</ele>
        <time>2022-11-30T10:41:26Z</time>
      </trkpt>
      <trkpt lat="44.90786" lon="6.72017">
        <ele>2152</ele>
        <time>2022-11-30T10:41:36Z</time>
      </trkpt>
      <trkpt lat="44.90783" lon="6.72015">
        <ele>2126</ele>
        <time>2022-11-30T10:41:46Z</time>
      </trkpt>
      <trkpt lat="44.90782" lon="6.7201">
        <ele>2102.49</ele>
        <time>2022-11-30T10:41:56Z</time>
      </trkpt>
      <trkpt lat="44.90784" lon="6.72002">
        <ele>2095.93</ele>
        <time>2022-11-30T10:42:06Z</time>
      </trkpt>
      <trkpt lat="44.90781" lon="6.71996">
        <ele>2124.64</ele>
        <time>2022-11-30T10:42:15Z</time>
      </trkpt>
      <trkpt lat="44.90776" lon="6.71992">
        <ele>2136.16</ele>
        <time>2022-11-30T10:42:25Z</time>
      </trkpt>
      <trkpt lat="44.9077" lon="6.71988">
        <ele>2170.69</ele>
        <time>2022-11-30T10:42:35Z</time>
      </trkpt>
      <trkpt lat="44.90766" lon="6.71984">
        <ele>2135.32</ele>
        <time>2022-11-30T10:42:44Z</time>
      </trkpt>
      <trkpt lat="44.90761" lon="6.71981">
        <ele>2142.34</ele>
        <time>2022-11-30T10:42:54Z</time>
      </trkpt>
      <trkpt lat="44.90757" lon="6.71978">
        <ele>2147.46</ele>
        <time>2022-11-30T10:43:05Z</time>
      </trkpt>
      <trkpt lat="44.90751" lon="6.71969">
        <ele>2137.18</ele>
        <time>2022-11-30T10:43:14Z</time>
      </trkpt>
      <trkpt lat="44.90745" lon="6.71968">
        <ele>2169</ele>
        <time>2022-11-30T10:43:24Z</time>
      </trkpt>
      <trkpt lat="44.9074" lon="6.71968">
        <ele>2173.64</ele>
        <time>2022-11-30T10:43:34Z</time>
      </trkpt>
      <trkpt lat="44.90736" lon="6.71966">
        <ele>2145.45</ele>
        <time>2022-11-30T10:43:44Z</time>
      </trkpt>
      <trkpt lat="44.90731" lon="6.71961">
        <ele>2175.51</ele>
        <time>2022-11-30T10:43:54Z</time>
      </trkpt>
      <trkpt lat="44.90725" lon="6.71954">
        <ele>2174.16</ele>
        <time>2022-11-30T10:44:03Z</time>
      </trkpt>
      <trkpt lat="44.90721" lon="6.71954">
        <ele>2179.56</ele>
        <time>2022-11-30T10:44:13Z</time>
      </trkpt>
      <trkpt lat="44.90715" lon="6.71947">
        <ele>2177.67</ele>
        <time>2022-11-30T10:44:22Z</time>
      </trkpt>
      <trkpt lat="44.90709" lon="6.71943">
        <ele>2183.47</ele>
        <time>2022-11-30T10:44:32Z</time>
      </trkpt>
      <trkpt lat="44.90705" lon="6.7194">
        <ele>2179.09</ele>
        <time>2022-11-30T10:44:41Z</time>
      </trkpt>
      <trkpt lat="44.907" lon="6.71938">
        <ele>2155.3</ele>
        <time>2022-11-30T10:44:50Z</time>
      </trkpt>
      <trkpt lat="44.90695" lon="6.7193">
        <ele>2125.42</ele>
        <time>2022-11-30T10:45:00Z</time>
      </trkpt>
      <trkpt lat="44.9069" lon="6.71925">
        <ele>2149.33</ele>
        <time>2022-11-30T10:45:10Z</time>
      </trkpt>
      <trkpt lat="44.90685" lon="6.71918">
        <ele>2150.91</ele>
        <time>2022-11-30T10:45:20Z</time>
      </trkpt>
      <trkpt lat="44.9068" lon="6.71914">
        <ele>2152.28</ele>
        <time>2022-11-30T10:45:29Z</time>
      </trkpt>
      <trkpt lat="44.90675" lon="6.7191">
        <ele>2162.42</ele>
        <time>2022-11-30T10:45:39Z</time>
      </trkpt>
      <trkpt lat="44.90672" lon="6.71908">
        <ele>2134.3</ele>
        <time>2022-11-30T10:45:49Z</time>
      </trkpt>
      <trkpt lat="44.90664" lon="6.71905">
        <ele>2109.96</ele>
        <time>2022-11-30T10:45:59Z</time>
      </trkpt>
      <trkpt lat="44.90658" lon="6.71904">
        <ele>2179.96</ele>
        <time>2022-11-30T10:46:09Z</time>
      </trkpt>
      <trkpt lat="44.90648" lon="6.71909">
        <ele>2178.64</ele>
        <time>2022-11-30T10:46:19Z</time>
      </trkpt>
      <trkpt lat="44.90643" lon="6.71911">
        <ele>2145.55</ele>
        <time>2022-11-30T10:46:29Z</time>
      </trkpt>
      <trkpt lat="44.90638" lon="6.71916">
        <ele>2148.02</ele>
        <time>2022-11-30T10:46:39Z</time>
      </trkpt>
      <trkpt lat="44.90635" lon="6.71919">
        <ele>2158.55</ele>
        <time>2022-11-30T10:46:48Z</time>
      </trkpt>
      <trkpt lat="44.90633" lon="6.71917">
        <ele>2141.36</ele>
        <time>2022-11-30T10:46:58Z</time>
      </trkpt>
      <trkpt lat="44.9063" lon="6.71912">
        <ele>2139.2</ele>
        <time>2022-11-30T10:47:07Z</time>
      </trkpt>
      <trkpt lat="44.90624" lon="6.7191">
        <ele>2156.35</ele>
        <time>2022-11-30T10:47:17Z</time>
      </trkpt>
      <trkpt lat="44.90619" lon="6.71907">
        <ele>2137.53</ele>
        <time>2022-11-30T10:47:27Z</time>
      </trkpt>
      <trkpt lat="44.90615" lon="6.71905">
        <ele>2145.38</ele>
        <time>2022-11-30T10:47:37Z</time>
      </trkpt>
      <trkpt lat="44.9061" lon="6.71903">
        <ele>2172.13</ele>
        <time>2022-11-30T10:47:47Z</time>
      </trkpt>
      <trkpt lat="44.90605" lon="6.719">
        <ele>2178.94</ele>
        <time>2022-11-30T10:47:57Z</time>
      </trkpt>
      <trkpt lat="44.90601" lon="6.71897">
        <ele>2134.35</ele>
        <time>2022-11-30T10:48:07Z</time>
      </trkpt>
      <trkpt lat="44.90598" lon="6.71892">
        <ele>2167.84</ele>
        <time>2022-11-30T10:48:17Z</time>
      </trkpt>
      <trkpt lat="44.90594" lon="6.71887">
        <ele>2153.37</ele>
        <time>2022-11-30T10:48:27Z</time>
      </trkpt>
      <trkpt lat="44.9059" lon="6.71885">
        <ele>2174.55</ele>
        <time>2022-11-30T10:48:37Z</time>
      </trkpt>
      <trkpt lat="44.90584" lon="6.71884">
        <ele>2138.44</ele>
        <time>2022-11-30T10:48:46Z</time>
      </trkpt>
      <trkpt lat="44.90583" lon="6.71881">
        <ele>2128.45</ele>
        <time>2022-11-30T10:48:56Z</time>
      </trkpt>
      <trkpt lat="44.90578" lon="6.71878">
        <ele>2143.91</ele>
        <time>2022-11-30T10:49:05Z</time>
      </trkpt>
      <trkpt lat="44.90574" lon="6.71872">
        <ele>2135.82</ele>
        <time>2022-11-30T10:49:16Z</time>
      </trkpt>
      <trkpt lat="44.90571" lon="6.71867">
        <ele>2122.17</ele>
        <time>2022-11-30T10:49:26Z</time>
      </trkpt>
      <trkpt lat="44.90565" lon="6.71868">
        <ele>2163.06</ele>
        <time>2022-11-30T10:49:35Z</time>
      </trkpt>
      <trkpt lat="44.90562" lon="6.71871">
        <ele>2163.29</ele>
        <time>2022-11-30T10:49:45Z</time>
      </trkpt>
      <trkpt lat="44.90558" lon="6.7187">
        <ele>2194.84</ele>
        <time>2022-11-30T10:49:54Z</time>
      </trkpt>
      <trkpt lat="44.90554" lon="6.71868">
        <ele>2193.93</ele>
        <time>2022-11-30T10:50:04Z</time>
      </trkpt>
      <trkpt lat="44.90549" lon="6.71867">
        <ele>2158.58</ele>
        <time>2022-11-30T10:50:13Z</time>
      </trkpt>
      <trkpt lat="44.90545" lon="6.71866">
        <ele>2161.77</ele>
        <time>2022-11-30T10:50:23Z</time>
      </trkpt>
      <trkpt lat="44.90541" lon="6.71865">
        <ele>2193.71</ele>
        <time>2022-11-30T10:50:32Z</time>
      </trkpt>
      <trkpt lat="44.90537" lon="6.71864">
        <ele>2164.01</ele>
        <time>2022-11-30T10:50:42Z</time>
      </trkpt>
      <trkpt lat="44.90534" lon="6.71864">
        <ele>2196.62</ele>
        <time>2022-11-30T10:50:51Z</time>
      </trkpt>
      <trkpt lat="44.9053" lon="6.71864">
        <ele>2198.72</ele>
        <time>2022-11-30T10:51:01Z</time>
      </trkpt>
      <trkpt lat="44.90526" lon="6.71863">
        <ele>2167.45</ele>
        <time>2022-11-30T10:51:10Z</time>
      </trkpt>
      <trkpt lat="44.90522" lon="6.71864">
        <ele>2196.77</ele>
        <time>2022-11-30T10:51:20Z</time>
      </trkpt>
      <trkpt lat="44.90517" lon="6.7186">
        <ele>2198.35</ele>
        <time>2022-11-30T10:51:29Z</time>
      </trkpt>
      <trkpt lat="44.90517" lon="6.71853">
        <ele>2197.05</ele>
        <time>2022-11-30T10:51:39Z</time>
      </trkpt>
      <trkpt lat="44.90518" lon="6.71842">
        <ele>2190.86</ele>
        <time>2022-11-30T10:51:49Z</time>
      </trkpt>
      <trkpt lat="44.90518" lon="6.71833">
        <ele>2159.64</ele>
        <time>2022-11-30T10:51:59Z</time>
      </trkpt>
      <trkpt lat="44.90515" lon="6.71825">
        <ele>2172.64</ele>
        <time>2022-11-30T10:52:09Z</time>
      </trkpt>
      <trkpt lat="44.90512" lon="6.7182">
        <ele>2153.31</ele>
        <time>2022-11-30T10:52:18Z</time>
      </trkpt>
      <trkpt lat="44.90509" lon="6.71816">
        <ele>2171.2</ele>
        <time>2022-11-30T10:52:28Z</time>
      </trkpt>
      <trkpt lat="44.90505" lon="6.71816">
        <ele>2185.91</ele>
        <time>2022-11-30T10:52:39Z</time>
      </trkpt>
      <trkpt lat="44.90502" lon="6.71816">
        <ele>2152.59</ele>
        <time>2022-11-30T10:52:49Z</time>
      </trkpt>
      <trkpt lat="44.90499" lon="6.71814">
        <ele>2151.2</ele>
        <time>2022-11-30T10:52:59Z</time>
      </trkpt>
      <trkpt lat="44.90495" lon="6.71813">
        <ele>2191.39</ele>
        <time>2022-11-30T10:53:09Z</time>
      </trkpt>
      <trkpt lat="44.90492" lon="6.71812">
        <ele>2198.82</ele>
        <time>2022-11-30T10:53:19Z</time>
      </trkpt>
      <trkpt lat="44.9049" lon="6.71811">
        <ele>2149.01</ele>
        <time>2022-11-30T10:53:29Z</time>
      </trkpt>
      <trkpt lat="44.90486" lon="6.7181">
        <ele>2204.39</ele>
        <time>2022-11-30T10:53:39Z</time>
      </trkpt>
      <trkpt lat="44.90482" lon="6.71809">
        <ele>2209.97</ele>
        <time>2022-11-30T10:53:48Z</time>
      </trkpt>
      <trkpt lat="44.90478" lon="6.71808">
        <ele>2196.63</ele>
        <time>2022-11-30T10:53:59Z</time>
      </trkpt>
      <trkpt lat="44.90473" lon="6.71807">
        <ele>2175.6</ele>
        <time>2022-11-30T10:54:09Z</time>
      </trkpt>
      <trkpt lat="44.90468" lon="6.71805">
        <ele>2188.49</ele>
        <time>2022-11-30T10:54:18Z</time>
      </trkpt>
      <trkpt lat="44.90465" lon="6.71804">
        <ele>2211.81</ele>
        <time>2022-11-30T10:54:28Z</time>
      </trkpt>
      <trkpt lat="44.9046" lon="6.71803">
        <ele>2214.98</ele>
        <time>2022-11-30T10:54:38Z</time>
      </trkpt>
      <trkpt lat="44.90455" lon="6.71799">
        <ele>2215.55</ele>
        <time>2022-11-30T10:54:47Z</time>
      </trkpt>
      <trkpt lat="44.90451" lon="6.71797">
        <ele>2213.84</ele>
        <time>2022-11-30T10:54:57Z</time>
      </trkpt>
      <trkpt lat="44.90444" lon="6.71799">
        <ele>2179.37</ele>
        <time>2022-11-30T10:55:06Z</time>
      </trkpt>
      <trkpt lat="44.90443" lon="6.71798">
        <ele>2213.88</ele>
        <time>2022-11-30T10:55:16Z</time>
      </trkpt>
      <trkpt lat="44.9044" lon="6.7179">
        <ele>2209.28</ele>
        <time>2022-11-30T10:55:27Z</time>
      </trkpt>
      <trkpt lat="44.90434" lon="6.71784">
        <ele>2214.43</ele>
        <time>2022-11-30T10:55:38Z</time>
      </trkpt>
      <trkpt lat="44.9043" lon="6.71776">
        <ele>2199.51</ele>
        <time>2022-11-30T10:55:47Z</time>
      </trkpt>
      <trkpt lat="44.90427" lon="6.71772">
        <ele>2210.7</ele>
        <time>2022-11-30T10:55:57Z</time>
      </trkpt>
      <trkpt lat="44.90421" lon="6.71769">
        <ele>2215.5</ele>
        <time>2022-11-30T10:56:07Z</time>
      </trkpt>
      <trkpt lat="44.90416" lon="6.71761">
        <ele>2180.67</ele>
        <time>2022-11-30T10:56:16Z</time>
      </trkpt>
      <trkpt lat="44.90413" lon="6.71753">
        <ele>2175.66</ele>
        <time>2022-11-30T10:56:26Z</time>
      </trkpt>
      <trkpt lat="44.90408" lon="6.71744">
        <ele>2167.81</ele>
        <time>2022-11-30T10:56:36Z</time>
      </trkpt>
      <trkpt lat="44.90404" lon="6.71736">
        <ele>2194.91</ele>
        <time>2022-11-30T10:56:45Z</time>
      </trkpt>
      <trkpt lat="44.90399" lon="6.71727">
        <ele>2209.71</ele>
        <time>2022-11-30T10:56:54Z</time>
      </trkpt>
      <trkpt lat="44.90395" lon="6.71728">
        <ele>2217.31</ele>
        <time>2022-11-30T10:57:04Z</time>
      </trkpt>
      <trkpt lat="44.90388" lon="6.71727">
        <ele>2219.41</ele>
        <time>2022-11-30T10:57:14Z</time>
      </trkpt>
      <trkpt lat="44.90378" lon="6.71721">
        <ele>2218.29</ele>
        <time>2022-11-30T10:57:23Z</time>
      </trkpt>
      <trkpt lat="44.9037" lon="6.71722">
        <ele>2262.31</ele>
        <time>2022-11-30T10:57:33Z</time>
      </trkpt>
      <trkpt lat="44.9036" lon="6.71732">
        <ele>2277.5</ele>
        <time>2022-11-30T10:57:42Z</time>
      </trkpt>
      <trkpt lat="44.90356" lon="6.71733">
        <ele>2278.22</ele>
        <time>2022-11-30T10:57:52Z</time>
      </trkpt>
      <trkpt lat="44.90351" lon="6.71733">
        <ele>2278.51</ele>
        <time>2022-11-30T10:58:02Z</time>
      </trkpt>
      <trkpt lat="44.90345" lon="6.71734">
        <ele>2263.24</ele>
        <time>2022-11-30T10:58:11Z</time>
      </trkpt>
      <trkpt lat="44.90341" lon="6.71732">
        <ele>2266.79</ele>
        <time>2022-11-30T10:58:21Z</time>
      </trkpt>
      <trkpt lat="44.90335" lon="6.71727">
        <ele>2267.75</ele>
        <time>2022-11-30T10:58:30Z</time>
      </trkpt>
      <trkpt lat="44.90334" lon="6.71718">
        <ele>2266.57</ele>
        <time>2022-11-30T10:58:40Z</time>
      </trkpt>
      <trkpt lat="44.90332" lon="6.71711">
        <ele>2266.08</ele>
        <time>2022-11-30T10:58:50Z</time>
      </trkpt>
      <trkpt lat="44.90329" lon="6.7171">
        <ele>2258.36</ele>
        <time>2022-11-30T10:59:00Z</time>
      </trkpt>
      <trkpt lat="44.9033" lon="6.71711">
        <ele>2258.01</ele>
        <time>2022-11-30T10:59:10Z</time>
      </trkpt>
      <trkpt lat="44.90319" lon="6.71706">
        <ele>2261.26</ele>
        <time>2022-11-30T10:59:19Z</time>
      </trkpt>
      <trkpt lat="44.90314" lon="6.71708">
        <ele>2258.63</ele>
        <time>2022-11-30T10:59:29Z</time>
      </trkpt>
      <trkpt lat="44.90309" lon="6.71708">
        <ele>2264.44</ele>
        <time>2022-11-30T10:59:38Z</time>
      </trkpt>
      <trkpt lat="44.90302" lon="6.7171">
        <ele>2258.55</ele>
        <time>2022-11-30T10:59:48Z</time>
      </trkpt>
      <trkpt lat="44.90298" lon="6.71714">
        <ele>2265.38</ele>
        <time>2022-11-30T10:59:58Z</time>
      </trkpt>
      <trkpt lat="44.90294" lon="6.71713">
        <ele>2263.75</ele>
        <time>2022-11-30T11:00:09Z</time>
      </trkpt>
      <trkpt lat="44.90287" lon="6.71711">
        <ele>2269.21</ele>
        <time>2022-11-30T11:00:20Z</time>
      </trkpt>
      <trkpt lat="44.90281" lon="6.71712">
        <ele>2263.83</ele>
        <time>2022-11-30T11:00:29Z</time>
      </trkpt>
      <trkpt lat="44.90277" lon="6.71712">
        <ele>2266.18</ele>
        <time>2022-11-30T11:00:39Z</time>
      </trkpt>
      <trkpt lat="44.90274" lon="6.71712">
        <ele>2262.37</ele>
        <time>2022-11-30T11:00:48Z</time>
      </trkpt>
      <trkpt lat="44.9027" lon="6.71711">
        <ele>2270.19</ele>
        <time>2022-11-30T11:00:58Z</time>
      </trkpt>
      <trkpt lat="44.90266" lon="6.71709">
        <ele>2268.56</ele>
        <time>2022-11-30T11:01:07Z</time>
      </trkpt>
      <trkpt lat="44.90264" lon="6.71709">
        <ele>2271.7</ele>
        <time>2022-11-30T11:01:16Z</time>
      </trkpt>
      <trkpt lat="44.9026" lon="6.71709">
        <ele>2273.02</ele>
        <time>2022-11-30T11:01:26Z</time>
      </trkpt>
      <trkpt lat="44.90255" lon="6.7171">
        <ele>2267.39</ele>
        <time>2022-11-30T11:01:36Z</time>
      </trkpt>
      <trkpt lat="44.90251" lon="6.71709">
        <ele>2266.09</ele>
        <time>2022-11-30T11:01:46Z</time>
      </trkpt>
      <trkpt lat="44.90246" lon="6.71706">
        <ele>2277.23</ele>
        <time>2022-11-30T11:01:55Z</time>
      </trkpt>
      <trkpt lat="44.90243" lon="6.71704">
        <ele>2277.19</ele>
        <time>2022-11-30T11:02:05Z</time>
      </trkpt>
      <trkpt lat="44.9024" lon="6.71702">
        <ele>2267.23</ele>
        <time>2022-11-30T11:02:15Z</time>
      </trkpt>
      <trkpt lat="44.90234" lon="6.717">
        <ele>2270.01</ele>
        <time>2022-11-30T11:02:24Z</time>
      </trkpt>
      <trkpt lat="44.9023" lon="6.71698">
        <ele>2277.86</ele>
        <time>2022-11-30T11:02:33Z</time>
      </trkpt>
      <trkpt lat="44.90226" lon="6.71695">
        <ele>2268.65</ele>
        <time>2022-11-30T11:02:43Z</time>
      </trkpt>
      <trkpt lat="44.90219" lon="6.71691">
        <ele>2279.18</ele>
        <time>2022-11-30T11:02:52Z</time>
      </trkpt>
      <trkpt lat="44.90215" lon="6.71689">
        <ele>2280.53</ele>
        <time>2022-11-30T11:03:02Z</time>
      </trkpt>
      <trkpt lat="44.90211" lon="6.71688">
        <ele>2280.95</ele>
        <time>2022-11-30T11:03:12Z</time>
      </trkpt>
      <trkpt lat="44.90206" lon="6.71687">
        <ele>2282.34</ele>
        <time>2022-11-30T11:03:21Z</time>
      </trkpt>
      <trkpt lat="44.90202" lon="6.71687">
        <ele>2272.47</ele>
        <time>2022-11-30T11:03:31Z</time>
      </trkpt>
      <trkpt lat="44.90198" lon="6.71687">
        <ele>2282.55</ele>
        <time>2022-11-30T11:03:41Z</time>
      </trkpt>
      <trkpt lat="44.90193" lon="6.71686">
        <ele>2271.39</ele>
        <time>2022-11-30T11:03:51Z</time>
      </trkpt>
      <trkpt lat="44.9019" lon="6.71683">
        <ele>2281.36</ele>
        <time>2022-11-30T11:04:01Z</time>
      </trkpt>
      <trkpt lat="44.90185" lon="6.7168">
        <ele>2283.89</ele>
        <time>2022-11-30T11:04:11Z</time>
      </trkpt>
      <trkpt lat="44.9018" lon="6.71678">
        <ele>2273.04</ele>
        <time>2022-11-30T11:04:21Z</time>
      </trkpt>
      <trkpt lat="44.90177" lon="6.71677">
        <ele>2274.02</ele>
        <time>2022-11-30T11:04:31Z</time>
      </trkpt>
      <trkpt lat="44.90174" lon="6.71674">
        <ele>2277.82</ele>
        <time>2022-11-30T11:04:40Z</time>
      </trkpt>
      <trkpt lat="44.90168" lon="6.71672">
        <ele>2279.37</ele>
        <time>2022-11-30T11:04:50Z</time>
      </trkpt>
      <trkpt lat="44.90163" lon="6.7167">
        <ele>2284.35</ele>
        <time>2022-11-30T11:05:00Z</time>
      </trkpt>
      <trkpt lat="44.90158" lon="6.71667">
        <ele>2282.68</ele>
        <time>2022-11-30T11:05:09Z</time>
      </trkpt>
      <trkpt lat="44.90154" lon="6.71665">
        <ele>2287.9</ele>
        <time>2022-11-30T11:05:19Z</time>
      </trkpt>
      <trkpt lat="44.90149" lon="6.71661">
        <ele>2288.02</ele>
        <time>2022-11-30T11:05:28Z</time>
      </trkpt>
      <trkpt lat="44.90144" lon="6.71657">
        <ele>2288.63</ele>
        <time>2022-11-30T11:05:38Z</time>
      </trkpt>
      <trkpt lat="44.90137" lon="6.71653">
        <ele>2288.5</ele>
        <time>2022-11-30T11:05:48Z</time>
      </trkpt>
      <trkpt lat="44.90129" lon="6.71648">
        <ele>2286.17</ele>
        <time>2022-11-30T11:05:57Z</time>
      </trkpt>
      <trkpt lat="44.90123" lon="6.71645">
        <ele>2284.42</ele>
        <time>2022-11-30T11:06:08Z</time>
      </trkpt>
      <trkpt lat="44.90118" lon="6.71641">
        <ele>2287.67</ele>
        <time>2022-11-30T11:06:18Z</time>
      </trkpt>
      <trkpt lat="44.90112" lon="6.71637">
        <ele>2276.98</ele>
        <time>2022-11-30T11:06:28Z</time>
      </trkpt>
      <trkpt lat="44.90103" lon="6.71631">
        <ele>2280.44</ele>
        <time>2022-11-30T11:06:37Z</time>
      </trkpt>
      <trkpt lat="44.901" lon="6.71629">
        <ele>2275.98</ele>
        <time>2022-11-30T11:06:47Z</time>
      </trkpt>
      <trkpt lat="44.90099" lon="6.71626">
        <ele>2273.92</ele>
        <time>2022-11-30T11:06:57Z</time>
      </trkpt>
      <trkpt lat="44.901" lon="6.71626">
        <ele>2285.69</ele>
        <time>2022-11-30T11:07:13Z</time>
      </trkpt>
      <trkpt lat="44.90101" lon="6.71626">
        <ele>2300.65</ele>
        <time>2022-11-30T11:08:39Z</time>
      </trkpt>
      <trkpt lat="44.90102" lon="6.71626">
        <ele>2260.69</ele>
        <time>2022-11-30T11:10:25Z</time>
      </trkpt>
      <trkpt lat="44.90099" lon="6.71624">
        <ele>2222.23</ele>
        <time>2022-11-30T11:10:35Z</time>
      </trkpt>
      <trkpt lat="44.90091" lon="6.71617">
        <ele>2248.18</ele>
        <time>2022-11-30T11:10:45Z</time>
      </trkpt>
      <trkpt lat="44.90083" lon="6.71612">
        <ele>2208.98</ele>
        <time>2022-11-30T11:10:54Z</time>
      </trkpt>
      <trkpt lat="44.90081" lon="6.71605">
        <ele>2223.45</ele>
        <time>2022-11-30T11:11:04Z</time>
      </trkpt>
      <trkpt lat="44.90079" lon="6.71598">
        <ele>2251.73</ele>
        <time>2022-11-30T11:11:13Z</time>
      </trkpt>
      <trkpt lat="44.90071" lon="6.71598">
        <ele>2305.04</ele>
        <time>2022-11-30T11:11:23Z</time>
      </trkpt>
      <trkpt lat="44.90063" lon="6.71587">
        <ele>2303.56</ele>
        <time>2022-11-30T11:11:32Z</time>
      </trkpt>
      <trkpt lat="44.90061" lon="6.71582">
        <ele>2302.73</ele>
        <time>2022-11-30T11:11:41Z</time>
      </trkpt>
      <trkpt lat="44.90057" lon="6.71578">
        <ele>2301.29</ele>
        <time>2022-11-30T11:11:52Z</time>
      </trkpt>
      <trkpt lat="44.90053" lon="6.71572">
        <ele>2299.9</ele>
        <time>2022-11-30T11:12:02Z</time>
      </trkpt>
      <trkpt lat="44.90051" lon="6.71567">
        <ele>2305.48</ele>
        <time>2022-11-30T11:12:11Z</time>
      </trkpt>
      <trkpt lat="44.90047" lon="6.7156">
        <ele>2304.72</ele>
        <time>2022-11-30T11:12:21Z</time>
      </trkpt>
      <trkpt lat="44.90041" lon="6.71557">
        <ele>2305.09</ele>
        <time>2022-11-30T11:12:31Z</time>
      </trkpt>
      <trkpt lat="44.90034" lon="6.71561">
        <ele>2301.7</ele>
        <time>2022-11-30T11:12:42Z</time>
      </trkpt>
      <trkpt lat="44.90029" lon="6.71562">
        <ele>2302.84</ele>
        <time>2022-11-30T11:12:52Z</time>
      </trkpt>
      <trkpt lat="44.90024" lon="6.71565">
        <ele>2308.83</ele>
        <time>2022-11-30T11:13:02Z</time>
      </trkpt>
      <trkpt lat="44.90021" lon="6.71566">
        <ele>2259.75</ele>
        <time>2022-11-30T11:13:13Z</time>
      </trkpt>
      <trkpt lat="44.90015" lon="6.71567">
        <ele>2252.3</ele>
        <time>2022-11-30T11:13:22Z</time>
      </trkpt>
      <trkpt lat="44.9001" lon="6.71569">
        <ele>2252.9</ele>
        <time>2022-11-30T11:13:32Z</time>
      </trkpt>
      <trkpt lat="44.90006" lon="6.71571">
        <ele>2211.52</ele>
        <time>2022-11-30T11:13:42Z</time>
      </trkpt>
      <trkpt lat="44.90003" lon="6.71573">
        <ele>2253.61</ele>
        <time>2022-11-30T11:13:51Z</time>
      </trkpt>
      <trkpt lat="44.9" lon="6.71575">
        <ele>2254.35</ele>
        <time>2022-11-30T11:14:01Z</time>
      </trkpt>
      <trkpt lat="44.89996" lon="6.71576">
        <ele>2255.62</ele>
        <time>2022-11-30T11:14:12Z</time>
      </trkpt>
      <trkpt lat="44.89992" lon="6.71577">
        <ele>2217.51</ele>
        <time>2022-11-30T11:14:22Z</time>
      </trkpt>
      <trkpt lat="44.89988" lon="6.71579">
        <ele>2252.92</ele>
        <time>2022-11-30T11:14:32Z</time>
      </trkpt>
      <trkpt lat="44.89983" lon="6.71581">
        <ele>2215.15</ele>
        <time>2022-11-30T11:14:43Z</time>
      </trkpt>
      <trkpt lat="44.89978" lon="6.71582">
        <ele>2238.88</ele>
        <time>2022-11-30T11:14:52Z</time>
      </trkpt>
      <trkpt lat="44.89974" lon="6.71584">
        <ele>2212.96</ele>
        <time>2022-11-30T11:15:02Z</time>
      </trkpt>
      <trkpt lat="44.8997" lon="6.71585">
        <ele>2213.21</ele>
        <time>2022-11-30T11:15:11Z</time>
      </trkpt>
      <trkpt lat="44.89966" lon="6.71587">
        <ele>2213.74</ele>
        <time>2022-11-30T11:15:22Z</time>
      </trkpt>
      <trkpt lat="44.8996" lon="6.7159">
        <ele>2255.31</ele>
        <time>2022-11-30T11:15:32Z</time>
      </trkpt>
      <trkpt lat="44.89958" lon="6.71595">
        <ele>2259.25</ele>
        <time>2022-11-30T11:15:42Z</time>
      </trkpt>
      <trkpt lat="44.89957" lon="6.71597">
        <ele>2219.1</ele>
        <time>2022-11-30T11:15:52Z</time>
      </trkpt>
      <trkpt lat="44.89953" lon="6.71597">
        <ele>2257.31</ele>
        <time>2022-11-30T11:16:02Z</time>
      </trkpt>
      <trkpt lat="44.89949" lon="6.71595">
        <ele>2213.99</ele>
        <time>2022-11-30T11:16:12Z</time>
      </trkpt>
      <trkpt lat="44.89947" lon="6.7159">
        <ele>2212.29</ele>
        <time>2022-11-30T11:16:21Z</time>
      </trkpt>
      <trkpt lat="44.89947" lon="6.71583">
        <ele>2210.81</ele>
        <time>2022-11-30T11:16:32Z</time>
      </trkpt>
      <trkpt lat="44.89947" lon="6.7158">
        <ele>2211.17</ele>
        <time>2022-11-30T11:16:42Z</time>
      </trkpt>
      <trkpt lat="44.89947" lon="6.71577">
        <ele>2212.05</ele>
        <time>2022-11-30T11:16:52Z</time>
      </trkpt>
      <trkpt lat="44.89947" lon="6.71571">
        <ele>2257.23</ele>
        <time>2022-11-30T11:17:02Z</time>
      </trkpt>
      <trkpt lat="44.89944" lon="6.71571">
        <ele>2259.78</ele>
        <time>2022-11-30T11:17:11Z</time>
      </trkpt>
      <trkpt lat="44.89941" lon="6.71569">
        <ele>2255.44</ele>
        <time>2022-11-30T11:17:21Z</time>
      </trkpt>
      <trkpt lat="44.89938" lon="6.71569">
        <ele>2262.51</ele>
        <time>2022-11-30T11:17:32Z</time>
      </trkpt>
      <trkpt lat="44.89935" lon="6.71567">
        <ele>2217.8</ele>
        <time>2022-11-30T11:17:42Z</time>
      </trkpt>
      <trkpt lat="44.89937" lon="6.71562">
        <ele>2261.92</ele>
        <time>2022-11-30T11:17:51Z</time>
      </trkpt>
      <trkpt lat="44.89939" lon="6.71561">
        <ele>2264.33</ele>
        <time>2022-11-30T11:18:01Z</time>
      </trkpt>
      <trkpt lat="44.8994" lon="6.71555">
        <ele>2265.85</ele>
        <time>2022-11-30T11:18:12Z</time>
      </trkpt>
      <trkpt lat="44.89939" lon="6.71549">
        <ele>2265.32</ele>
        <time>2022-11-30T11:18:21Z</time>
      </trkpt>
      <trkpt lat="44.89939" lon="6.71544">
        <ele>2219.87</ele>
        <time>2022-11-30T11:18:32Z</time>
      </trkpt>
      <trkpt lat="44.89937" lon="6.7154">
        <ele>2218.34</ele>
        <time>2022-11-30T11:18:42Z</time>
      </trkpt>
      <trkpt lat="44.89933" lon="6.7154">
        <ele>2217.43</ele>
        <time>2022-11-30T11:18:51Z</time>
      </trkpt>
      <trkpt lat="44.8993" lon="6.71538">
        <ele>2220.02</ele>
        <time>2022-11-30T11:19:01Z</time>
      </trkpt>
      <trkpt lat="44.89927" lon="6.71534">
        <ele>2220.75</ele>
        <time>2022-11-30T11:19:11Z</time>
      </trkpt>
      <trkpt lat="44.89925" lon="6.7153">
        <ele>2220.56</ele>
        <time>2022-11-30T11:19:20Z</time>
      </trkpt>
      <trkpt lat="44.89923" lon="6.71527">
        <ele>2221.38</ele>
        <time>2022-11-30T11:19:29Z</time>
      </trkpt>
      <trkpt lat="44.89919" lon="6.71522">
        <ele>2221.46</ele>
        <time>2022-11-30T11:19:41Z</time>
      </trkpt>
      <trkpt lat="44.89915" lon="6.71519">
        <ele>2263</ele>
        <time>2022-11-30T11:19:51Z</time>
      </trkpt>
      <trkpt lat="44.89912" lon="6.71515">
        <ele>2269.27</ele>
        <time>2022-11-30T11:20:01Z</time>
      </trkpt>
      <trkpt lat="44.89908" lon="6.71513">
        <ele>2211.99</ele>
        <time>2022-11-30T11:20:10Z</time>
      </trkpt>
      <trkpt lat="44.89906" lon="6.71512">
        <ele>2224.74</ele>
        <time>2022-11-30T11:20:23Z</time>
      </trkpt>
      <trkpt lat="44.89904" lon="6.71508">
        <ele>2270.47</ele>
        <time>2022-11-30T11:20:32Z</time>
      </trkpt>
      <trkpt lat="44.899" lon="6.71505">
        <ele>2264.1</ele>
        <time>2022-11-30T11:20:42Z</time>
      </trkpt>
      <trkpt lat="44.89896" lon="6.71501">
        <ele>2271.65</ele>
        <time>2022-11-30T11:20:51Z</time>
      </trkpt>
      <trkpt lat="44.89893" lon="6.71498">
        <ele>2272.25</ele>
        <time>2022-11-30T11:21:01Z</time>
      </trkpt>
      <trkpt lat="44.89891" lon="6.715">
        <ele>2243.67</ele>
        <time>2022-11-30T11:21:11Z</time>
      </trkpt>
      <trkpt lat="44.89889" lon="6.715">
        <ele>2227.16</ele>
        <time>2022-11-30T11:21:20Z</time>
      </trkpt>
      <trkpt lat="44.89887" lon="6.715">
        <ele>2276.8</ele>
        <time>2022-11-30T11:21:29Z</time>
      </trkpt>
      <trkpt lat="44.89887" lon="6.71502">
        <ele>2224.72</ele>
        <time>2022-11-30T11:21:39Z</time>
      </trkpt>
      <trkpt lat="44.89887" lon="6.71503">
        <ele>2190.85</ele>
        <time>2022-11-30T11:22:49Z</time>
      </trkpt>
      <trkpt lat="44.89888" lon="6.71504">
        <ele>2238.34</ele>
        <time>2022-11-30T11:23:49Z</time>
      </trkpt>
      <trkpt lat="44.89888" lon="6.71505">
        <ele>2226.03</ele>
        <time>2022-11-30T11:24:21Z</time>
      </trkpt>
      <trkpt lat="44.89887" lon="6.71507">
        <ele>2275.29</ele>
        <time>2022-11-30T11:24:32Z</time>
      </trkpt>
      <trkpt lat="44.89885" lon="6.71507">
        <ele>2240.26</ele>
        <time>2022-11-30T11:24:50Z</time>
      </trkpt>
      <trkpt lat="44.8988" lon="6.71508">
        <ele>2205.24</ele>
        <time>2022-11-30T11:25:00Z</time>
      </trkpt>
      <trkpt lat="44.8988" lon="6.71507">
        <ele>2221.58</ele>
        <time>2022-11-30T11:25:13Z</time>
      </trkpt>
      <trkpt lat="44.89876" lon="6.71502">
        <ele>2270.11</ele>
        <time>2022-11-30T11:25:23Z</time>
      </trkpt>
      <trkpt lat="44.89877" lon="6.71495">
        <ele>2278.65</ele>
        <time>2022-11-30T11:25:33Z</time>
      </trkpt>
      <trkpt lat="44.89878" lon="6.71486">
        <ele>2230.48</ele>
        <time>2022-11-30T11:25:43Z</time>
      </trkpt>
      <trkpt lat="44.89876" lon="6.71477">
        <ele>2233.95</ele>
        <time>2022-11-30T11:25:53Z</time>
      </trkpt>
      <trkpt lat="44.89876" lon="6.7147">
        <ele>2277.44</ele>
        <time>2022-11-30T11:26:03Z</time>
      </trkpt>
      <trkpt lat="44.89875" lon="6.71463">
        <ele>2256.26</ele>
        <time>2022-11-30T11:26:13Z</time>
      </trkpt>
      <trkpt lat="44.89871" lon="6.71464">
        <ele>2251.52</ele>
        <time>2022-11-30T11:26:23Z</time>
      </trkpt>
      <trkpt lat="44.89868" lon="6.71463">
        <ele>2283.18</ele>
        <time>2022-11-30T11:26:33Z</time>
      </trkpt>
      <trkpt lat="44.89866" lon="6.7147">
        <ele>2253.88</ele>
        <time>2022-11-30T11:26:43Z</time>
      </trkpt>
      <trkpt lat="44.89863" lon="6.71474">
        <ele>2285.49</ele>
        <time>2022-11-30T11:26:53Z</time>
      </trkpt>
      <trkpt lat="44.8986" lon="6.71476">
        <ele>2236.75</ele>
        <time>2022-11-30T11:27:03Z</time>
      </trkpt>
      <trkpt lat="44.89857" lon="6.71475">
        <ele>2237.02</ele>
        <time>2022-11-30T11:27:13Z</time>
      </trkpt>
      <trkpt lat="44.89853" lon="6.71471">
        <ele>2236.01</ele>
        <time>2022-11-30T11:27:23Z</time>
      </trkpt>
      <trkpt lat="44.8985" lon="6.71469">
        <ele>2250.18</ele>
        <time>2022-11-30T11:27:33Z</time>
      </trkpt>
      <trkpt lat="44.89847" lon="6.71467">
        <ele>2256.03</ele>
        <time>2022-11-30T11:27:43Z</time>
      </trkpt>
      <trkpt lat="44.89844" lon="6.71467">
        <ele>2279.07</ele>
        <time>2022-11-30T11:27:53Z</time>
      </trkpt>
      <trkpt lat="44.8984" lon="6.71468">
        <ele>2289.97</ele>
        <time>2022-11-30T11:28:03Z</time>
      </trkpt>
      <trkpt lat="44.89837" lon="6.71467">
        <ele>2290.91</ele>
        <time>2022-11-30T11:28:12Z</time>
      </trkpt>
      <trkpt lat="44.89834" lon="6.71467">
        <ele>2242.04</ele>
        <time>2022-11-30T11:28:22Z</time>
      </trkpt>
      <trkpt lat="44.89829" lon="6.71465">
        <ele>2271.86</ele>
        <time>2022-11-30T11:28:33Z</time>
      </trkpt>
      <trkpt lat="44.89825" lon="6.71464">
        <ele>2241.53</ele>
        <time>2022-11-30T11:28:43Z</time>
      </trkpt>
      <trkpt lat="44.89822" lon="6.71462">
        <ele>2288.74</ele>
        <time>2022-11-30T11:28:52Z</time>
      </trkpt>
      <trkpt lat="44.89818" lon="6.7146">
        <ele>2293.41</ele>
        <time>2022-11-30T11:29:02Z</time>
      </trkpt>
      <trkpt lat="44.89813" lon="6.71455">
        <ele>2278.26</ele>
        <time>2022-11-30T11:29:11Z</time>
      </trkpt>
      <trkpt lat="44.8981" lon="6.71453">
        <ele>2291.79</ele>
        <time>2022-11-30T11:29:21Z</time>
      </trkpt>
      <trkpt lat="44.89808" lon="6.71449">
        <ele>2271.38</ele>
        <time>2022-11-30T11:29:32Z</time>
      </trkpt>
      <trkpt lat="44.89806" lon="6.71445">
        <ele>2241.38</ele>
        <time>2022-11-30T11:29:41Z</time>
      </trkpt>
      <trkpt lat="44.89805" lon="6.71442">
        <ele>2241.55</ele>
        <time>2022-11-30T11:29:52Z</time>
      </trkpt>
      <trkpt lat="44.89801" lon="6.71444">
        <ele>2242.1</ele>
        <time>2022-11-30T11:30:02Z</time>
      </trkpt>
      <trkpt lat="44.89799" lon="6.71445">
        <ele>2244.01</ele>
        <time>2022-11-30T11:30:12Z</time>
      </trkpt>
      <trkpt lat="44.89795" lon="6.71443">
        <ele>2244.24</ele>
        <time>2022-11-30T11:30:21Z</time>
      </trkpt>
      <trkpt lat="44.89793" lon="6.71438">
        <ele>2265.07</ele>
        <time>2022-11-30T11:30:31Z</time>
      </trkpt>
      <trkpt lat="44.89794" lon="6.71436">
        <ele>2251.02</ele>
        <time>2022-11-30T11:30:46Z</time>
      </trkpt>
      <trkpt lat="44.89793" lon="6.7143">
        <ele>2297.63</ele>
        <time>2022-11-30T11:30:56Z</time>
      </trkpt>
      <trkpt lat="44.89791" lon="6.71424">
        <ele>2300.35</ele>
        <time>2022-11-30T11:31:06Z</time>
      </trkpt>
      <trkpt lat="44.89789" lon="6.71417">
        <ele>2247.7</ele>
        <time>2022-11-30T11:31:15Z</time>
      </trkpt>
      <trkpt lat="44.89789" lon="6.71413">
        <ele>2301.79</ele>
        <time>2022-11-30T11:31:25Z</time>
      </trkpt>
      <trkpt lat="44.89788" lon="6.71407">
        <ele>2303.1</ele>
        <time>2022-11-30T11:31:35Z</time>
      </trkpt>
      <trkpt lat="44.89787" lon="6.71401">
        <ele>2285.29</ele>
        <time>2022-11-30T11:31:46Z</time>
      </trkpt>
      <trkpt lat="44.89786" lon="6.71395">
        <ele>2305.26</ele>
        <time>2022-11-30T11:31:57Z</time>
      </trkpt>
      <trkpt lat="44.89785" lon="6.71389">
        <ele>2306.68</ele>
        <time>2022-11-30T11:32:06Z</time>
      </trkpt>
      <trkpt lat="44.89784" lon="6.71386">
        <ele>2254.22</ele>
        <time>2022-11-30T11:32:15Z</time>
      </trkpt>
      <trkpt lat="44.89781" lon="6.71383">
        <ele>2308.34</ele>
        <time>2022-11-30T11:32:26Z</time>
      </trkpt>
      <trkpt lat="44.89777" lon="6.71378">
        <ele>2309.61</ele>
        <time>2022-11-30T11:32:37Z</time>
      </trkpt>
      <trkpt lat="44.89776" lon="6.71373">
        <ele>2257.75</ele>
        <time>2022-11-30T11:32:46Z</time>
      </trkpt>
      <trkpt lat="44.89775" lon="6.71372">
        <ele>2254.63</ele>
        <time>2022-11-30T11:32:57Z</time>
      </trkpt>
      <trkpt lat="44.89772" lon="6.71366">
        <ele>2275.76</ele>
        <time>2022-11-30T11:33:08Z</time>
      </trkpt>
      <trkpt lat="44.89769" lon="6.71359">
        <ele>2256.47</ele>
        <time>2022-11-30T11:33:18Z</time>
      </trkpt>
      <trkpt lat="44.89768" lon="6.71352">
        <ele>2276.85</ele>
        <time>2022-11-30T11:33:28Z</time>
      </trkpt>
      <trkpt lat="44.89767" lon="6.71346">
        <ele>2289.37</ele>
        <time>2022-11-30T11:33:39Z</time>
      </trkpt>
      <trkpt lat="44.89767" lon="6.71343">
        <ele>2256.87</ele>
        <time>2022-11-30T11:33:49Z</time>
      </trkpt>
      <trkpt lat="44.89766" lon="6.71339">
        <ele>2257.1</ele>
        <time>2022-11-30T11:33:59Z</time>
      </trkpt>
      <trkpt lat="44.89767" lon="6.71334">
        <ele>2258.11</ele>
        <time>2022-11-30T11:34:10Z</time>
      </trkpt>
      <trkpt lat="44.89767" lon="6.71331">
        <ele>2259.72</ele>
        <time>2022-11-30T11:34:20Z</time>
      </trkpt>
      <trkpt lat="44.89767" lon="6.71324">
        <ele>2312.66</ele>
        <time>2022-11-30T11:34:29Z</time>
      </trkpt>
      <trkpt lat="44.89768" lon="6.71319">
        <ele>2315.92</ele>
        <time>2022-11-30T11:34:39Z</time>
      </trkpt>
      <trkpt lat="44.89769" lon="6.71314">
        <ele>2316.57</ele>
        <time>2022-11-30T11:34:49Z</time>
      </trkpt>
      <trkpt lat="44.89768" lon="6.71308">
        <ele>2316.45</ele>
        <time>2022-11-30T11:34:58Z</time>
      </trkpt>
      <trkpt lat="44.89767" lon="6.71302">
        <ele>2304.24</ele>
        <time>2022-11-30T11:35:09Z</time>
      </trkpt>
      <trkpt lat="44.89767" lon="6.71296">
        <ele>2260.91</ele>
        <time>2022-11-30T11:35:18Z</time>
      </trkpt>
      <trkpt lat="44.89767" lon="6.71291">
        <ele>2263.58</ele>
        <time>2022-11-30T11:35:28Z</time>
      </trkpt>
      <trkpt lat="44.89766" lon="6.71289">
        <ele>2315.7</ele>
        <time>2022-11-30T11:35:38Z</time>
      </trkpt>
      <trkpt lat="44.89765" lon="6.71284">
        <ele>2286.85</ele>
        <time>2022-11-30T11:35:48Z</time>
      </trkpt>
      <trkpt lat="44.89766" lon="6.71279">
        <ele>2320.02</ele>
        <time>2022-11-30T11:35:58Z</time>
      </trkpt>
      <trkpt lat="44.89765" lon="6.71276">
        <ele>2286.96</ele>
        <time>2022-11-30T11:36:08Z</time>
      </trkpt>
      <trkpt lat="44.89764" lon="6.71272">
        <ele>2322.95</ele>
        <time>2022-11-30T11:36:17Z</time>
      </trkpt>
      <trkpt lat="44.89761" lon="6.71271">
        <ele>2279.42</ele>
        <time>2022-11-30T11:36:27Z</time>
      </trkpt>
      <trkpt lat="44.89762" lon="6.71278">
        <ele>2322.73</ele>
        <time>2022-11-30T11:36:36Z</time>
      </trkpt>
      <trkpt lat="44.8976" lon="6.71283">
        <ele>2267.66</ele>
        <time>2022-11-30T11:36:46Z</time>
      </trkpt>
      <trkpt lat="44.89758" lon="6.71288">
        <ele>2288.63</ele>
        <time>2022-11-30T11:36:56Z</time>
      </trkpt>
      <trkpt lat="44.89756" lon="6.71293">
        <ele>2314.08</ele>
        <time>2022-11-30T11:37:06Z</time>
      </trkpt>
      <trkpt lat="44.89754" lon="6.71296">
        <ele>2326.76</ele>
        <time>2022-11-30T11:37:16Z</time>
      </trkpt>
      <trkpt lat="44.8975" lon="6.71302">
        <ele>2326.88</ele>
        <time>2022-11-30T11:37:26Z</time>
      </trkpt>
      <trkpt lat="44.89748" lon="6.71306">
        <ele>2326.73</ele>
        <time>2022-11-30T11:37:37Z</time>
      </trkpt>
      <trkpt lat="44.89745" lon="6.71309">
        <ele>2326.88</ele>
        <time>2022-11-30T11:37:46Z</time>
      </trkpt>
      <trkpt lat="44.89743" lon="6.71311">
        <ele>2327.94</ele>
        <time>2022-11-30T11:37:56Z</time>
      </trkpt>
      <trkpt lat="44.8974" lon="6.71313">
        <ele>2275.38</ele>
        <time>2022-11-30T11:38:05Z</time>
      </trkpt>
      <trkpt lat="44.89739" lon="6.71312">
        <ele>2322.13</ele>
        <time>2022-11-30T11:38:15Z</time>
      </trkpt>
      <trkpt lat="44.89742" lon="6.71304">
        <ele>2272</ele>
        <time>2022-11-30T11:38:25Z</time>
      </trkpt>
      <trkpt lat="44.89742" lon="6.71299">
        <ele>2296.8</ele>
        <time>2022-11-30T11:38:35Z</time>
      </trkpt>
      <trkpt lat="44.8974" lon="6.71295">
        <ele>2308.91</ele>
        <time>2022-11-30T11:38:45Z</time>
      </trkpt>
      <trkpt lat="44.89739" lon="6.71293">
        <ele>2275.2</ele>
        <time>2022-11-30T11:38:54Z</time>
      </trkpt>
      <trkpt lat="44.89737" lon="6.7129">
        <ele>2312.77</ele>
        <time>2022-11-30T11:39:04Z</time>
      </trkpt>
      <trkpt lat="44.89736" lon="6.71289">
        <ele>2277.24</ele>
        <time>2022-11-30T11:39:14Z</time>
      </trkpt>
      <trkpt lat="44.89735" lon="6.71285">
        <ele>2275.75</ele>
        <time>2022-11-30T11:39:23Z</time>
      </trkpt>
      <trkpt lat="44.89733" lon="6.7128">
        <ele>2311.28</ele>
        <time>2022-11-30T11:39:34Z</time>
      </trkpt>
      <trkpt lat="44.89729" lon="6.71279">
        <ele>2276.33</ele>
        <time>2022-11-30T11:39:44Z</time>
      </trkpt>
      <trkpt lat="44.89725" lon="6.71278">
        <ele>2333.49</ele>
        <time>2022-11-30T11:39:53Z</time>
      </trkpt>
      <trkpt lat="44.89722" lon="6.71276">
        <ele>2337</ele>
        <time>2022-11-30T11:40:03Z</time>
      </trkpt>
      <trkpt lat="44.89719" lon="6.71275">
        <ele>2337.86</ele>
        <time>2022-11-30T11:40:13Z</time>
      </trkpt>
      <trkpt lat="44.89715" lon="6.71273">
        <ele>2279.08</ele>
        <time>2022-11-30T11:40:23Z</time>
      </trkpt>
      <trkpt lat="44.89713" lon="6.71272">
        <ele>2303.85</ele>
        <time>2022-11-30T11:40:33Z</time>
      </trkpt>
      <trkpt lat="44.8971" lon="6.71275">
        <ele>2340.28</ele>
        <time>2022-11-30T11:40:43Z</time>
      </trkpt>
      <trkpt lat="44.89706" lon="6.71277">
        <ele>2340.48</ele>
        <time>2022-11-30T11:40:53Z</time>
      </trkpt>
      <trkpt lat="44.89704" lon="6.71281">
        <ele>2339.36</ele>
        <time>2022-11-30T11:41:03Z</time>
      </trkpt>
      <trkpt lat="44.89702" lon="6.71286">
        <ele>2280.58</ele>
        <time>2022-11-30T11:41:13Z</time>
      </trkpt>
      <trkpt lat="44.89702" lon="6.71289">
        <ele>2336.93</ele>
        <time>2022-11-30T11:41:23Z</time>
      </trkpt>
      <trkpt lat="44.89701" lon="6.71291">
        <ele>2332.95</ele>
        <time>2022-11-30T11:41:33Z</time>
      </trkpt>
      <trkpt lat="44.897" lon="6.71294">
        <ele>2281.42</ele>
        <time>2022-11-30T11:41:44Z</time>
      </trkpt>
      <trkpt lat="44.89697" lon="6.71296">
        <ele>2340.2</ele>
        <time>2022-11-30T11:41:54Z</time>
      </trkpt>
      <trkpt lat="44.89693" lon="6.71298">
        <ele>2285.39</ele>
        <time>2022-11-30T11:42:04Z</time>
      </trkpt>
      <trkpt lat="44.89691" lon="6.71301">
        <ele>2283.52</ele>
        <time>2022-11-30T11:42:14Z</time>
      </trkpt>
      <trkpt lat="44.89687" lon="6.71301">
        <ele>2344.4</ele>
        <time>2022-11-30T11:42:23Z</time>
      </trkpt>
      <trkpt lat="44.89683" lon="6.71302">
        <ele>2345.2</ele>
        <time>2022-11-30T11:42:32Z</time>
      </trkpt>
      <trkpt lat="44.8968" lon="6.71303">
        <ele>2346.44</ele>
        <time>2022-11-30T11:42:42Z</time>
      </trkpt>
      <trkpt lat="44.89676" lon="6.71306">
        <ele>2340.97</ele>
        <time>2022-11-30T11:42:52Z</time>
      </trkpt>
      <trkpt lat="44.89672" lon="6.71308">
        <ele>2291.12</ele>
        <time>2022-11-30T11:43:02Z</time>
      </trkpt>
      <trkpt lat="44.89669" lon="6.7131">
        <ele>2348.12</ele>
        <time>2022-11-30T11:43:11Z</time>
      </trkpt>
      <trkpt lat="44.89665" lon="6.71311">
        <ele>2286.93</ele>
        <time>2022-11-30T11:43:21Z</time>
      </trkpt>
      <trkpt lat="44.89661" lon="6.71315">
        <ele>2308.6</ele>
        <time>2022-11-30T11:43:31Z</time>
      </trkpt>
      <trkpt lat="44.89657" lon="6.71316">
        <ele>2340.75</ele>
        <time>2022-11-30T11:43:41Z</time>
      </trkpt>
      <trkpt lat="44.89645" lon="6.7132">
        <ele>2346</ele>
        <time>2022-11-30T11:43:50Z</time>
      </trkpt>
      <trkpt lat="44.89641" lon="6.71324">
        <ele>2379.93</ele>
        <time>2022-11-30T11:44:00Z</time>
      </trkpt>
      <trkpt lat="44.89635" lon="6.71322">
        <ele>2380.72</ele>
        <time>2022-11-30T11:44:09Z</time>
      </trkpt>
      <trkpt lat="44.8963" lon="6.71319">
        <ele>2380.69</ele>
        <time>2022-11-30T11:44:19Z</time>
      </trkpt>
      <trkpt lat="44.89625" lon="6.71313">
        <ele>2400.72</ele>
        <time>2022-11-30T11:44:29Z</time>
      </trkpt>
      <trkpt lat="44.89622" lon="6.71309">
        <ele>2307.42</ele>
        <time>2022-11-30T11:44:39Z</time>
      </trkpt>
      <trkpt lat="44.89619" lon="6.71304">
        <ele>2286.51</ele>
        <time>2022-11-30T11:44:49Z</time>
      </trkpt>
      <trkpt lat="44.89615" lon="6.71302">
        <ele>2287.12</ele>
        <time>2022-11-30T11:44:59Z</time>
      </trkpt>
      <trkpt lat="44.89611" lon="6.713">
        <ele>2287.4</ele>
        <time>2022-11-30T11:45:09Z</time>
      </trkpt>
      <trkpt lat="44.89606" lon="6.71299">
        <ele>2287.7</ele>
        <time>2022-11-30T11:45:18Z</time>
      </trkpt>
      <trkpt lat="44.89601" lon="6.71299">
        <ele>2328.65</ele>
        <time>2022-11-30T11:45:27Z</time>
      </trkpt>
      <trkpt lat="44.896" lon="6.71303">
        <ele>2351.79</ele>
        <time>2022-11-30T11:45:37Z</time>
      </trkpt>
      <trkpt lat="44.89599" lon="6.71309">
        <ele>2294.66</ele>
        <time>2022-11-30T11:45:47Z</time>
      </trkpt>
      <trkpt lat="44.89597" lon="6.71314">
        <ele>2289.81</ele>
        <time>2022-11-30T11:45:57Z</time>
      </trkpt>
      <trkpt lat="44.89597" lon="6.71319">
        <ele>2288.96</ele>
        <time>2022-11-30T11:46:07Z</time>
      </trkpt>
      <trkpt lat="44.89597" lon="6.71323">
        <ele>2293.01</ele>
        <time>2022-11-30T11:46:16Z</time>
      </trkpt>
      <trkpt lat="44.89597" lon="6.71327">
        <ele>2339.58</ele>
        <time>2022-11-30T11:46:26Z</time>
      </trkpt>
      <trkpt lat="44.89596" lon="6.71332">
        <ele>2352.64</ele>
        <time>2022-11-30T11:46:36Z</time>
      </trkpt>
      <trkpt lat="44.89596" lon="6.71335">
        <ele>2354.38</ele>
        <time>2022-11-30T11:46:46Z</time>
      </trkpt>
      <trkpt lat="44.89596" lon="6.71341">
        <ele>2293.59</ele>
        <time>2022-11-30T11:46:56Z</time>
      </trkpt>
      <trkpt lat="44.89595" lon="6.71346">
        <ele>2353.81</ele>
        <time>2022-11-30T11:47:06Z</time>
      </trkpt>
      <trkpt lat="44.89593" lon="6.71352">
        <ele>2330.37</ele>
        <time>2022-11-30T11:47:15Z</time>
      </trkpt>
      <trkpt lat="44.89593" lon="6.71355">
        <ele>2319.23</ele>
        <time>2022-11-30T11:47:25Z</time>
      </trkpt>
      <trkpt lat="44.89592" lon="6.71359">
        <ele>2296.49</ele>
        <time>2022-11-30T11:47:35Z</time>
      </trkpt>
      <trkpt lat="44.8959" lon="6.71365">
        <ele>2307.26</ele>
        <time>2022-11-30T11:47:46Z</time>
      </trkpt>
      <trkpt lat="44.89588" lon="6.71369">
        <ele>2294.09</ele>
        <time>2022-11-30T11:47:57Z</time>
      </trkpt>
      <trkpt lat="44.89587" lon="6.71374">
        <ele>2334.89</ele>
        <time>2022-11-30T11:48:07Z</time>
      </trkpt>
      <trkpt lat="44.89586" lon="6.7138">
        <ele>2299.72</ele>
        <time>2022-11-30T11:48:16Z</time>
      </trkpt>
      <trkpt lat="44.89585" lon="6.71385">
        <ele>2354.64</ele>
        <time>2022-11-30T11:48:26Z</time>
      </trkpt>
      <trkpt lat="44.89584" lon="6.71388">
        <ele>2334.58</ele>
        <time>2022-11-30T11:48:36Z</time>
      </trkpt>
      <trkpt lat="44.89582" lon="6.71391">
        <ele>2295.55</ele>
        <time>2022-11-30T11:48:46Z</time>
      </trkpt>
      <trkpt lat="44.89581" lon="6.71394">
        <ele>2361.39</ele>
        <time>2022-11-30T11:48:56Z</time>
      </trkpt>
      <trkpt lat="44.89579" lon="6.71397">
        <ele>2306.16</ele>
        <time>2022-11-30T11:49:06Z</time>
      </trkpt>
      <trkpt lat="44.89578" lon="6.71401">
        <ele>2362.7</ele>
        <time>2022-11-30T11:49:16Z</time>
      </trkpt>
      <trkpt lat="44.89576" lon="6.71407">
        <ele>2364.13</ele>
        <time>2022-11-30T11:49:26Z</time>
      </trkpt>
      <trkpt lat="44.89575" lon="6.71411">
        <ele>2364.79</ele>
        <time>2022-11-30T11:49:37Z</time>
      </trkpt>
      <trkpt lat="44.89573" lon="6.71415">
        <ele>2361.63</ele>
        <time>2022-11-30T11:49:47Z</time>
      </trkpt>
      <trkpt lat="44.8957" lon="6.71418">
        <ele>2354.49</ele>
        <time>2022-11-30T11:49:57Z</time>
      </trkpt>
      <trkpt lat="44.89568" lon="6.71422">
        <ele>2367.35</ele>
        <time>2022-11-30T11:50:07Z</time>
      </trkpt>
      <trkpt lat="44.89566" lon="6.71426">
        <ele>2368.08</ele>
        <time>2022-11-30T11:50:17Z</time>
      </trkpt>
      <trkpt lat="44.89563" lon="6.7143">
        <ele>2317.71</ele>
        <time>2022-11-30T11:50:28Z</time>
      </trkpt>
      <trkpt lat="44.89561" lon="6.71432">
        <ele>2303.91</ele>
        <time>2022-11-30T11:50:38Z</time>
      </trkpt>
      <trkpt lat="44.89559" lon="6.71434">
        <ele>2370.79</ele>
        <time>2022-11-30T11:50:48Z</time>
      </trkpt>
      <trkpt lat="44.89556" lon="6.71437">
        <ele>2371.12</ele>
        <time>2022-11-30T11:50:59Z</time>
      </trkpt>
      <trkpt lat="44.89553" lon="6.71441">
        <ele>2318.49</ele>
        <time>2022-11-30T11:51:09Z</time>
      </trkpt>
      <trkpt lat="44.8955" lon="6.71441">
        <ele>2312.86</ele>
        <time>2022-11-30T11:51:19Z</time>
      </trkpt>
      <trkpt lat="44.89545" lon="6.71442">
        <ele>2304.09</ele>
        <time>2022-11-30T11:51:30Z</time>
      </trkpt>
      <trkpt lat="44.89542" lon="6.71442">
        <ele>2370.62</ele>
        <time>2022-11-30T11:51:40Z</time>
      </trkpt>
      <trkpt lat="44.89539" lon="6.71442">
        <ele>2372.05</ele>
        <time>2022-11-30T11:51:50Z</time>
      </trkpt>
      <trkpt lat="44.89537" lon="6.71442">
        <ele>2307.3</ele>
        <time>2022-11-30T11:52:00Z</time>
      </trkpt>
      <trkpt lat="44.89534" lon="6.71443">
        <ele>2374.33</ele>
        <time>2022-11-30T11:52:10Z</time>
      </trkpt>
      <trkpt lat="44.89532" lon="6.71445">
        <ele>2317.65</ele>
        <time>2022-11-30T11:52:20Z</time>
      </trkpt>
      <trkpt lat="44.89529" lon="6.71446">
        <ele>2373.65</ele>
        <time>2022-11-30T11:52:30Z</time>
      </trkpt>
      <trkpt lat="44.89526" lon="6.71447">
        <ele>2315.57</ele>
        <time>2022-11-30T11:52:40Z</time>
      </trkpt>
      <trkpt lat="44.89523" lon="6.71449">
        <ele>2325.38</ele>
        <time>2022-11-30T11:52:50Z</time>
      </trkpt>
      <trkpt lat="44.89522" lon="6.7145">
        <ele>2375.13</ele>
        <time>2022-11-30T11:53:00Z</time>
      </trkpt>
      <trkpt lat="44.89518" lon="6.71451">
        <ele>2381.39</ele>
        <time>2022-11-30T11:53:10Z</time>
      </trkpt>
      <trkpt lat="44.89515" lon="6.71454">
        <ele>2336.58</ele>
        <time>2022-11-30T11:53:20Z</time>
      </trkpt>
      <trkpt lat="44.89511" lon="6.71455">
        <ele>2356.48</ele>
        <time>2022-11-30T11:53:30Z</time>
      </trkpt>
      <trkpt lat="44.89509" lon="6.71456">
        <ele>2316.74</ele>
        <time>2022-11-30T11:53:40Z</time>
      </trkpt>
      <trkpt lat="44.89507" lon="6.71457">
        <ele>2375.51</ele>
        <time>2022-11-30T11:53:50Z</time>
      </trkpt>
      <trkpt lat="44.89504" lon="6.71453">
        <ele>2380.83</ele>
        <time>2022-11-30T11:54:00Z</time>
      </trkpt>
      <trkpt lat="44.89502" lon="6.71449">
        <ele>2380.54</ele>
        <time>2022-11-30T11:54:09Z</time>
      </trkpt>
      <trkpt lat="44.895" lon="6.71445">
        <ele>2373.43</ele>
        <time>2022-11-30T11:54:18Z</time>
      </trkpt>
      <trkpt lat="44.89497" lon="6.71443">
        <ele>2381.92</ele>
        <time>2022-11-30T11:54:28Z</time>
      </trkpt>
      <trkpt lat="44.89494" lon="6.71438">
        <ele>2314.48</ele>
        <time>2022-11-30T11:54:39Z</time>
      </trkpt>
      <trkpt lat="44.89491" lon="6.71433">
        <ele>2338.85</ele>
        <time>2022-11-30T11:54:49Z</time>
      </trkpt>
      <trkpt lat="44.89487" lon="6.71431">
        <ele>2315.7</ele>
        <time>2022-11-30T11:54:58Z</time>
      </trkpt>
      <trkpt lat="44.89485" lon="6.71428">
        <ele>2315.54</ele>
        <time>2022-11-30T11:55:09Z</time>
      </trkpt>
      <trkpt lat="44.89482" lon="6.71425">
        <ele>2356.45</ele>
        <time>2022-11-30T11:55:19Z</time>
      </trkpt>
      <trkpt lat="44.89479" lon="6.71422">
        <ele>2358.53</ele>
        <time>2022-11-30T11:55:29Z</time>
      </trkpt>
      <trkpt lat="44.89477" lon="6.71421">
        <ele>2362.8</ele>
        <time>2022-11-30T11:55:39Z</time>
      </trkpt>
      <trkpt lat="44.89473" lon="6.71421">
        <ele>2387.9</ele>
        <time>2022-11-30T11:55:49Z</time>
      </trkpt>
      <trkpt lat="44.89469" lon="6.7142">
        <ele>2319.91</ele>
        <time>2022-11-30T11:55:59Z</time>
      </trkpt>
      <trkpt lat="44.89466" lon="6.71421">
        <ele>2343.62</ele>
        <time>2022-11-30T11:56:09Z</time>
      </trkpt>
      <trkpt lat="44.89463" lon="6.71421">
        <ele>2320.74</ele>
        <time>2022-11-30T11:56:18Z</time>
      </trkpt>
      <trkpt lat="44.8946" lon="6.71422">
        <ele>2387.46</ele>
        <time>2022-11-30T11:56:28Z</time>
      </trkpt>
      <trkpt lat="44.89457" lon="6.71423">
        <ele>2326.76</ele>
        <time>2022-11-30T11:56:37Z</time>
      </trkpt>
      <trkpt lat="44.89453" lon="6.71424">
        <ele>2375.87</ele>
        <time>2022-11-30T11:56:48Z</time>
      </trkpt>
      <trkpt lat="44.8945" lon="6.71424">
        <ele>2391.68</ele>
        <time>2022-11-30T11:56:57Z</time>
      </trkpt>
      <trkpt lat="44.89448" lon="6.71421">
        <ele>2391.95</ele>
        <time>2022-11-30T11:57:06Z</time>
      </trkpt>
      <trkpt lat="44.89447" lon="6.71417">
        <ele>2391.95</ele>
        <time>2022-11-30T11:57:16Z</time>
      </trkpt>
      <trkpt lat="44.89446" lon="6.71413">
        <ele>2324.43</ele>
        <time>2022-11-30T11:57:25Z</time>
      </trkpt>
      <trkpt lat="44.89445" lon="6.7141">
        <ele>2376.44</ele>
        <time>2022-11-30T11:57:35Z</time>
      </trkpt>
      <trkpt lat="44.89444" lon="6.71408">
        <ele>2356.35</ele>
        <time>2022-11-30T11:57:45Z</time>
      </trkpt>
      <trkpt lat="44.89443" lon="6.71405">
        <ele>2393.95</ele>
        <time>2022-11-30T11:57:55Z</time>
      </trkpt>
      <trkpt lat="44.89442" lon="6.714">
        <ele>2324.76</ele>
        <time>2022-11-30T11:58:05Z</time>
      </trkpt>
      <trkpt lat="44.89442" lon="6.71395">
        <ele>2323.06</ele>
        <time>2022-11-30T11:58:15Z</time>
      </trkpt>
      <trkpt lat="44.89438" lon="6.71398">
        <ele>2350.05</ele>
        <time>2022-11-30T11:58:26Z</time>
      </trkpt>
      <trkpt lat="44.89435" lon="6.71402">
        <ele>2378.24</ele>
        <time>2022-11-30T11:58:36Z</time>
      </trkpt>
      <trkpt lat="44.89435" lon="6.71401">
        <ele>2327.23</ele>
        <time>2022-11-30T11:58:50Z</time>
      </trkpt>
      <trkpt lat="44.89434" lon="6.71398">
        <ele>2388.17</ele>
        <time>2022-11-30T11:59:01Z</time>
      </trkpt>
      <trkpt lat="44.8943" lon="6.71396">
        <ele>2327.71</ele>
        <time>2022-11-30T11:59:11Z</time>
      </trkpt>
      <trkpt lat="44.89425" lon="6.71396">
        <ele>2326.94</ele>
        <time>2022-11-30T11:59:22Z</time>
      </trkpt>
      <trkpt lat="44.89424" lon="6.71396">
        <ele>2337.89</ele>
        <time>2022-11-30T11:59:32Z</time>
      </trkpt>
      <trkpt lat="44.89423" lon="6.71391">
        <ele>2328.87</ele>
        <time>2022-11-30T11:59:42Z</time>
      </trkpt>
      <trkpt lat="44.89425" lon="6.71393">
        <ele>2397.8</ele>
        <time>2022-11-30T11:59:51Z</time>
      </trkpt>
      <trkpt lat="44.89417" lon="6.71398">
        <ele>2330.31</ele>
        <time>2022-11-30T12:00:02Z</time>
      </trkpt>
      <trkpt lat="44.89412" lon="6.71402">
        <ele>2430.59</ele>
        <time>2022-11-30T12:00:11Z</time>
      </trkpt>
      <trkpt lat="44.89409" lon="6.71405">
        <ele>2384.7</ele>
        <time>2022-11-30T12:00:21Z</time>
      </trkpt>
      <trkpt lat="44.89404" lon="6.71409">
        <ele>2398.41</ele>
        <time>2022-11-30T12:00:30Z</time>
      </trkpt>
      <trkpt lat="44.894" lon="6.71404">
        <ele>2356.7</ele>
        <time>2022-11-30T12:00:40Z</time>
      </trkpt>
      <trkpt lat="44.89398" lon="6.71397">
        <ele>2453.91</ele>
        <time>2022-11-30T12:00:50Z</time>
      </trkpt>
      <trkpt lat="44.89394" lon="6.71394">
        <ele>2427.1</ele>
        <time>2022-11-30T12:01:00Z</time>
      </trkpt>
      <trkpt lat="44.89391" lon="6.71394">
        <ele>2458.8</ele>
        <time>2022-11-30T12:01:10Z</time>
      </trkpt>
      <trkpt lat="44.89385" lon="6.71394">
        <ele>2495.75</ele>
        <time>2022-11-30T12:01:20Z</time>
      </trkpt>
      <trkpt lat="44.89379" lon="6.71396">
        <ele>2493.1</ele>
        <time>2022-11-30T12:01:29Z</time>
      </trkpt>
      <trkpt lat="44.89375" lon="6.71395">
        <ele>2492.08</ele>
        <time>2022-11-30T12:01:39Z</time>
      </trkpt>
      <trkpt lat="44.89372" lon="6.71398">
        <ele>2491.98</ele>
        <time>2022-11-30T12:01:49Z</time>
      </trkpt>
      <trkpt lat="44.89369" lon="6.71401">
        <ele>2505.18</ele>
        <time>2022-11-30T12:01:59Z</time>
      </trkpt>
      <trkpt lat="44.89368" lon="6.71404">
        <ele>2436.53</ele>
        <time>2022-11-30T12:02:09Z</time>
      </trkpt>
      <trkpt lat="44.89368" lon="6.71413">
        <ele>2496.87</ele>
        <time>2022-11-30T12:02:19Z</time>
      </trkpt>
      <trkpt lat="44.89367" lon="6.71422">
        <ele>2482.89</ele>
        <time>2022-11-30T12:02:29Z</time>
      </trkpt>
      <trkpt lat="44.89368" lon="6.71417">
        <ele>2499.12</ele>
        <time>2022-11-30T12:02:38Z</time>
      </trkpt>
      <trkpt lat="44.8937" lon="6.71417">
        <ele>2499.99</ele>
        <time>2022-11-30T12:02:48Z</time>
      </trkpt>
      <trkpt lat="44.89373" lon="6.71422">
        <ele>2496.14</ele>
        <time>2022-11-30T12:02:58Z</time>
      </trkpt>
      <trkpt lat="44.89374" lon="6.7142">
        <ele>2496.01</ele>
        <time>2022-11-30T12:03:09Z</time>
      </trkpt>
      <trkpt lat="44.89373" lon="6.7142">
        <ele>2498.57</ele>
        <time>2022-11-30T12:03:30Z</time>
      </trkpt>
      <trkpt lat="44.89372" lon="6.7142">
        <ele>2499.1</ele>
        <time>2022-11-30T12:03:40Z</time>
      </trkpt>
      <trkpt lat="44.89373" lon="6.71419">
        <ele>2492.36</ele>
        <time>2022-11-30T12:03:54Z</time>
      </trkpt>
      <trkpt lat="44.89374" lon="6.71419">
        <ele>2459.43</ele>
        <time>2022-11-30T12:08:01Z</time>
      </trkpt>
      <trkpt lat="44.89373" lon="6.71419">
        <ele>2458.39</ele>
        <time>2022-11-30T12:08:26Z</time>
      </trkpt>
      <trkpt lat="44.89372" lon="6.71419">
        <ele>2460.47</ele>
        <time>2022-11-30T12:17:58Z</time>
      </trkpt>
      <trkpt lat="44.89373" lon="6.71418">
        <ele>2457.25</ele>
        <time>2022-11-30T12:26:38Z</time>
      </trkpt>
      <trkpt lat="44.89375" lon="6.71418">
        <ele>2428.39</ele>
        <time>2022-11-30T12:34:15Z</time>
      </trkpt>
      <trkpt lat="44.89374" lon="6.7142">
        <ele>2427.34</ele>
        <time>2022-11-30T12:34:25Z</time>
      </trkpt>
      <trkpt lat="44.89374" lon="6.71419">
        <ele>2486.17</ele>
        <time>2022-11-30T12:34:57Z</time>
      </trkpt>
      <trkpt lat="44.89375" lon="6.71418">
        <ele>2332.78</ele>
        <time>2022-11-30T12:35:25Z</time>
      </trkpt>
      <trkpt lat="44.89376" lon="6.71419">
        <ele>2332.53</ele>
        <time>2022-11-30T12:36:35Z</time>
      </trkpt>
      <trkpt lat="44.89379" lon="6.71419">
        <ele>2331.31</ele>
        <time>2022-11-30T12:36:45Z</time>
      </trkpt>
      <trkpt lat="44.8938" lon="6.71419">
        <ele>2330.84</ele>
        <time>2022-11-30T12:37:03Z</time>
      </trkpt>
      <trkpt lat="44.89382" lon="6.7142">
        <ele>2331.1</ele>
        <time>2022-11-30T12:37:13Z</time>
      </trkpt>
      <trkpt lat="44.89383" lon="6.7142">
        <ele>2331.16</ele>
        <time>2022-11-30T12:37:23Z</time>
      </trkpt>
      <trkpt lat="44.89383" lon="6.71421">
        <ele>2330.95</ele>
        <time>2022-11-30T12:38:02Z</time>
      </trkpt>
      <trkpt lat="44.89383" lon="6.7142">
        <ele>2377.26</ele>
        <time>2022-11-30T12:38:23Z</time>
      </trkpt>
      <trkpt lat="44.89382" lon="6.71421">
        <ele>2330.71</ele>
        <time>2022-11-30T12:38:45Z</time>
      </trkpt>
      <trkpt lat="44.89383" lon="6.71422">
        <ele>2329.77</ele>
        <time>2022-11-30T12:38:56Z</time>
      </trkpt>
      <trkpt lat="44.89384" lon="6.71425">
        <ele>2370.36</ele>
        <time>2022-11-30T12:39:06Z</time>
      </trkpt>
      <trkpt lat="44.89385" lon="6.71425">
        <ele>2332.86</ele>
        <time>2022-11-30T12:39:28Z</time>
      </trkpt>
      <trkpt lat="44.89385" lon="6.71426">
        <ele>2331.25</ele>
        <time>2022-11-30T12:40:34Z</time>
      </trkpt>
      <trkpt lat="44.89417" lon="6.71457">
        <ele>2326.8</ele>
        <time>2022-11-30T12:40:45Z</time>
      </trkpt>
      <trkpt lat="44.89417" lon="6.71456">
        <ele>2325.91</ele>
        <time>2022-11-30T12:40:59Z</time>
      </trkpt>
      <trkpt lat="44.89419" lon="6.7146">
        <ele>2325.44</ele>
        <time>2022-11-30T12:41:10Z</time>
      </trkpt>
      <trkpt lat="44.8943" lon="6.71467">
        <ele>2323.1</ele>
        <time>2022-11-30T12:41:20Z</time>
      </trkpt>
      <trkpt lat="44.89428" lon="6.71468">
        <ele>2322.9</ele>
        <time>2022-11-30T12:41:29Z</time>
      </trkpt>
      <trkpt lat="44.89431" lon="6.71473">
        <ele>2322.5</ele>
        <time>2022-11-30T12:41:39Z</time>
      </trkpt>
      <trkpt lat="44.89432" lon="6.71474">
        <ele>2321.82</ele>
        <time>2022-11-30T12:41:54Z</time>
      </trkpt>
      <trkpt lat="44.89458" lon="6.71543">
        <ele>2378.57</ele>
        <time>2022-11-30T12:42:04Z</time>
      </trkpt>
      <trkpt lat="44.89462" lon="6.71555">
        <ele>2368.6</ele>
        <time>2022-11-30T12:42:14Z</time>
      </trkpt>
      <trkpt lat="44.89462" lon="6.71554">
        <ele>2387.05</ele>
        <time>2022-11-30T12:42:24Z</time>
      </trkpt>
      <trkpt lat="44.89461" lon="6.71553">
        <ele>2386.65</ele>
        <time>2022-11-30T12:42:44Z</time>
      </trkpt>
      <trkpt lat="44.89463" lon="6.71554">
        <ele>2387.31</ele>
        <time>2022-11-30T12:42:57Z</time>
      </trkpt>
      <trkpt lat="44.89485" lon="6.71575">
        <ele>2383.42</ele>
        <time>2022-11-30T12:43:07Z</time>
      </trkpt>
      <trkpt lat="44.89494" lon="6.71594">
        <ele>2379.86</ele>
        <time>2022-11-30T12:43:17Z</time>
      </trkpt>
      <trkpt lat="44.89494" lon="6.71596">
        <ele>2378.8</ele>
        <time>2022-11-30T12:43:28Z</time>
      </trkpt>
      <trkpt lat="44.89494" lon="6.71604">
        <ele>2412.12</ele>
        <time>2022-11-30T12:43:38Z</time>
      </trkpt>
      <trkpt lat="44.89488" lon="6.71662">
        <ele>2407.35</ele>
        <time>2022-11-30T12:43:48Z</time>
      </trkpt>
      <trkpt lat="44.89499" lon="6.71731">
        <ele>2399.39</ele>
        <time>2022-11-30T12:43:58Z</time>
      </trkpt>
      <trkpt lat="44.89503" lon="6.71758">
        <ele>2395.75</ele>
        <time>2022-11-30T12:44:08Z</time>
      </trkpt>
      <trkpt lat="44.89502" lon="6.71759">
        <ele>2374.88</ele>
        <time>2022-11-30T12:44:37Z</time>
      </trkpt>
      <trkpt lat="44.89504" lon="6.7176">
        <ele>2394.64</ele>
        <time>2022-11-30T12:45:57Z</time>
      </trkpt>
      <trkpt lat="44.89516" lon="6.71816">
        <ele>2389.04</ele>
        <time>2022-11-30T12:46:06Z</time>
      </trkpt>
      <trkpt lat="44.89525" lon="6.71876">
        <ele>2373.99</ele>
        <time>2022-11-30T12:46:16Z</time>
      </trkpt>
      <trkpt lat="44.89558" lon="6.71927">
        <ele>2367.64</ele>
        <time>2022-11-30T12:46:26Z</time>
      </trkpt>
      <trkpt lat="44.89575" lon="6.71954">
        <ele>2367.58</ele>
        <time>2022-11-30T12:46:36Z</time>
      </trkpt>
      <trkpt lat="44.89575" lon="6.7197">
        <ele>2347.96</ele>
        <time>2022-11-30T12:46:46Z</time>
      </trkpt>
      <trkpt lat="44.89576" lon="6.71969">
        <ele>2338.61</ele>
        <time>2022-11-30T12:46:56Z</time>
      </trkpt>
      <trkpt lat="44.89575" lon="6.7197">
        <ele>2336.92</ele>
        <time>2022-11-30T12:47:24Z</time>
      </trkpt>
      <trkpt lat="44.89576" lon="6.71969">
        <ele>2337.57</ele>
        <time>2022-11-30T12:47:37Z</time>
      </trkpt>
      <trkpt lat="44.89575" lon="6.7197">
        <ele>2337.42</ele>
        <time>2022-11-30T12:47:47Z</time>
      </trkpt>
      <trkpt lat="44.89576" lon="6.71969">
        <ele>2337.33</ele>
        <time>2022-11-30T12:47:57Z</time>
      </trkpt>
      <trkpt lat="44.89579" lon="6.71986">
        <ele>2336.85</ele>
        <time>2022-11-30T12:48:07Z</time>
      </trkpt>
      <trkpt lat="44.89601" lon="6.72021">
        <ele>2332.97</ele>
        <time>2022-11-30T12:48:16Z</time>
      </trkpt>
      <trkpt lat="44.89624" lon="6.72048">
        <ele>2326.79</ele>
        <time>2022-11-30T12:48:26Z</time>
      </trkpt>
      <trkpt lat="44.89646" lon="6.72101">
        <ele>2320.63</ele>
        <time>2022-11-30T12:48:37Z</time>
      </trkpt>
      <trkpt lat="44.89644" lon="6.72102">
        <ele>2319.27</ele>
        <time>2022-11-30T12:48:47Z</time>
      </trkpt>
      <trkpt lat="44.89645" lon="6.72104">
        <ele>2318.31</ele>
        <time>2022-11-30T12:49:00Z</time>
      </trkpt>
      <trkpt lat="44.89645" lon="6.72105">
        <ele>2320.26</ele>
        <time>2022-11-30T12:49:25Z</time>
      </trkpt>
      <trkpt lat="44.89661" lon="6.7212">
        <ele>2316.93</ele>
        <time>2022-11-30T12:49:35Z</time>
      </trkpt>
      <trkpt lat="44.89698" lon="6.72156">
        <ele>2311.09</ele>
        <time>2022-11-30T12:49:45Z</time>
      </trkpt>
      <trkpt lat="44.89713" lon="6.72185">
        <ele>2306.39</ele>
        <time>2022-11-30T12:49:54Z</time>
      </trkpt>
      <trkpt lat="44.89712" lon="6.72185">
        <ele>2306.39</ele>
        <time>2022-11-30T12:50:04Z</time>
      </trkpt>
      <trkpt lat="44.89712" lon="6.72184">
        <ele>2305.67</ele>
        <time>2022-11-30T12:50:21Z</time>
      </trkpt>
      <trkpt lat="44.89714" lon="6.72186">
        <ele>2305.07</ele>
        <time>2022-11-30T12:50:30Z</time>
      </trkpt>
      <trkpt lat="44.89747" lon="6.72237">
        <ele>2299.92</ele>
        <time>2022-11-30T12:50:40Z</time>
      </trkpt>
      <trkpt lat="44.89747" lon="6.72244">
        <ele>2299.13</ele>
        <time>2022-11-30T12:50:51Z</time>
      </trkpt>
      <trkpt lat="44.89747" lon="6.72245">
        <ele>2316.16</ele>
        <time>2022-11-30T12:51:01Z</time>
      </trkpt>
      <trkpt lat="44.89746" lon="6.72246">
        <ele>2305.58</ele>
        <time>2022-11-30T12:51:11Z</time>
      </trkpt>
      <trkpt lat="44.89746" lon="6.72248">
        <ele>2299.52</ele>
        <time>2022-11-30T12:51:24Z</time>
      </trkpt>
      <trkpt lat="44.89747" lon="6.72248">
        <ele>2299.52</ele>
        <time>2022-11-30T12:51:34Z</time>
      </trkpt>
      <trkpt lat="44.89748" lon="6.72248">
        <ele>2314.16</ele>
        <time>2022-11-30T12:53:01Z</time>
      </trkpt>
      <trkpt lat="44.8975" lon="6.72248">
        <ele>2316.96</ele>
        <time>2022-11-30T12:53:14Z</time>
      </trkpt>
      <trkpt lat="44.89787" lon="6.72273">
        <ele>2313.65</ele>
        <time>2022-11-30T12:53:24Z</time>
      </trkpt>
      <trkpt lat="44.89831" lon="6.7231">
        <ele>2308.38</ele>
        <time>2022-11-30T12:53:34Z</time>
      </trkpt>
      <trkpt lat="44.89884" lon="6.72331">
        <ele>2301.41</ele>
        <time>2022-11-30T12:53:44Z</time>
      </trkpt>
      <trkpt lat="44.89935" lon="6.72361">
        <ele>2295.33</ele>
        <time>2022-11-30T12:53:54Z</time>
      </trkpt>
      <trkpt lat="44.89977" lon="6.7237">
        <ele>2289.57</ele>
        <time>2022-11-30T12:54:04Z</time>
      </trkpt>
      <trkpt lat="44.89978" lon="6.72371">
        <ele>2289.84</ele>
        <time>2022-11-30T12:54:25Z</time>
      </trkpt>
      <trkpt lat="44.89977" lon="6.7237">
        <ele>2278.13</ele>
        <time>2022-11-30T12:54:38Z</time>
      </trkpt>
      <trkpt lat="44.89977" lon="6.72369">
        <ele>2279</ele>
        <time>2022-11-30T12:54:48Z</time>
      </trkpt>
      <trkpt lat="44.89979" lon="6.7237">
        <ele>2289.84</ele>
        <time>2022-11-30T12:54:59Z</time>
      </trkpt>
      <trkpt lat="44.89999" lon="6.72369">
        <ele>2275.83</ele>
        <time>2022-11-30T12:55:09Z</time>
      </trkpt>
      <trkpt lat="44.90006" lon="6.72371">
        <ele>2280.61</ele>
        <time>2022-11-30T12:55:19Z</time>
      </trkpt>
      <trkpt lat="44.90007" lon="6.7237">
        <ele>2279.89</ele>
        <time>2022-11-30T12:55:29Z</time>
      </trkpt>
      <trkpt lat="44.90006" lon="6.72371">
        <ele>2275.25</ele>
        <time>2022-11-30T12:55:39Z</time>
      </trkpt>
      <trkpt lat="44.90006" lon="6.72373">
        <ele>2275</ele>
        <time>2022-11-30T12:55:51Z</time>
      </trkpt>
      <trkpt lat="44.90006" lon="6.72372">
        <ele>2275.32</ele>
        <time>2022-11-30T12:56:03Z</time>
      </trkpt>
      <trkpt lat="44.90007" lon="6.72371">
        <ele>2289.79</ele>
        <time>2022-11-30T12:56:21Z</time>
      </trkpt>
      <trkpt lat="44.90006" lon="6.7237">
        <ele>2277.17</ele>
        <time>2022-11-30T12:56:34Z</time>
      </trkpt>
      <trkpt lat="44.90006" lon="6.72371">
        <ele>2290.15</ele>
        <time>2022-11-30T12:56:56Z</time>
      </trkpt>
      <trkpt lat="44.90005" lon="6.72371">
        <ele>2276.63</ele>
        <time>2022-11-30T12:57:35Z</time>
      </trkpt>
      <trkpt lat="44.90005" lon="6.72371">
        <ele>2276.59</ele>
        <time>2022-11-30T12:57:53Z</time>
      </trkpt>
      <trkpt lat="44.90006" lon="6.72371">
        <ele>2276.66</ele>
        <time>2022-11-30T12:58:03Z</time>
      </trkpt>
      <trkpt lat="44.90005" lon="6.72372">
        <ele>2276.34</ele>
        <time>2022-11-30T12:58:21Z</time>
      </trkpt>
      <trkpt lat="44.90006" lon="6.72371">
        <ele>2277.75</ele>
        <time>2022-11-30T12:58:35Z</time>
      </trkpt>
      <trkpt lat="44.90007" lon="6.7237">
        <ele>2276.87</ele>
        <time>2022-11-30T12:59:20Z</time>
      </trkpt>
      <trkpt lat="44.90008" lon="6.7237">
        <ele>2289.49</ele>
        <time>2022-11-30T12:59:36Z</time>
      </trkpt>
      <trkpt lat="44.90026" lon="6.72367">
        <ele>2275.77</ele>
        <time>2022-11-30T12:59:45Z</time>
      </trkpt>
      <trkpt lat="44.90066" lon="6.72371">
        <ele>2279.32</ele>
        <time>2022-11-30T12:59:56Z</time>
      </trkpt>
      <trkpt lat="44.90104" lon="6.72386">
        <ele>2280.39</ele>
        <time>2022-11-30T13:00:06Z</time>
      </trkpt>
      <trkpt lat="44.9016" lon="6.72405">
        <ele>2265.28</ele>
        <time>2022-11-30T13:00:16Z</time>
      </trkpt>
      <trkpt lat="44.90212" lon="6.72411">
        <ele>2269.14</ele>
        <time>2022-11-30T13:00:26Z</time>
      </trkpt>
      <trkpt lat="44.90252" lon="6.72446">
        <ele>2259.19</ele>
        <time>2022-11-30T13:00:37Z</time>
      </trkpt>
      <trkpt lat="44.90297" lon="6.72453">
        <ele>2254.25</ele>
        <time>2022-11-30T13:00:46Z</time>
      </trkpt>
      <trkpt lat="44.90338" lon="6.72461">
        <ele>2249.7</ele>
        <time>2022-11-30T13:00:56Z</time>
      </trkpt>
      <trkpt lat="44.9039" lon="6.72471">
        <ele>2244.7</ele>
        <time>2022-11-30T13:01:06Z</time>
      </trkpt>
      <trkpt lat="44.90418" lon="6.72481">
        <ele>2241.82</ele>
        <time>2022-11-30T13:01:16Z</time>
      </trkpt>
      <trkpt lat="44.90417" lon="6.72482">
        <ele>2241.73</ele>
        <time>2022-11-30T13:01:43Z</time>
      </trkpt>
      <trkpt lat="44.90437" lon="6.72474">
        <ele>2245.78</ele>
        <time>2022-11-30T13:01:53Z</time>
      </trkpt>
      <trkpt lat="44.90476" lon="6.72482">
        <ele>2240.5</ele>
        <time>2022-11-30T13:02:03Z</time>
      </trkpt>
      <trkpt lat="44.90482" lon="6.72487">
        <ele>2239.04</ele>
        <time>2022-11-30T13:02:13Z</time>
      </trkpt>
      <trkpt lat="44.90482" lon="6.72488">
        <ele>2234.75</ele>
        <time>2022-11-30T13:02:26Z</time>
      </trkpt>
      <trkpt lat="44.90483" lon="6.7249">
        <ele>2238.55</ele>
        <time>2022-11-30T13:02:36Z</time>
      </trkpt>
      <trkpt lat="44.90485" lon="6.72487">
        <ele>2239.81</ele>
        <time>2022-11-30T13:02:46Z</time>
      </trkpt>
      <trkpt lat="44.90484" lon="6.72487">
        <ele>2238.85</ele>
        <time>2022-11-30T13:02:56Z</time>
      </trkpt>
      <trkpt lat="44.90503" lon="6.72487">
        <ele>2240.6</ele>
        <time>2022-11-30T13:03:05Z</time>
      </trkpt>
      <trkpt lat="44.90547" lon="6.725">
        <ele>2234.22</ele>
        <time>2022-11-30T13:03:15Z</time>
      </trkpt>
      <trkpt lat="44.90591" lon="6.72509">
        <ele>2228.93</ele>
        <time>2022-11-30T13:03:25Z</time>
      </trkpt>
      <trkpt lat="44.90602" lon="6.72508">
        <ele>2224.63</ele>
        <time>2022-11-30T13:03:35Z</time>
      </trkpt>
      <trkpt lat="44.90601" lon="6.72509">
        <ele>2225.35</ele>
        <time>2022-11-30T13:04:12Z</time>
      </trkpt>
      <trkpt lat="44.90601" lon="6.72511">
        <ele>2225.26</ele>
        <time>2022-11-30T13:04:22Z</time>
      </trkpt>
      <trkpt lat="44.90601" lon="6.72509">
        <ele>2223.68</ele>
        <time>2022-11-30T13:04:32Z</time>
      </trkpt>
      <trkpt lat="44.906" lon="6.72509">
        <ele>2223.65</ele>
        <time>2022-11-30T13:04:42Z</time>
      </trkpt>
      <trkpt lat="44.90601" lon="6.72507">
        <ele>2225.46</ele>
        <time>2022-11-30T13:04:52Z</time>
      </trkpt>
      <trkpt lat="44.90601" lon="6.72509">
        <ele>2227.12</ele>
        <time>2022-11-30T13:05:02Z</time>
      </trkpt>
      <trkpt lat="44.90602" lon="6.7251">
        <ele>2226.24</ele>
        <time>2022-11-30T13:05:25Z</time>
      </trkpt>
      <trkpt lat="44.90636" lon="6.72523">
        <ele>2222.92</ele>
        <time>2022-11-30T13:05:35Z</time>
      </trkpt>
      <trkpt lat="44.90701" lon="6.72525">
        <ele>2215.65</ele>
        <time>2022-11-30T13:05:45Z</time>
      </trkpt>
      <trkpt lat="44.9076" lon="6.72521">
        <ele>2207.53</ele>
        <time>2022-11-30T13:05:55Z</time>
      </trkpt>
      <trkpt lat="44.9083" lon="6.72525">
        <ele>2200.09</ele>
        <time>2022-11-30T13:06:05Z</time>
      </trkpt>
      <trkpt lat="44.90879" lon="6.72516">
        <ele>2195.52</ele>
        <time>2022-11-30T13:06:15Z</time>
      </trkpt>
      <trkpt lat="44.90936" lon="6.725">
        <ele>2190.75</ele>
        <time>2022-11-30T13:06:25Z</time>
      </trkpt>
      <trkpt lat="44.90961" lon="6.72491">
        <ele>2188.82</ele>
        <time>2022-11-30T13:06:35Z</time>
      </trkpt>
      <trkpt lat="44.9096" lon="6.72492">
        <ele>2191.85</ele>
        <time>2022-11-30T13:06:45Z</time>
      </trkpt>
      <trkpt lat="44.90959" lon="6.72492">
        <ele>2195.96</ele>
        <time>2022-11-30T13:06:55Z</time>
      </trkpt>
      <trkpt lat="44.90959" lon="6.72494">
        <ele>2192.67</ele>
        <time>2022-11-30T13:07:05Z</time>
      </trkpt>
      <trkpt lat="44.90958" lon="6.72495">
        <ele>2198.16</ele>
        <time>2022-11-30T13:07:15Z</time>
      </trkpt>
      <trkpt lat="44.90957" lon="6.72495">
        <ele>2196.33</ele>
        <time>2022-11-30T13:07:25Z</time>
      </trkpt>
      <trkpt lat="44.90956" lon="6.72497">
        <ele>2193.55</ele>
        <time>2022-11-30T13:07:35Z</time>
      </trkpt>
      <trkpt lat="44.90955" lon="6.72496">
        <ele>2192.84</ele>
        <time>2022-11-30T13:07:46Z</time>
      </trkpt>
      <trkpt lat="44.90958" lon="6.7249">
        <ele>2190.14</ele>
        <time>2022-11-30T13:07:57Z</time>
      </trkpt>
      <trkpt lat="44.90959" lon="6.72487">
        <ele>2194.23</ele>
        <time>2022-11-30T13:08:07Z</time>
      </trkpt>
      <trkpt lat="44.90982" lon="6.72453">
        <ele>2188.54</ele>
        <time>2022-11-30T13:08:16Z</time>
      </trkpt>
      <trkpt lat="44.90997" lon="6.72406">
        <ele>2183.28</ele>
        <time>2022-11-30T13:08:25Z</time>
      </trkpt>
      <trkpt lat="44.91013" lon="6.72356">
        <ele>2172.28</ele>
        <time>2022-11-30T13:08:35Z</time>
      </trkpt>
      <trkpt lat="44.91045" lon="6.72296">
        <ele>2174.42</ele>
        <time>2022-11-30T13:08:45Z</time>
      </trkpt>
      <trkpt lat="44.91082" lon="6.72278">
        <ele>2175.84</ele>
        <time>2022-11-30T13:08:55Z</time>
      </trkpt>
      <trkpt lat="44.9112" lon="6.72288">
        <ele>2179.14</ele>
        <time>2022-11-30T13:09:04Z</time>
      </trkpt>
      <trkpt lat="44.9116" lon="6.72314">
        <ele>2172.4</ele>
        <time>2022-11-30T13:09:14Z</time>
      </trkpt>
      <trkpt lat="44.91162" lon="6.72314">
        <ele>2170.94</ele>
        <time>2022-11-30T13:09:25Z</time>
      </trkpt>
      <trkpt lat="44.91163" lon="6.72313">
        <ele>2165.58</ele>
        <time>2022-11-30T13:09:35Z</time>
      </trkpt>
      <trkpt lat="44.91163" lon="6.72314">
        <ele>2175.32</ele>
        <time>2022-11-30T13:09:45Z</time>
      </trkpt>
      <trkpt lat="44.91181" lon="6.7232">
        <ele>2165.72</ele>
        <time>2022-11-30T13:09:54Z</time>
      </trkpt>
      <trkpt lat="44.91179" lon="6.72322">
        <ele>2166.8</ele>
        <time>2022-11-30T13:10:04Z</time>
      </trkpt>
      <trkpt lat="44.91178" lon="6.72321">
        <ele>2177.13</ele>
        <time>2022-11-30T13:10:14Z</time>
      </trkpt>
      <trkpt lat="44.91177" lon="6.72322">
        <ele>2180.31</ele>
        <time>2022-11-30T13:10:24Z</time>
      </trkpt>
      <trkpt lat="44.91176" lon="6.72326">
        <ele>2189.89</ele>
        <time>2022-11-30T13:10:34Z</time>
      </trkpt>
      <trkpt lat="44.91195" lon="6.72328">
        <ele>2178.93</ele>
        <time>2022-11-30T13:10:44Z</time>
      </trkpt>
      <trkpt lat="44.91247" lon="6.72342">
        <ele>2158.92</ele>
        <time>2022-11-30T13:10:54Z</time>
      </trkpt>
      <trkpt lat="44.91294" lon="6.72374">
        <ele>2163.04</ele>
        <time>2022-11-30T13:11:04Z</time>
      </trkpt>
      <trkpt lat="44.91355" lon="6.72421">
        <ele>2155.05</ele>
        <time>2022-11-30T13:11:14Z</time>
      </trkpt>
      <trkpt lat="44.91419" lon="6.72434">
        <ele>2149.97</ele>
        <time>2022-11-30T13:11:24Z</time>
      </trkpt>
      <trkpt lat="44.91479" lon="6.72455">
        <ele>2130.68</ele>
        <time>2022-11-30T13:11:34Z</time>
      </trkpt>
      <trkpt lat="44.91533" lon="6.7248">
        <ele>2120.98</ele>
        <time>2022-11-30T13:11:44Z</time>
      </trkpt>
      <trkpt lat="44.91534" lon="6.72483">
        <ele>2119.81</ele>
        <time>2022-11-30T13:11:54Z</time>
      </trkpt>
      <trkpt lat="44.91534" lon="6.72481">
        <ele>2137.5</ele>
        <time>2022-11-30T13:12:07Z</time>
      </trkpt>
      <trkpt lat="44.91535" lon="6.72481">
        <ele>2119.71</ele>
        <time>2022-11-30T13:12:18Z</time>
      </trkpt>
      <trkpt lat="44.91539" lon="6.72482">
        <ele>2136.18</ele>
        <time>2022-11-30T13:12:28Z</time>
      </trkpt>
      <trkpt lat="44.91539" lon="6.7248">
        <ele>2119.41</ele>
        <time>2022-11-30T13:12:38Z</time>
      </trkpt>
      <trkpt lat="44.91539" lon="6.72479">
        <ele>2119.12</ele>
        <time>2022-11-30T13:13:07Z</time>
      </trkpt>
      <trkpt lat="44.91538" lon="6.72478">
        <ele>2119.74</ele>
        <time>2022-11-30T13:13:24Z</time>
      </trkpt>
      <trkpt lat="44.91537" lon="6.72478">
        <ele>2137.91</ele>
        <time>2022-11-30T13:13:34Z</time>
      </trkpt>
      <trkpt lat="44.91538" lon="6.72478">
        <ele>2119.38</ele>
        <time>2022-11-30T13:13:54Z</time>
      </trkpt>
      <trkpt lat="44.9154" lon="6.7248">
        <ele>2135.21</ele>
        <time>2022-11-30T13:14:04Z</time>
      </trkpt>
      <trkpt lat="44.9154" lon="6.72481">
        <ele>2137.83</ele>
        <time>2022-11-30T13:14:17Z</time>
      </trkpt>
      <trkpt lat="44.91541" lon="6.72481">
        <ele>2125.58</ele>
        <time>2022-11-30T13:14:41Z</time>
      </trkpt>
      <trkpt lat="44.91571" lon="6.72475">
        <ele>2119.78</ele>
        <time>2022-11-30T13:14:51Z</time>
      </trkpt>
      <trkpt lat="44.91621" lon="6.72473">
        <ele>2128.01</ele>
        <time>2022-11-30T13:15:02Z</time>
      </trkpt>
      <trkpt lat="44.91663" lon="6.7246">
        <ele>2133.1</ele>
        <time>2022-11-30T13:15:13Z</time>
      </trkpt>
      <trkpt lat="44.91736" lon="6.72439">
        <ele>2116.46</ele>
        <time>2022-11-30T13:15:23Z</time>
      </trkpt>
      <trkpt lat="44.91798" lon="6.72433">
        <ele>2119.81</ele>
        <time>2022-11-30T13:15:33Z</time>
      </trkpt>
      <trkpt lat="44.91853" lon="6.72417">
        <ele>2133.4</ele>
        <time>2022-11-30T13:15:43Z</time>
      </trkpt>
      <trkpt lat="44.91914" lon="6.72409">
        <ele>2118.03</ele>
        <time>2022-11-30T13:15:53Z</time>
      </trkpt>
      <trkpt lat="44.9197" lon="6.72388">
        <ele>2127.2</ele>
        <time>2022-11-30T13:16:03Z</time>
      </trkpt>
      <trkpt lat="44.92025" lon="6.72363">
        <ele>2131.62</ele>
        <time>2022-11-30T13:16:13Z</time>
      </trkpt>
      <trkpt lat="44.92079" lon="6.7234">
        <ele>2108.71</ele>
        <time>2022-11-30T13:16:23Z</time>
      </trkpt>
      <trkpt lat="44.92129" lon="6.72308">
        <ele>2082.04</ele>
        <time>2022-11-30T13:16:33Z</time>
      </trkpt>
      <trkpt lat="44.9217" lon="6.72274">
        <ele>2092</ele>
        <time>2022-11-30T13:16:43Z</time>
      </trkpt>
      <trkpt lat="44.92211" lon="6.72254">
        <ele>2073.88</ele>
        <time>2022-11-30T13:16:52Z</time>
      </trkpt>
      <trkpt lat="44.92212" lon="6.72257">
        <ele>2028.55</ele>
        <time>2022-11-30T13:17:02Z</time>
      </trkpt>
      <trkpt lat="44.92212" lon="6.72256">
        <ele>2028.68</ele>
        <time>2022-11-30T13:17:20Z</time>
      </trkpt>
      <trkpt lat="44.92211" lon="6.72258">
        <ele>2030.1</ele>
        <time>2022-11-30T13:17:45Z</time>
      </trkpt>
      <trkpt lat="44.92211" lon="6.72259">
        <ele>2111.28</ele>
        <time>2022-11-30T13:17:55Z</time>
      </trkpt>
      <trkpt lat="44.92212" lon="6.72256">
        <ele>2065.34</ele>
        <time>2022-11-30T13:18:05Z</time>
      </trkpt>
      <trkpt lat="44.92213" lon="6.72256">
        <ele>2064.66</ele>
        <time>2022-11-30T13:18:15Z</time>
      </trkpt>
      <trkpt lat="44.92244" lon="6.72231">
        <ele>2097.07</ele>
        <time>2022-11-30T13:18:25Z</time>
      </trkpt>
      <trkpt lat="44.92286" lon="6.72191">
        <ele>2075.76</ele>
        <time>2022-11-30T13:18:35Z</time>
      </trkpt>
      <trkpt lat="44.9233" lon="6.72163">
        <ele>2028.66</ele>
        <time>2022-11-30T13:18:45Z</time>
      </trkpt>
      <trkpt lat="44.92383" lon="6.72171">
        <ele>2012.89</ele>
        <time>2022-11-30T13:18:55Z</time>
      </trkpt>
      <trkpt lat="44.92421" lon="6.7216">
        <ele>2007.71</ele>
        <time>2022-11-30T13:19:05Z</time>
      </trkpt>
      <trkpt lat="44.92475" lon="6.7216">
        <ele>1997.69</ele>
        <time>2022-11-30T13:19:15Z</time>
      </trkpt>
      <trkpt lat="44.92523" lon="6.72163">
        <ele>1983.23</ele>
        <time>2022-11-30T13:19:25Z</time>
      </trkpt>
      <trkpt lat="44.92531" lon="6.72163">
        <ele>1933.55</ele>
        <time>2022-11-30T13:19:35Z</time>
      </trkpt>
      <trkpt lat="44.92532" lon="6.72162">
        <ele>1908.19</ele>
        <time>2022-11-30T13:19:53Z</time>
      </trkpt>
      <trkpt lat="44.92533" lon="6.72161">
        <ele>1908.46</ele>
        <time>2022-11-30T13:20:03Z</time>
      </trkpt>
      <trkpt lat="44.92534" lon="6.72161">
        <ele>1995.13</ele>
        <time>2022-11-30T13:20:23Z</time>
      </trkpt>
      <trkpt lat="44.92533" lon="6.72161">
        <ele>1991.67</ele>
        <time>2022-11-30T13:20:34Z</time>
      </trkpt>
      <trkpt lat="44.92543" lon="6.72163">
        <ele>1979.59</ele>
        <time>2022-11-30T13:20:44Z</time>
      </trkpt>
      <trkpt lat="44.92573" lon="6.72165">
        <ele>1976.04</ele>
        <time>2022-11-30T13:20:54Z</time>
      </trkpt>
      <trkpt lat="44.92584" lon="6.72121">
        <ele>1971.83</ele>
        <time>2022-11-30T13:21:04Z</time>
      </trkpt>
      <trkpt lat="44.92612" lon="6.72077">
        <ele>1976.72</ele>
        <time>2022-11-30T13:21:14Z</time>
      </trkpt>
      <trkpt lat="44.92642" lon="6.72058">
        <ele>1929.64</ele>
        <time>2022-11-30T13:21:25Z</time>
      </trkpt>
      <trkpt lat="44.92644" lon="6.72056">
        <ele>1929.22</ele>
        <time>2022-11-30T13:21:35Z</time>
      </trkpt>
      <trkpt lat="44.92643" lon="6.7206">
        <ele>1921.79</ele>
        <time>2022-11-30T13:21:45Z</time>
      </trkpt>
      <trkpt lat="44.92643" lon="6.72059">
        <ele>1921.7</ele>
        <time>2022-11-30T13:22:00Z</time>
      </trkpt>
      <trkpt lat="44.92645" lon="6.72059">
        <ele>1921.7</ele>
        <time>2022-11-30T13:22:11Z</time>
      </trkpt>
      <trkpt lat="44.92645" lon="6.72057">
        <ele>1921.7</ele>
        <time>2022-11-30T13:22:21Z</time>
      </trkpt>
      <trkpt lat="44.92653" lon="6.72052">
        <ele>1921.7</ele>
        <time>2022-11-30T13:22:31Z</time>
      </trkpt>
      <trkpt lat="44.92687" lon="6.72018">
        <ele>1921.7</ele>
        <time>2022-11-30T13:22:41Z</time>
      </trkpt>
      <trkpt lat="44.92723" lon="6.71973">
        <ele>1921.7</ele>
        <time>2022-11-30T13:22:51Z</time>
      </trkpt>
      <trkpt lat="44.92762" lon="6.71947">
        <ele>1921.7</ele>
        <time>2022-11-30T13:23:01Z</time>
      </trkpt>
      <trkpt lat="44.92801" lon="6.71913">
        <ele>1921.7</ele>
        <time>2022-11-30T13:23:10Z</time>
      </trkpt>
      <trkpt lat="44.92801" lon="6.71906">
        <ele>1921.7</ele>
        <time>2022-11-30T13:23:20Z</time>
      </trkpt>
      <trkpt lat="44.92803" lon="6.71906">
        <ele>1910.99</ele>
        <time>2022-11-30T13:23:30Z</time>
      </trkpt>
      <trkpt lat="44.92809" lon="6.71854">
        <ele>1904.33</ele>
        <time>2022-11-30T13:23:40Z</time>
      </trkpt>
      <trkpt lat="44.92809" lon="6.7178">
        <ele>1896.98</ele>
        <time>2022-11-30T13:23:50Z</time>
      </trkpt>
      <trkpt lat="44.92848" lon="6.71748">
        <ele>1892.94</ele>
        <time>2022-11-30T13:24:00Z</time>
      </trkpt>
      <trkpt lat="44.92874" lon="6.7174">
        <ele>1890.44</ele>
        <time>2022-11-30T13:24:10Z</time>
      </trkpt>
      <trkpt lat="44.92881" lon="6.71739">
        <ele>1887.06</ele>
        <time>2022-11-30T13:24:20Z</time>
      </trkpt>
      <trkpt lat="44.92881" lon="6.71741">
        <ele>1878.49</ele>
        <time>2022-11-30T13:24:30Z</time>
      </trkpt>
      <trkpt lat="44.92885" lon="6.7173">
        <ele>1878.4</ele>
        <time>2022-11-30T13:24:40Z</time>
      </trkpt>
      <trkpt lat="44.92891" lon="6.717">
        <ele>1878.4</ele>
        <time>2022-11-30T13:24:49Z</time>
      </trkpt>
      <trkpt lat="44.92896" lon="6.71682">
        <ele>1878.4</ele>
        <time>2022-11-30T13:24:59Z</time>
      </trkpt>
      <trkpt lat="44.92896" lon="6.71679">
        <ele>1883.32</ele>
        <time>2022-11-30T13:25:09Z</time>
      </trkpt>
      <trkpt lat="44.92896" lon="6.71677">
        <ele>1877.5</ele>
        <time>2022-11-30T13:25:18Z</time>
      </trkpt>
      <trkpt lat="44.92898" lon="6.71676">
        <ele>1877.01</ele>
        <time>2022-11-30T13:25:36Z</time>
      </trkpt>
      <trkpt lat="44.92898" lon="6.71675">
        <ele>1877.22</ele>
        <time>2022-11-30T13:26:07Z</time>
      </trkpt>
      <trkpt lat="44.929" lon="6.71675">
        <ele>1877</ele>
        <time>2022-11-30T13:26:17Z</time>
      </trkpt>
      <trkpt lat="44.92901" lon="6.71676">
        <ele>1885.81</ele>
        <time>2022-11-30T13:26:27Z</time>
      </trkpt>
      <trkpt lat="44.929" lon="6.71674">
        <ele>1885.84</ele>
        <time>2022-11-30T13:26:37Z</time>
      </trkpt>
      <trkpt lat="44.92899" lon="6.71674">
        <ele>1878.19</ele>
        <time>2022-11-30T13:27:19Z</time>
      </trkpt>
      <trkpt lat="44.92898" lon="6.71674">
        <ele>1882.66</ele>
        <time>2022-11-30T13:28:01Z</time>
      </trkpt>
      <trkpt lat="44.92899" lon="6.71675">
        <ele>1881.96</ele>
        <time>2022-11-30T13:28:11Z</time>
      </trkpt>
      <trkpt lat="44.92899" lon="6.71677">
        <ele>1887.55</ele>
        <time>2022-11-30T13:28:21Z</time>
      </trkpt>
      <trkpt lat="44.929" lon="6.71676">
        <ele>1890.06</ele>
        <time>2022-11-30T13:28:48Z</time>
      </trkpt>
      <trkpt lat="44.92901" lon="6.71677">
        <ele>1890.35</ele>
        <time>2022-11-30T13:28:58Z</time>
      </trkpt>
      <trkpt lat="44.92902" lon="6.71676">
        <ele>1888.08</ele>
        <time>2022-11-30T13:29:17Z</time>
      </trkpt>
      <trkpt lat="44.92901" lon="6.71677">
        <ele>1880.84</ele>
        <time>2022-11-30T13:29:27Z</time>
      </trkpt>
      <trkpt lat="44.929" lon="6.71678">
        <ele>1888.11</ele>
        <time>2022-11-30T13:29:49Z</time>
      </trkpt>
      <trkpt lat="44.92899" lon="6.7168">
        <ele>1888.5</ele>
        <time>2022-11-30T13:29:59Z</time>
      </trkpt>
      <trkpt lat="44.92898" lon="6.71679">
        <ele>1888.21</ele>
        <time>2022-11-30T13:30:09Z</time>
      </trkpt>
      <trkpt lat="44.92898" lon="6.7168">
        <ele>1887.39</ele>
        <time>2022-11-30T13:30:57Z</time>
      </trkpt>
      <trkpt lat="44.92898" lon="6.7168">
        <ele>1887.01</ele>
        <time>2022-11-30T13:31:12Z</time>
      </trkpt>
      <trkpt lat="44.92897" lon="6.71679">
        <ele>1880.67</ele>
        <time>2022-11-30T13:31:22Z</time>
      </trkpt>
      <trkpt lat="44.92895" lon="6.7168">
        <ele>1883.05</ele>
        <time>2022-11-30T13:31:32Z</time>
      </trkpt>
      <trkpt lat="44.92897" lon="6.7168">
        <ele>1884.28</ele>
        <time>2022-11-30T13:31:42Z</time>
      </trkpt>
      <trkpt lat="44.92898" lon="6.71679">
        <ele>1881.99</ele>
        <time>2022-11-30T13:31:52Z</time>
      </trkpt>
      <trkpt lat="44.92899" lon="6.71679">
        <ele>1882.3</ele>
        <time>2022-11-30T13:32:02Z</time>
      </trkpt>
      <trkpt lat="44.92899" lon="6.71677">
        <ele>1887.06</ele>
        <time>2022-11-30T13:32:15Z</time>
      </trkpt>
      <trkpt lat="44.92899" lon="6.71678">
        <ele>1887</ele>
        <time>2022-11-30T13:32:34Z</time>
      </trkpt>
      <trkpt lat="44.92899" lon="6.71677">
        <ele>1887.31</ele>
        <time>2022-11-30T13:33:20Z</time>
      </trkpt>
      <trkpt lat="44.92898" lon="6.71677">
        <ele>1877.47</ele>
        <time>2022-11-30T13:33:33Z</time>
      </trkpt>
      <trkpt lat="44.92897" lon="6.71677">
        <ele>1877</ele>
        <time>2022-11-30T13:34:07Z</time>
      </trkpt>
      <trkpt lat="44.92898" lon="6.71677">
        <ele>1877</ele>
        <time>2022-11-30T13:34:25Z</time>
      </trkpt>
      <trkpt lat="44.92899" lon="6.71676">
        <ele>1877</ele>
        <time>2022-11-30T13:34:40Z</time>
      </trkpt>
      <trkpt lat="44.929" lon="6.71677">
        <ele>1877</ele>
        <time>2022-11-30T13:35:14Z</time>
      </trkpt>
      <trkpt lat="44.92899" lon="6.71677">
        <ele>1877</ele>
        <time>2022-11-30T13:35:30Z</time>
      </trkpt>
      <trkpt lat="44.92898" lon="6.71677">
        <ele>1877</ele>
        <time>2022-11-30T13:35:40Z</time>
      </trkpt>
      <trkpt lat="44.92899" lon="6.71676">
        <ele>1877</ele>
        <time>2022-11-30T13:36:21Z</time>
      </trkpt>
      <trkpt lat="44.92899" lon="6.71675">
        <ele>1877.39</ele>
        <time>2022-11-30T13:36:31Z</time>
      </trkpt>
      <trkpt lat="44.92899" lon="6.71676">
        <ele>1877</ele>
        <time>2022-11-30T13:37:51Z</time>
      </trkpt>
      <trkpt lat="44.929" lon="6.71676">
        <ele>1877</ele>
        <time>2022-11-30T13:38:25Z</time>
      </trkpt>
      <trkpt lat="44.92899" lon="6.71676">
        <ele>1887.61</ele>
        <time>2022-11-30T13:39:18Z</time>
      </trkpt>
      <trkpt lat="44.92899" lon="6.71677">
        <ele>1885.39</ele>
        <time>2022-11-30T13:39:40Z</time>
      </trkpt>
      <trkpt lat="44.929" lon="6.71676">
        <ele>1883.4</ele>
        <time>2022-11-30T13:41:13Z</time>
      </trkpt>
      <trkpt lat="44.92899" lon="6.71677">
        <ele>1877.07</ele>
        <time>2022-11-30T13:41:23Z</time>
      </trkpt>
      <trkpt lat="44.929" lon="6.71676">
        <ele>1892.03</ele>
        <time>2022-11-30T13:41:33Z</time>
      </trkpt>
      <trkpt lat="44.92899" lon="6.71676">
        <ele>1887.7</ele>
        <time>2022-11-30T13:41:54Z</time>
      </trkpt>
      <trkpt lat="44.92898" lon="6.71679">
        <ele>1887.28</ele>
        <time>2022-11-30T13:42:04Z</time>
      </trkpt>
      <trkpt lat="44.929" lon="6.71678">
        <ele>1877.75</ele>
        <time>2022-11-30T13:42:14Z</time>
      </trkpt>
      <trkpt lat="44.92901" lon="6.71678">
        <ele>1877</ele>
        <time>2022-11-30T13:42:30Z</time>
      </trkpt>
      <trkpt lat="44.92901" lon="6.71677">
        <ele>1880.61</ele>
        <time>2022-11-30T13:42:54Z</time>
      </trkpt>
      <trkpt lat="44.92899" lon="6.71677">
        <ele>1887.22</ele>
        <time>2022-11-30T13:43:04Z</time>
      </trkpt>
      <trkpt lat="44.929" lon="6.71677">
        <ele>1886.19</ele>
        <time>2022-11-30T13:43:18Z</time>
      </trkpt>
      <trkpt lat="44.92899" lon="6.71677">
        <ele>1885.67</ele>
        <time>2022-11-30T13:43:47Z</time>
      </trkpt>
      <trkpt lat="44.92899" lon="6.71675">
        <ele>1884.98</ele>
        <time>2022-11-30T13:44:11Z</time>
      </trkpt>
      <trkpt lat="44.929" lon="6.71676">
        <ele>1886.02</ele>
        <time>2022-11-30T13:44:21Z</time>
      </trkpt>
      <trkpt lat="44.92899" lon="6.71675">
        <ele>1881.64</ele>
        <time>2022-11-30T13:44:31Z</time>
      </trkpt>
      <trkpt lat="44.92894" lon="6.71677">
        <ele>1882.5</ele>
        <time>2022-11-30T13:44:41Z</time>
      </trkpt>
      <trkpt lat="44.92889" lon="6.7166">
        <ele>1877.64</ele>
        <time>2022-11-30T13:44:51Z</time>
      </trkpt>
      <trkpt lat="44.92887" lon="6.71671">
        <ele>1882.04</ele>
        <time>2022-11-30T13:45:01Z</time>
      </trkpt>
      <trkpt lat="44.929" lon="6.71655">
        <ele>1877.03</ele>
        <time>2022-11-30T13:45:11Z</time>
      </trkpt>
      <trkpt lat="44.92907" lon="6.71656">
        <ele>1877</ele>
        <time>2022-11-30T13:45:21Z</time>
      </trkpt>
      <trkpt lat="44.92908" lon="6.71656">
        <ele>1889.3</ele>
        <time>2022-11-30T13:45:25Z</time>
      </trkpt>
    </trkseg>
  </trk>
</gpx>